<?xml version='1.0' encoding='UTF-8'?><gpx version="1.1" creator="JPX - https://github.com/jenetics/jpx" xmlns="http://www.topografix.com/GPX/1/1"><trk><trkseg><trkpt lat="45.4805604" lon="9.3223769"><ele>114.0</ele><time>2026-04-17T15:04:34.008Z</time></trkpt><trkpt lat="45.4806406" lon="9.322362"><ele>114.0</ele><time>2026-04-17T15:04:37.008Z</time></trkpt><trkpt lat="45.4807341" lon="9.3223636"><ele>114.0</ele><time>2026-04-17T15:04:40.008Z</time></trkpt><trkpt lat="45.4808087" lon="9.3223557"><ele>114.0</ele><time>2026-04-17T15:04:42.008Z</time></trkpt><trkpt lat="45.4808869" lon="9.3223463"><ele>114.0</ele><time>2026-04-17T15:04:44.008Z</time></trkpt><trkpt lat="45.4809653" lon="9.3223431"><ele>114.0</ele><time>2026-04-17T15:04:46.008Z</time></trkpt><trkpt lat="45.4810464" lon="9.3223425"><ele>114.0</ele><time>2026-04-17T15:04:48.008Z</time></trkpt><trkpt lat="45.4811278" lon="9.3223279"><ele>114.0</ele><time>2026-04-17T15:04:50.008Z</time></trkpt><trkpt lat="45.4812172" lon="9.3223219"><ele>114.0</ele><time>2026-04-17T15:04:52.008Z</time></trkpt><trkpt lat="45.4813034" lon="9.322322"><ele>114.0</ele><time>2026-04-17T15:04:54.008Z</time></trkpt><trkpt lat="45.4813778" lon="9.3223143"><ele>114.0</ele><time>2026-04-17T15:04:56.008Z</time></trkpt><trkpt lat="45.4814433" lon="9.3223065"><ele>114.0</ele><time>2026-04-17T15:04:58.008Z</time></trkpt><trkpt lat="45.4815088" lon="9.3222886"><ele>114.33333333333333</ele><time>2026-04-17T15:05:04.008Z</time></trkpt><trkpt lat="45.4815655" lon="9.3222141"><ele>114.66666666666666</ele><time>2026-04-17T15:05:08.008Z</time></trkpt><trkpt lat="45.481595" lon="9.3221302"><ele>115.0</ele><time>2026-04-17T15:05:10.008Z</time></trkpt><trkpt lat="45.481592" lon="9.3220237"><ele>115.33333333333333</ele><time>2026-04-17T15:05:12.008Z</time></trkpt><trkpt lat="45.481589" lon="9.3219133"><ele>115.66666666666666</ele><time>2026-04-17T15:05:14.008Z</time></trkpt><trkpt lat="45.4815884" lon="9.321796"><ele>116.0</ele><time>2026-04-17T15:05:16.008Z</time></trkpt><trkpt lat="45.4815941" lon="9.3216739"><ele>115.99999999999999</ele><time>2026-04-17T15:05:18.008Z</time></trkpt><trkpt lat="45.4815871" lon="9.3215525"><ele>116.0</ele><time>2026-04-17T15:05:20.008Z</time></trkpt><trkpt lat="45.4815786" lon="9.3214301"><ele>116.0</ele><time>2026-04-17T15:05:22.008Z</time></trkpt><trkpt lat="45.4815355" lon="9.3213509"><ele>116.0</ele><time>2026-04-17T15:05:25.008Z</time></trkpt><trkpt lat="45.4814746" lon="9.3214494"><ele>115.99999999999999</ele><time>2026-04-17T15:05:28.008Z</time></trkpt><trkpt lat="45.4813894" lon="9.3213982"><ele>116.0</ele><time>2026-04-17T15:05:31.007Z</time></trkpt><trkpt lat="45.4813332" lon="9.3213286"><ele>115.83333333333333</ele><time>2026-04-17T15:05:33.008Z</time></trkpt><trkpt lat="45.481268" lon="9.321273"><ele>115.66666666666666</ele><time>2026-04-17T15:05:35.008Z</time></trkpt><trkpt lat="45.4811949" lon="9.3212293"><ele>115.5</ele><time>2026-04-17T15:05:37.008Z</time></trkpt><trkpt lat="45.4811192" lon="9.3211899"><ele>115.33333333333334</ele><time>2026-04-17T15:05:39.008Z</time></trkpt><trkpt lat="45.4810375" lon="9.3211576"><ele>115.16666666666667</ele><time>2026-04-17T15:05:41.008Z</time></trkpt><trkpt lat="45.4809591" lon="9.3211049"><ele>115.0</ele><time>2026-04-17T15:05:43.008Z</time></trkpt><trkpt lat="45.4808744" lon="9.3210493"><ele>115.00000000000001</ele><time>2026-04-17T15:05:45.008Z</time></trkpt><trkpt lat="45.48079" lon="9.3209816"><ele>115.0</ele><time>2026-04-17T15:05:47.008Z</time></trkpt><trkpt lat="45.4807011" lon="9.3209361"><ele>115.0</ele><time>2026-04-17T15:05:49.008Z</time></trkpt><trkpt lat="45.480616" lon="9.3209025"><ele>115.0</ele><time>2026-04-17T15:05:51.008Z</time></trkpt><trkpt lat="45.4805309" lon="9.3208893"><ele>115.00000000000001</ele><time>2026-04-17T15:05:53.008Z</time></trkpt><trkpt lat="45.4804538" lon="9.320902"><ele>115.0</ele><time>2026-04-17T15:05:55.008Z</time></trkpt><trkpt lat="45.480392" lon="9.3208786"><ele>114.83333333333334</ele><time>2026-04-17T15:05:57.008Z</time></trkpt><trkpt lat="45.480312" lon="9.3208593"><ele>114.66666666666667</ele><time>2026-04-17T15:05:59.008Z</time></trkpt><trkpt lat="45.4802233" lon="9.3208472"><ele>114.5</ele><time>2026-04-17T15:06:01.008Z</time></trkpt><trkpt lat="45.4801375" lon="9.3208354"><ele>114.33333333333334</ele><time>2026-04-17T15:06:03.008Z</time></trkpt><trkpt lat="45.4800531" lon="9.3208274"><ele>114.16666666666667</ele><time>2026-04-17T15:06:05.008Z</time></trkpt><trkpt lat="45.4799725" lon="9.3208173"><ele>114.0</ele><time>2026-04-17T15:06:07.008Z</time></trkpt><trkpt lat="45.4799088" lon="9.3207906"><ele>114.0</ele><time>2026-04-17T15:06:09.008Z</time></trkpt><trkpt lat="45.4798891" lon="9.3206871"><ele>113.99999999999999</ele><time>2026-04-17T15:06:12.008Z</time></trkpt><trkpt lat="45.4798967" lon="9.3205874"><ele>114.0</ele><time>2026-04-17T15:06:14.008Z</time></trkpt><trkpt lat="45.4798983" lon="9.3204866"><ele>114.0</ele><time>2026-04-17T15:06:16.008Z</time></trkpt><trkpt lat="45.4799043" lon="9.3203828"><ele>113.99999999999999</ele><time>2026-04-17T15:06:18.008Z</time></trkpt><trkpt lat="45.4799081" lon="9.3202685"><ele>114.0</ele><time>2026-04-17T15:06:20.008Z</time></trkpt><trkpt lat="45.4799179" lon="9.3201611"><ele>114.0</ele><time>2026-04-17T15:06:22.008Z</time></trkpt><trkpt lat="45.479919" lon="9.3200457"><ele>114.0</ele><time>2026-04-17T15:06:24.008Z</time></trkpt><trkpt lat="45.4799213" lon="9.3199283"><ele>114.0</ele><time>2026-04-17T15:06:26.008Z</time></trkpt><trkpt lat="45.479917" lon="9.3198173"><ele>114.0</ele><time>2026-04-17T15:06:28.008Z</time></trkpt><trkpt lat="45.479924" lon="9.3197018"><ele>114.0</ele><time>2026-04-17T15:06:30.008Z</time></trkpt><trkpt lat="45.4799287" lon="9.3195909"><ele>114.0</ele><time>2026-04-17T15:06:32.008Z</time></trkpt><trkpt lat="45.479932" lon="9.3194812"><ele>114.0</ele><time>2026-04-17T15:06:34.008Z</time></trkpt><trkpt lat="45.4799414" lon="9.3193732"><ele>114.0</ele><time>2026-04-17T15:06:37.008Z</time></trkpt><trkpt lat="45.4799521" lon="9.319271"><ele>114.0</ele><time>2026-04-17T15:06:40.008Z</time></trkpt><trkpt lat="45.4799136" lon="9.3191702"><ele>114.0</ele><time>2026-04-17T15:06:43.008Z</time></trkpt><trkpt lat="45.4798214" lon="9.3191657"><ele>114.0</ele><time>2026-04-17T15:06:46.008Z</time></trkpt><trkpt lat="45.4797418" lon="9.3191631"><ele>114.0</ele><time>2026-04-17T15:06:49.008Z</time></trkpt><trkpt lat="45.4796696" lon="9.3191599"><ele>114.0</ele><time>2026-04-17T15:06:52.008Z</time></trkpt><trkpt lat="45.4795948" lon="9.3191543"><ele>114.28571428571428</ele><time>2026-04-17T15:06:55.008Z</time></trkpt><trkpt lat="45.4795236" lon="9.3191507"><ele>114.57142857142856</ele><time>2026-04-17T15:06:58.009Z</time></trkpt><trkpt lat="45.4794521" lon="9.3191503"><ele>114.85714285714286</ele><time>2026-04-17T15:07:01.008Z</time></trkpt><trkpt lat="45.4793805" lon="9.3191521"><ele>115.14285714285714</ele><time>2026-04-17T15:07:04.008Z</time></trkpt><trkpt lat="45.479312" lon="9.3191465"><ele>115.42857142857143</ele><time>2026-04-17T15:07:07.008Z</time></trkpt><trkpt lat="45.4792422" lon="9.3191395"><ele>115.71428571428572</ele><time>2026-04-17T15:07:10.008Z</time></trkpt><trkpt lat="45.4791721" lon="9.3191488"><ele>116.00000000000001</ele><time>2026-04-17T15:07:13.008Z</time></trkpt><trkpt lat="45.479105" lon="9.3191577"><ele>116.00000000000001</ele><time>2026-04-17T15:07:16.008Z</time></trkpt><trkpt lat="45.4790389" lon="9.3191649"><ele>116.0</ele><time>2026-04-17T15:07:19.008Z</time></trkpt><trkpt lat="45.478971" lon="9.3191728"><ele>116.00000000000001</ele><time>2026-04-17T15:07:22.008Z</time></trkpt><trkpt lat="45.4788962" lon="9.3191781"><ele>116.00000000000001</ele><time>2026-04-17T15:07:26.008Z</time></trkpt><trkpt lat="45.4788287" lon="9.3191765"><ele>116.0</ele><time>2026-04-17T15:07:29.008Z</time></trkpt><trkpt lat="45.4787426" lon="9.3191926"><ele>116.00000000000001</ele><time>2026-04-17T15:07:32.008Z</time></trkpt><trkpt lat="45.4786756" lon="9.3192057"><ele>116.00000000000001</ele><time>2026-04-17T15:07:34.008Z</time></trkpt><trkpt lat="45.4785851" lon="9.3192248"><ele>115.66666666666666</ele><time>2026-04-17T15:07:36.008Z</time></trkpt><trkpt lat="45.478497" lon="9.3192456"><ele>115.33333333333333</ele><time>2026-04-17T15:07:38.008Z</time></trkpt><trkpt lat="45.4784248" lon="9.3192656"><ele>115.0</ele><time>2026-04-17T15:07:40.008Z</time></trkpt><trkpt lat="45.4783456" lon="9.3192313"><ele>114.66666666666666</ele><time>2026-04-17T15:07:42.008Z</time></trkpt><trkpt lat="45.4783095" lon="9.3191181"><ele>114.33333333333333</ele><time>2026-04-17T15:07:44.008Z</time></trkpt><trkpt lat="45.4782683" lon="9.3190033"><ele>114.0</ele><time>2026-04-17T15:07:46.008Z</time></trkpt><trkpt lat="45.478233" lon="9.3188729"><ele>114.0</ele><time>2026-04-17T15:07:48.008Z</time></trkpt><trkpt lat="45.4782166" lon="9.3187236"><ele>114.0</ele><time>2026-04-17T15:07:50.009Z</time></trkpt><trkpt lat="45.4782158" lon="9.3185638"><ele>114.0</ele><time>2026-04-17T15:07:52.008Z</time></trkpt><trkpt lat="45.4782163" lon="9.318393"><ele>114.0</ele><time>2026-04-17T15:07:54.008Z</time></trkpt><trkpt lat="45.4782192" lon="9.318206"><ele>113.66666666666667</ele><time>2026-04-17T15:07:56.008Z</time></trkpt><trkpt lat="45.4782029" lon="9.3180141"><ele>113.33333333333334</ele><time>2026-04-17T15:07:58.008Z</time></trkpt><trkpt lat="45.478202" lon="9.3179159"><ele>113.0</ele><time>2026-04-17T15:07:59.008Z</time></trkpt><trkpt lat="45.478194" lon="9.3178212"><ele>112.66666666666667</ele><time>2026-04-17T15:08:00.008Z</time></trkpt><trkpt lat="45.4781786" lon="9.3177217"><ele>112.33333333333334</ele><time>2026-04-17T15:08:01.008Z</time></trkpt><trkpt lat="45.4781592" lon="9.3176348"><ele>112.0</ele><time>2026-04-17T15:08:02.008Z</time></trkpt><trkpt lat="45.4781064" lon="9.3175111"><ele>112.00000000000001</ele><time>2026-04-17T15:08:04.008Z</time></trkpt><trkpt lat="45.4780643" lon="9.3174001"><ele>112.0</ele><time>2026-04-17T15:08:06.008Z</time></trkpt><trkpt lat="45.4780414" lon="9.3172866"><ele>112.0</ele><time>2026-04-17T15:08:08.008Z</time></trkpt><trkpt lat="45.4780524" lon="9.3171785"><ele>112.0</ele><time>2026-04-17T15:08:10.008Z</time></trkpt><trkpt lat="45.4780702" lon="9.3170473"><ele>112.00000000000001</ele><time>2026-04-17T15:08:12.008Z</time></trkpt><trkpt lat="45.4780832" lon="9.3169176"><ele>112.0</ele><time>2026-04-17T15:08:14.008Z</time></trkpt><trkpt lat="45.4780931" lon="9.3167775"><ele>112.19999999999999</ele><time>2026-04-17T15:08:16.008Z</time></trkpt><trkpt lat="45.4781038" lon="9.3166427"><ele>112.39999999999999</ele><time>2026-04-17T15:08:18.008Z</time></trkpt><trkpt lat="45.4781277" lon="9.3165119"><ele>112.60000000000001</ele><time>2026-04-17T15:08:20.008Z</time></trkpt><trkpt lat="45.4781499" lon="9.3163765"><ele>112.80000000000001</ele><time>2026-04-17T15:08:22.008Z</time></trkpt><trkpt lat="45.4781768" lon="9.3162545"><ele>113.0</ele><time>2026-04-17T15:08:24.008Z</time></trkpt><trkpt lat="45.478199" lon="9.3161167"><ele>113.0</ele><time>2026-04-17T15:08:26.008Z</time></trkpt><trkpt lat="45.4782188" lon="9.3159887"><ele>113.00000000000001</ele><time>2026-04-17T15:08:28.008Z</time></trkpt><trkpt lat="45.4782269" lon="9.3158571"><ele>113.00000000000001</ele><time>2026-04-17T15:08:30.008Z</time></trkpt><trkpt lat="45.4782141" lon="9.3157178"><ele>113.0</ele><time>2026-04-17T15:08:32.008Z</time></trkpt><trkpt lat="45.4782006" lon="9.3155816"><ele>113.0</ele><time>2026-04-17T15:08:34.008Z</time></trkpt><trkpt lat="45.4781874" lon="9.3154497"><ele>113.0</ele><time>2026-04-17T15:08:36.008Z</time></trkpt><trkpt lat="45.4781737" lon="9.3153194"><ele>113.00000000000001</ele><time>2026-04-17T15:08:38.008Z</time></trkpt><trkpt lat="45.47817" lon="9.3151886"><ele>113.00000000000001</ele><time>2026-04-17T15:08:40.008Z</time></trkpt><trkpt lat="45.4781614" lon="9.3150496"><ele>113.0</ele><time>2026-04-17T15:08:42.008Z</time></trkpt><trkpt lat="45.4781444" lon="9.3149099"><ele>113.0</ele><time>2026-04-17T15:08:44.008Z</time></trkpt><trkpt lat="45.4781344" lon="9.3147807"><ele>112.80000000000001</ele><time>2026-04-17T15:08:46.008Z</time></trkpt><trkpt lat="45.4781047" lon="9.3146501"><ele>112.60000000000001</ele><time>2026-04-17T15:08:48.008Z</time></trkpt><trkpt lat="45.4780556" lon="9.3145286"><ele>112.39999999999999</ele><time>2026-04-17T15:08:50.008Z</time></trkpt><trkpt lat="45.478005" lon="9.3144127"><ele>112.19999999999999</ele><time>2026-04-17T15:08:52.008Z</time></trkpt><trkpt lat="45.4779566" lon="9.3142939"><ele>112.0</ele><time>2026-04-17T15:08:54.008Z</time></trkpt><trkpt lat="45.477915" lon="9.3141664"><ele>112.0</ele><time>2026-04-17T15:08:56.008Z</time></trkpt><trkpt lat="45.4778928" lon="9.3140328"><ele>111.99999999999999</ele><time>2026-04-17T15:08:58.008Z</time></trkpt><trkpt lat="45.4778858" lon="9.3138836"><ele>111.99999999999999</ele><time>2026-04-17T15:09:00.008Z</time></trkpt><trkpt lat="45.4778997" lon="9.31375"><ele>112.0</ele><time>2026-04-17T15:09:02.008Z</time></trkpt><trkpt lat="45.4779078" lon="9.3136209"><ele>112.0</ele><time>2026-04-17T15:09:04.008Z</time></trkpt><trkpt lat="45.4779085" lon="9.3135008"><ele>112.00000000000001</ele><time>2026-04-17T15:09:06.008Z</time></trkpt><trkpt lat="45.4779032" lon="9.3133657"><ele>112.0</ele><time>2026-04-17T15:09:08.008Z</time></trkpt><trkpt lat="45.4778832" lon="9.3132473"><ele>112.0</ele><time>2026-04-17T15:09:10.008Z</time></trkpt><trkpt lat="45.4778509" lon="9.3131666"><ele>112.0</ele><time>2026-04-17T15:09:12.008Z</time></trkpt><trkpt lat="45.4778062" lon="9.3130996"><ele>112.00000000000001</ele><time>2026-04-17T15:09:17.008Z</time></trkpt><trkpt lat="45.4777289" lon="9.3130317"><ele>112.0</ele><time>2026-04-17T15:09:21.008Z</time></trkpt><trkpt lat="45.4776593" lon="9.3129632"><ele>112.0</ele><time>2026-04-17T15:09:23.008Z</time></trkpt><trkpt lat="45.4776064" lon="9.3128715"><ele>111.99999999999999</ele><time>2026-04-17T15:09:25.008Z</time></trkpt><trkpt lat="45.4775554" lon="9.3127657"><ele>111.99999999999999</ele><time>2026-04-17T15:09:27.008Z</time></trkpt><trkpt lat="45.4775154" lon="9.3126486"><ele>112.0</ele><time>2026-04-17T15:09:29.008Z</time></trkpt><trkpt lat="45.4774788" lon="9.3125287"><ele>112.0</ele><time>2026-04-17T15:09:31.008Z</time></trkpt><trkpt lat="45.4774293" lon="9.3124103"><ele>112.00000000000001</ele><time>2026-04-17T15:09:33.009Z</time></trkpt><trkpt lat="45.4774171" lon="9.3122908"><ele>112.0</ele><time>2026-04-17T15:09:35.008Z</time></trkpt><trkpt lat="45.4774688" lon="9.3122113"><ele>112.0</ele><time>2026-04-17T15:09:37.008Z</time></trkpt><trkpt lat="45.477535" lon="9.3121582"><ele>112.0</ele><time>2026-04-17T15:09:39.008Z</time></trkpt><trkpt lat="45.477607" lon="9.3121033"><ele>112.00000000000001</ele><time>2026-04-17T15:09:41.009Z</time></trkpt><trkpt lat="45.4776805" lon="9.3120521"><ele>112.0</ele><time>2026-04-17T15:09:43.008Z</time></trkpt><trkpt lat="45.477746" lon="9.3119889"><ele>112.00000000000001</ele><time>2026-04-17T15:09:45.008Z</time></trkpt><trkpt lat="45.477755" lon="9.3118909"><ele>112.0</ele><time>2026-04-17T15:09:47.008Z</time></trkpt><trkpt lat="45.4777136" lon="9.3117908"><ele>112.0</ele><time>2026-04-17T15:09:49.008Z</time></trkpt><trkpt lat="45.477707" lon="9.3116762"><ele>112.0</ele><time>2026-04-17T15:09:51.008Z</time></trkpt><trkpt lat="45.4776986" lon="9.3115622"><ele>112.00000000000001</ele><time>2026-04-17T15:09:53.008Z</time></trkpt><trkpt lat="45.4776871" lon="9.3114424"><ele>112.0</ele><time>2026-04-17T15:09:55.008Z</time></trkpt><trkpt lat="45.4776835" lon="9.3113105"><ele>112.0</ele><time>2026-04-17T15:09:57.008Z</time></trkpt><trkpt lat="45.4777145" lon="9.3111831"><ele>111.99999999999999</ele><time>2026-04-17T15:09:59.008Z</time></trkpt><trkpt lat="45.4777591" lon="9.3110658"><ele>111.99999999999999</ele><time>2026-04-17T15:10:01.008Z</time></trkpt><trkpt lat="45.477797" lon="9.3109479"><ele>112.0</ele><time>2026-04-17T15:10:03.008Z</time></trkpt><trkpt lat="45.4778512" lon="9.3108483"><ele>112.0</ele><time>2026-04-17T15:10:05.008Z</time></trkpt><trkpt lat="45.4778762" lon="9.3107335"><ele>112.0</ele><time>2026-04-17T15:10:07.008Z</time></trkpt><trkpt lat="45.4778883" lon="9.310615"><ele>111.99999999999999</ele><time>2026-04-17T15:10:09.008Z</time></trkpt><trkpt lat="45.4778887" lon="9.3104769"><ele>111.99999999999999</ele><time>2026-04-17T15:10:11.008Z</time></trkpt><trkpt lat="45.4778855" lon="9.3103423"><ele>112.0</ele><time>2026-04-17T15:10:13.008Z</time></trkpt><trkpt lat="45.4778867" lon="9.3102036"><ele>112.0</ele><time>2026-04-17T15:10:15.008Z</time></trkpt><trkpt lat="45.4778815" lon="9.3100575"><ele>112.0</ele><time>2026-04-17T15:10:17.008Z</time></trkpt><trkpt lat="45.4778763" lon="9.3099146"><ele>111.99999999999999</ele><time>2026-04-17T15:10:19.008Z</time></trkpt><trkpt lat="45.4778729" lon="9.3097767"><ele>111.99999999999999</ele><time>2026-04-17T15:10:21.008Z</time></trkpt><trkpt lat="45.4778733" lon="9.3096358"><ele>112.0</ele><time>2026-04-17T15:10:23.008Z</time></trkpt><trkpt lat="45.4778696" lon="9.3094903"><ele>112.0</ele><time>2026-04-17T15:10:25.008Z</time></trkpt><trkpt lat="45.4778613" lon="9.3093476"><ele>113.19999999999999</ele><time>2026-04-17T15:10:27.008Z</time></trkpt><trkpt lat="45.4778543" lon="9.3092073"><ele>114.39999999999999</ele><time>2026-04-17T15:10:29.008Z</time></trkpt><trkpt lat="45.4778459" lon="9.3090603"><ele>115.60000000000001</ele><time>2026-04-17T15:10:31.008Z</time></trkpt><trkpt lat="45.4778336" lon="9.3089111"><ele>116.80000000000001</ele><time>2026-04-17T15:10:33.008Z</time></trkpt><trkpt lat="45.4778245" lon="9.3087635"><ele>118.0</ele><time>2026-04-17T15:10:35.008Z</time></trkpt><trkpt lat="45.4778112" lon="9.3086183"><ele>118.0</ele><time>2026-04-17T15:10:37.008Z</time></trkpt><trkpt lat="45.4777908" lon="9.3084772"><ele>118.00000000000001</ele><time>2026-04-17T15:10:39.009Z</time></trkpt><trkpt lat="45.4777671" lon="9.3083308"><ele>118.00000000000001</ele><time>2026-04-17T15:10:41.008Z</time></trkpt><trkpt lat="45.4777543" lon="9.3081837"><ele>118.0</ele><time>2026-04-17T15:10:43.008Z</time></trkpt><trkpt lat="45.477737" lon="9.3080347"><ele>118.0</ele><time>2026-04-17T15:10:45.008Z</time></trkpt><trkpt lat="45.477723" lon="9.3078927"><ele>117.60000000000001</ele><time>2026-04-17T15:10:47.008Z</time></trkpt><trkpt lat="45.4777066" lon="9.3077434"><ele>117.20000000000002</ele><time>2026-04-17T15:10:49.008Z</time></trkpt><trkpt lat="45.4777023" lon="9.307599"><ele>116.8</ele><time>2026-04-17T15:10:51.008Z</time></trkpt><trkpt lat="45.4776933" lon="9.3074539"><ele>116.4</ele><time>2026-04-17T15:10:53.008Z</time></trkpt><trkpt lat="45.4776859" lon="9.3073125"><ele>116.0</ele><time>2026-04-17T15:10:55.008Z</time></trkpt><trkpt lat="45.4776675" lon="9.307164"><ele>116.0</ele><time>2026-04-17T15:10:57.008Z</time></trkpt><trkpt lat="45.4776377" lon="9.3070295"><ele>116.0</ele><time>2026-04-17T15:10:59.008Z</time></trkpt><trkpt lat="45.4776099" lon="9.3068937"><ele>116.0</ele><time>2026-04-17T15:11:01.008Z</time></trkpt><trkpt lat="45.4775857" lon="9.3067524"><ele>116.0</ele><time>2026-04-17T15:11:03.008Z</time></trkpt><trkpt lat="45.4775663" lon="9.3066061"><ele>116.0</ele><time>2026-04-17T15:11:05.008Z</time></trkpt><trkpt lat="45.4775487" lon="9.3064544"><ele>115.8</ele><time>2026-04-17T15:11:07.008Z</time></trkpt><trkpt lat="45.4775295" lon="9.3063089"><ele>115.6</ele><time>2026-04-17T15:11:09.008Z</time></trkpt><trkpt lat="45.4775106" lon="9.3061745"><ele>115.4</ele><time>2026-04-17T15:11:11.008Z</time></trkpt><trkpt lat="45.4774896" lon="9.3060494"><ele>115.2</ele><time>2026-04-17T15:11:13.008Z</time></trkpt><trkpt lat="45.4774689" lon="9.3059267"><ele>115.0</ele><time>2026-04-17T15:11:15.008Z</time></trkpt><trkpt lat="45.4774547" lon="9.3058013"><ele>115.0</ele><time>2026-04-17T15:11:17.008Z</time></trkpt><trkpt lat="45.4774435" lon="9.3056673"><ele>115.0</ele><time>2026-04-17T15:11:19.008Z</time></trkpt><trkpt lat="45.4774276" lon="9.3055344"><ele>115.0</ele><time>2026-04-17T15:11:21.008Z</time></trkpt><trkpt lat="45.4774225" lon="9.3053986"><ele>115.0</ele><time>2026-04-17T15:11:23.008Z</time></trkpt><trkpt lat="45.4774255" lon="9.3052562"><ele>115.0</ele><time>2026-04-17T15:11:25.008Z</time></trkpt><trkpt lat="45.4774187" lon="9.30511"><ele>114.8</ele><time>2026-04-17T15:11:27.008Z</time></trkpt><trkpt lat="45.4774044" lon="9.3049635"><ele>114.6</ele><time>2026-04-17T15:11:29.008Z</time></trkpt><trkpt lat="45.4773909" lon="9.3048153"><ele>114.4</ele><time>2026-04-17T15:11:31.008Z</time></trkpt><trkpt lat="45.4773747" lon="9.304664"><ele>114.2</ele><time>2026-04-17T15:11:33.008Z</time></trkpt><trkpt lat="45.4773505" lon="9.3045118"><ele>114.0</ele><time>2026-04-17T15:11:35.008Z</time></trkpt><trkpt lat="45.4772879" lon="9.3043911"><ele>113.80000000000001</ele><time>2026-04-17T15:11:37.008Z</time></trkpt><trkpt lat="45.4772133" lon="9.304287"><ele>113.60000000000001</ele><time>2026-04-17T15:11:39.008Z</time></trkpt><trkpt lat="45.4771299" lon="9.3041943"><ele>113.4</ele><time>2026-04-17T15:11:41.008Z</time></trkpt><trkpt lat="45.4770319" lon="9.3041312"><ele>113.2</ele><time>2026-04-17T15:11:43.008Z</time></trkpt><trkpt lat="45.4769282" lon="9.3041167"><ele>113.0</ele><time>2026-04-17T15:11:45.008Z</time></trkpt><trkpt lat="45.4768218" lon="9.3041235"><ele>113.0</ele><time>2026-04-17T15:11:47.008Z</time></trkpt><trkpt lat="45.4767168" lon="9.3041356"><ele>113.00000000000001</ele><time>2026-04-17T15:11:49.008Z</time></trkpt><trkpt lat="45.476614" lon="9.3041346"><ele>113.00000000000001</ele><time>2026-04-17T15:11:51.008Z</time></trkpt><trkpt lat="45.4765103" lon="9.3041324"><ele>113.0</ele><time>2026-04-17T15:11:53.008Z</time></trkpt><trkpt lat="45.4764077" lon="9.3041296"><ele>113.0</ele><time>2026-04-17T15:11:55.008Z</time></trkpt><trkpt lat="45.4763045" lon="9.3041219"><ele>112.80000000000001</ele><time>2026-04-17T15:11:57.008Z</time></trkpt><trkpt lat="45.4761983" lon="9.3041292"><ele>112.60000000000001</ele><time>2026-04-17T15:11:59.008Z</time></trkpt><trkpt lat="45.4760934" lon="9.3041308"><ele>112.39999999999999</ele><time>2026-04-17T15:12:01.008Z</time></trkpt><trkpt lat="45.4759952" lon="9.304133"><ele>112.19999999999999</ele><time>2026-04-17T15:12:03.008Z</time></trkpt><trkpt lat="45.4759052" lon="9.3041408"><ele>112.0</ele><time>2026-04-17T15:12:05.008Z</time></trkpt><trkpt lat="45.4758188" lon="9.3041404"><ele>112.0</ele><time>2026-04-17T15:12:07.008Z</time></trkpt><trkpt lat="45.4757186" lon="9.3041418"><ele>111.99999999999999</ele><time>2026-04-17T15:12:09.008Z</time></trkpt><trkpt lat="45.4756155" lon="9.3041467"><ele>111.99999999999999</ele><time>2026-04-17T15:12:11.008Z</time></trkpt><trkpt lat="45.4755074" lon="9.3041662"><ele>112.0</ele><time>2026-04-17T15:12:13.008Z</time></trkpt><trkpt lat="45.475402" lon="9.304181"><ele>112.0</ele><time>2026-04-17T15:12:15.008Z</time></trkpt><trkpt lat="45.4753004" lon="9.304159"><ele>112.6</ele><time>2026-04-17T15:12:17.008Z</time></trkpt><trkpt lat="45.4751947" lon="9.3041533"><ele>113.19999999999999</ele><time>2026-04-17T15:12:19.008Z</time></trkpt><trkpt lat="45.4750877" lon="9.3041499"><ele>113.8</ele><time>2026-04-17T15:12:21.008Z</time></trkpt><trkpt lat="45.4749834" lon="9.304149"><ele>114.4</ele><time>2026-04-17T15:12:23.008Z</time></trkpt><trkpt lat="45.4748896" lon="9.3041728"><ele>115.0</ele><time>2026-04-17T15:12:25.008Z</time></trkpt><trkpt lat="45.4748133" lon="9.3041601"><ele>115.00000000000001</ele><time>2026-04-17T15:12:29.008Z</time></trkpt><trkpt lat="45.4748043" lon="9.304055"><ele>115.0</ele><time>2026-04-17T15:12:32.008Z</time></trkpt><trkpt lat="45.4747994" lon="9.3039461"><ele>115.0</ele><time>2026-04-17T15:12:34.008Z</time></trkpt><trkpt lat="45.4748037" lon="9.3038194"><ele>115.0</ele><time>2026-04-17T15:12:36.008Z</time></trkpt><trkpt lat="45.4748688" lon="9.3037508"><ele>115.00000000000001</ele><time>2026-04-17T15:12:38.008Z</time></trkpt><trkpt lat="45.4749576" lon="9.3037679"><ele>115.0</ele><time>2026-04-17T15:12:40.008Z</time></trkpt><trkpt lat="45.4750538" lon="9.3037889"><ele>114.6</ele><time>2026-04-17T15:12:42.008Z</time></trkpt><trkpt lat="45.4751549" lon="9.3037967"><ele>114.2</ele><time>2026-04-17T15:12:44.008Z</time></trkpt><trkpt lat="45.4752576" lon="9.3037958"><ele>113.80000000000001</ele><time>2026-04-17T15:12:46.008Z</time></trkpt><trkpt lat="45.475355" lon="9.3038296"><ele>113.4</ele><time>2026-04-17T15:12:48.008Z</time></trkpt><trkpt lat="45.4754481" lon="9.3038399"><ele>113.0</ele><time>2026-04-17T15:12:50.008Z</time></trkpt><trkpt lat="45.4755483" lon="9.3038447"><ele>112.60000000000001</ele><time>2026-04-17T15:12:52.008Z</time></trkpt><trkpt lat="45.4756465" lon="9.3038476"><ele>112.20000000000002</ele><time>2026-04-17T15:12:54.008Z</time></trkpt><trkpt lat="45.4757469" lon="9.3038384"><ele>111.8</ele><time>2026-04-17T15:12:56.008Z</time></trkpt><trkpt lat="45.4758447" lon="9.3038332"><ele>111.4</ele><time>2026-04-17T15:12:58.008Z</time></trkpt><trkpt lat="45.4759431" lon="9.3038245"><ele>111.0</ele><time>2026-04-17T15:13:00.008Z</time></trkpt><trkpt lat="45.4760478" lon="9.3038254"><ele>111.0</ele><time>2026-04-17T15:13:02.008Z</time></trkpt><trkpt lat="45.4761526" lon="9.3038254"><ele>111.0</ele><time>2026-04-17T15:13:04.008Z</time></trkpt><trkpt lat="45.476257" lon="9.3038236"><ele>111.0</ele><time>2026-04-17T15:13:06.008Z</time></trkpt><trkpt lat="45.4763563" lon="9.303817"><ele>111.0</ele><time>2026-04-17T15:13:08.008Z</time></trkpt><trkpt lat="45.4764607" lon="9.3038158"><ele>111.0</ele><time>2026-04-17T15:13:10.008Z</time></trkpt><trkpt lat="45.4765627" lon="9.3038122"><ele>111.19999999999999</ele><time>2026-04-17T15:13:12.008Z</time></trkpt><trkpt lat="45.4766689" lon="9.3038075"><ele>111.39999999999999</ele><time>2026-04-17T15:13:14.008Z</time></trkpt><trkpt lat="45.4767796" lon="9.3038081"><ele>111.6</ele><time>2026-04-17T15:13:16.009Z</time></trkpt><trkpt lat="45.4768823" lon="9.3037914"><ele>111.8</ele><time>2026-04-17T15:13:18.008Z</time></trkpt><trkpt lat="45.4769654" lon="9.3036951"><ele>112.0</ele><time>2026-04-17T15:13:20.008Z</time></trkpt><trkpt lat="45.4770396" lon="9.3035782"><ele>112.0</ele><time>2026-04-17T15:13:22.008Z</time></trkpt><trkpt lat="45.4771383" lon="9.3035326"><ele>111.99999999999999</ele><time>2026-04-17T15:13:24.008Z</time></trkpt><trkpt lat="45.4772069" lon="9.3034419"><ele>111.99999999999999</ele><time>2026-04-17T15:13:26.008Z</time></trkpt><trkpt lat="45.477217" lon="9.3033165"><ele>112.0</ele><time>2026-04-17T15:13:28.008Z</time></trkpt><trkpt lat="45.477209" lon="9.3031789"><ele>112.0</ele><time>2026-04-17T15:13:30.008Z</time></trkpt><trkpt lat="45.4772047" lon="9.3030429"><ele>112.0</ele><time>2026-04-17T15:13:32.008Z</time></trkpt><trkpt lat="45.4771939" lon="9.3029076"><ele>111.99999999999999</ele><time>2026-04-17T15:13:34.008Z</time></trkpt><trkpt lat="45.47719" lon="9.3027639"><ele>111.99999999999999</ele><time>2026-04-17T15:13:36.008Z</time></trkpt><trkpt lat="45.4771849" lon="9.3026244"><ele>112.0</ele><time>2026-04-17T15:13:38.008Z</time></trkpt><trkpt lat="45.477178" lon="9.302489"><ele>112.0</ele><time>2026-04-17T15:13:40.008Z</time></trkpt><trkpt lat="45.4771759" lon="9.3023543"><ele>112.19999999999999</ele><time>2026-04-17T15:13:42.008Z</time></trkpt><trkpt lat="45.4771754" lon="9.3022212"><ele>112.39999999999999</ele><time>2026-04-17T15:13:44.008Z</time></trkpt><trkpt lat="45.4771792" lon="9.3020879"><ele>112.60000000000001</ele><time>2026-04-17T15:13:46.008Z</time></trkpt><trkpt lat="45.4771779" lon="9.3019583"><ele>112.80000000000001</ele><time>2026-04-17T15:13:48.008Z</time></trkpt><trkpt lat="45.4771816" lon="9.3018265"><ele>113.0</ele><time>2026-04-17T15:13:50.008Z</time></trkpt><trkpt lat="45.4771851" lon="9.3016944"><ele>113.0</ele><time>2026-04-17T15:13:52.008Z</time></trkpt><trkpt lat="45.477187" lon="9.301553"><ele>113.00000000000001</ele><time>2026-04-17T15:13:54.008Z</time></trkpt><trkpt lat="45.4771843" lon="9.301413"><ele>113.00000000000001</ele><time>2026-04-17T15:13:56.008Z</time></trkpt><trkpt lat="45.47718" lon="9.301266"><ele>113.0</ele><time>2026-04-17T15:13:58.008Z</time></trkpt><trkpt lat="45.47717" lon="9.3011146"><ele>113.0</ele><time>2026-04-17T15:14:00.008Z</time></trkpt><trkpt lat="45.4771612" lon="9.3009569"><ele>113.0</ele><time>2026-04-17T15:14:02.008Z</time></trkpt><trkpt lat="45.4771547" lon="9.3007985"><ele>113.00000000000001</ele><time>2026-04-17T15:14:04.008Z</time></trkpt><trkpt lat="45.4771468" lon="9.3006359"><ele>113.00000000000001</ele><time>2026-04-17T15:14:06.008Z</time></trkpt><trkpt lat="45.4771324" lon="9.3004811"><ele>113.0</ele><time>2026-04-17T15:14:08.008Z</time></trkpt><trkpt lat="45.4771136" lon="9.300327"><ele>113.0</ele><time>2026-04-17T15:14:10.008Z</time></trkpt><trkpt lat="45.4770965" lon="9.3001709"><ele>113.0</ele><time>2026-04-17T15:14:12.008Z</time></trkpt><trkpt lat="45.4770818" lon="9.3000186"><ele>113.00000000000001</ele><time>2026-04-17T15:14:14.008Z</time></trkpt><trkpt lat="45.4770596" lon="9.2998646"><ele>113.00000000000001</ele><time>2026-04-17T15:14:16.008Z</time></trkpt><trkpt lat="45.4770475" lon="9.2997258"><ele>113.0</ele><time>2026-04-17T15:14:18.008Z</time></trkpt><trkpt lat="45.4770231" lon="9.2995867"><ele>113.0</ele><time>2026-04-17T15:14:20.008Z</time></trkpt><trkpt lat="45.4770014" lon="9.2994469"><ele>113.0</ele><time>2026-04-17T15:14:22.008Z</time></trkpt><trkpt lat="45.4769817" lon="9.2992964"><ele>113.00000000000001</ele><time>2026-04-17T15:14:24.008Z</time></trkpt><trkpt lat="45.4769606" lon="9.2991612"><ele>113.00000000000001</ele><time>2026-04-17T15:14:26.008Z</time></trkpt><trkpt lat="45.4769223" lon="9.2990363"><ele>113.0</ele><time>2026-04-17T15:14:28.008Z</time></trkpt><trkpt lat="45.4768776" lon="9.2989098"><ele>113.0</ele><time>2026-04-17T15:14:30.008Z</time></trkpt><trkpt lat="45.4768522" lon="9.298777"><ele>113.0</ele><time>2026-04-17T15:14:32.008Z</time></trkpt><trkpt lat="45.4768614" lon="9.2986307"><ele>113.00000000000001</ele><time>2026-04-17T15:14:34.008Z</time></trkpt><trkpt lat="45.4768873" lon="9.2984749"><ele>113.00000000000001</ele><time>2026-04-17T15:14:36.008Z</time></trkpt><trkpt lat="45.4768768" lon="9.2983123"><ele>113.0</ele><time>2026-04-17T15:14:38.008Z</time></trkpt><trkpt lat="45.47685" lon="9.2981628"><ele>113.0</ele><time>2026-04-17T15:14:40.008Z</time></trkpt><trkpt lat="45.4768253" lon="9.2980125"><ele>113.2</ele><time>2026-04-17T15:14:42.008Z</time></trkpt><trkpt lat="45.4768018" lon="9.297864"><ele>113.4</ele><time>2026-04-17T15:14:44.008Z</time></trkpt><trkpt lat="45.4767777" lon="9.2977081"><ele>113.60000000000001</ele><time>2026-04-17T15:14:46.008Z</time></trkpt><trkpt lat="45.4767606" lon="9.2975552"><ele>113.80000000000001</ele><time>2026-04-17T15:14:48.008Z</time></trkpt><trkpt lat="45.4767458" lon="9.297405"><ele>114.0</ele><time>2026-04-17T15:14:50.008Z</time></trkpt><trkpt lat="45.4767258" lon="9.2972583"><ele>114.6</ele><time>2026-04-17T15:14:52.008Z</time></trkpt><trkpt lat="45.4767111" lon="9.2971038"><ele>115.2</ele><time>2026-04-17T15:14:54.008Z</time></trkpt><trkpt lat="45.4766861" lon="9.2969669"><ele>115.79999999999998</ele><time>2026-04-17T15:14:56.008Z</time></trkpt><trkpt lat="45.4766677" lon="9.2968204"><ele>116.39999999999999</ele><time>2026-04-17T15:14:58.008Z</time></trkpt><trkpt lat="45.4766518" lon="9.2966729"><ele>117.0</ele><time>2026-04-17T15:15:00.008Z</time></trkpt><trkpt lat="45.4766412" lon="9.2965222"><ele>117.0</ele><time>2026-04-17T15:15:02.008Z</time></trkpt><trkpt lat="45.4766268" lon="9.2963721"><ele>116.99999999999999</ele><time>2026-04-17T15:15:04.008Z</time></trkpt><trkpt lat="45.4766183" lon="9.2962234"><ele>116.99999999999999</ele><time>2026-04-17T15:15:06.008Z</time></trkpt><trkpt lat="45.4765942" lon="9.2960811"><ele>117.0</ele><time>2026-04-17T15:15:08.008Z</time></trkpt><trkpt lat="45.4765555" lon="9.2959456"><ele>117.0</ele><time>2026-04-17T15:15:10.008Z</time></trkpt><trkpt lat="45.4765021" lon="9.2958338"><ele>117.0</ele><time>2026-04-17T15:15:12.008Z</time></trkpt><trkpt lat="45.4764209" lon="9.2957487"><ele>117.0</ele><time>2026-04-17T15:15:14.008Z</time></trkpt><trkpt lat="45.4763362" lon="9.2957096"><ele>117.0</ele><time>2026-04-17T15:15:16.008Z</time></trkpt><trkpt lat="45.4762715" lon="9.2957052"><ele>117.0</ele><time>2026-04-17T15:15:18.008Z</time></trkpt><trkpt lat="45.4761902" lon="9.295727"><ele>117.0</ele><time>2026-04-17T15:15:21.008Z</time></trkpt><trkpt lat="45.4761146" lon="9.2957468"><ele>117.0</ele><time>2026-04-17T15:15:24.008Z</time></trkpt><trkpt lat="45.4760386" lon="9.2957785"><ele>116.85714285714286</ele><time>2026-04-17T15:15:27.008Z</time></trkpt><trkpt lat="45.4759687" lon="9.2958224"><ele>116.71428571428572</ele><time>2026-04-17T15:15:30.008Z</time></trkpt><trkpt lat="45.475899" lon="9.2958575"><ele>116.57142857142858</ele><time>2026-04-17T15:15:33.008Z</time></trkpt><trkpt lat="45.4758286" lon="9.2958893"><ele>116.42857142857144</ele><time>2026-04-17T15:15:36.008Z</time></trkpt><trkpt lat="45.4757654" lon="9.2958957"><ele>116.28571428571429</ele><time>2026-04-17T15:15:39.008Z</time></trkpt><trkpt lat="45.4757322" lon="9.2957967"><ele>116.14285714285717</ele><time>2026-04-17T15:15:42.008Z</time></trkpt><trkpt lat="45.4757233" lon="9.2957054"><ele>116.00000000000001</ele><time>2026-04-17T15:15:45.008Z</time></trkpt><trkpt lat="45.4757326" lon="9.2956145"><ele>116.49999999999999</ele><time>2026-04-17T15:15:48.008Z</time></trkpt><trkpt lat="45.4757923" lon="9.2955732"><ele>117.0</ele><time>2026-04-17T15:15:50.008Z</time></trkpt><trkpt lat="45.475874" lon="9.2955264"><ele>117.5</ele><time>2026-04-17T15:15:52.008Z</time></trkpt><trkpt lat="45.4759787" lon="9.2954854"><ele>118.0</ele><time>2026-04-17T15:15:54.008Z</time></trkpt><trkpt lat="45.4760406" lon="9.2954529"><ele>118.49999999999999</ele><time>2026-04-17T15:15:55.008Z</time></trkpt><trkpt lat="45.4761002" lon="9.2954058"><ele>119.0</ele><time>2026-04-17T15:15:56.008Z</time></trkpt><trkpt lat="45.4761612" lon="9.2953591"><ele>118.99999999999999</ele><time>2026-04-17T15:15:57.008Z</time></trkpt><trkpt lat="45.4762186" lon="9.2953119"><ele>119.0</ele><time>2026-04-17T15:15:58.008Z</time></trkpt><trkpt lat="45.476274" lon="9.2952171"><ele>119.0</ele><time>2026-04-17T15:16:00.008Z</time></trkpt><trkpt lat="45.4762146" lon="9.2951836"><ele>119.0</ele><time>2026-04-17T15:16:03.008Z</time></trkpt><trkpt lat="45.4761526" lon="9.2952336"><ele>118.99999999999999</ele><time>2026-04-17T15:16:05.008Z</time></trkpt><trkpt lat="45.4760831" lon="9.2952847"><ele>119.0</ele><time>2026-04-17T15:16:07.008Z</time></trkpt><trkpt lat="45.4760023" lon="9.2953179"><ele>119.0</ele><time>2026-04-17T15:16:09.008Z</time></trkpt><trkpt lat="45.4759131" lon="9.2953317"><ele>119.0</ele><time>2026-04-17T15:16:11.008Z</time></trkpt><trkpt lat="45.4758212" lon="9.2953234"><ele>119.0</ele><time>2026-04-17T15:16:13.008Z</time></trkpt><trkpt lat="45.4757279" lon="9.2952996"><ele>119.0</ele><time>2026-04-17T15:16:15.008Z</time></trkpt><trkpt lat="45.475628" lon="9.2952789"><ele>119.0</ele><time>2026-04-17T15:16:17.008Z</time></trkpt><trkpt lat="45.4755272" lon="9.2952619"><ele>118.80000000000001</ele><time>2026-04-17T15:16:19.008Z</time></trkpt><trkpt lat="45.4754231" lon="9.2952471"><ele>118.60000000000001</ele><time>2026-04-17T15:16:21.009Z</time></trkpt><trkpt lat="45.4753202" lon="9.2952286"><ele>118.4</ele><time>2026-04-17T15:16:23.008Z</time></trkpt><trkpt lat="45.4752202" lon="9.2952124"><ele>118.2</ele><time>2026-04-17T15:16:25.008Z</time></trkpt><trkpt lat="45.4751212" lon="9.2951968"><ele>118.0</ele><time>2026-04-17T15:16:27.008Z</time></trkpt><trkpt lat="45.4750192" lon="9.295175"><ele>118.0</ele><time>2026-04-17T15:16:29.008Z</time></trkpt><trkpt lat="45.4749116" lon="9.295157"><ele>118.00000000000001</ele><time>2026-04-17T15:16:31.008Z</time></trkpt><trkpt lat="45.4748042" lon="9.2951383"><ele>118.00000000000001</ele><time>2026-04-17T15:16:33.008Z</time></trkpt><trkpt lat="45.4746954" lon="9.2951186"><ele>118.0</ele><time>2026-04-17T15:16:35.008Z</time></trkpt><trkpt lat="45.4745885" lon="9.2951081"><ele>118.0</ele><time>2026-04-17T15:16:37.008Z</time></trkpt><trkpt lat="45.4744856" lon="9.2950987"><ele>117.33333333333334</ele><time>2026-04-17T15:16:39.008Z</time></trkpt><trkpt lat="45.4743873" lon="9.2951322"><ele>116.66666666666667</ele><time>2026-04-17T15:16:41.008Z</time></trkpt><trkpt lat="45.4742948" lon="9.2951792"><ele>116.0</ele><time>2026-04-17T15:16:43.008Z</time></trkpt><trkpt lat="45.4742176" lon="9.2951668"><ele>115.33333333333334</ele><time>2026-04-17T15:16:45.008Z</time></trkpt><trkpt lat="45.4742045" lon="9.2950486"><ele>114.66666666666667</ele><time>2026-04-17T15:16:48.008Z</time></trkpt><trkpt lat="45.4742218" lon="9.2949268"><ele>114.0</ele><time>2026-04-17T15:16:50.008Z</time></trkpt><trkpt lat="45.4742313" lon="9.2947669"><ele>113.4</ele><time>2026-04-17T15:16:52.009Z</time></trkpt><trkpt lat="45.474234" lon="9.2946761"><ele>112.80000000000001</ele><time>2026-04-17T15:16:53.008Z</time></trkpt><trkpt lat="45.4742409" lon="9.2945092"><ele>112.19999999999999</ele><time>2026-04-17T15:16:55.008Z</time></trkpt><trkpt lat="45.4742599" lon="9.2943632"><ele>111.6</ele><time>2026-04-17T15:16:57.008Z</time></trkpt><trkpt lat="45.4743386" lon="9.2942729"><ele>111.0</ele><time>2026-04-17T15:16:59.008Z</time></trkpt><trkpt lat="45.4744331" lon="9.2942496"><ele>111.0</ele><time>2026-04-17T15:17:01.009Z</time></trkpt><trkpt lat="45.4745241" lon="9.294274"><ele>111.0</ele><time>2026-04-17T15:17:03.008Z</time></trkpt><trkpt lat="45.4746184" lon="9.2942878"><ele>111.0</ele><time>2026-04-17T15:17:05.008Z</time></trkpt><trkpt lat="45.4747188" lon="9.294302"><ele>111.0</ele><time>2026-04-17T15:17:07.008Z</time></trkpt><trkpt lat="45.4748178" lon="9.2943264"><ele>111.0</ele><time>2026-04-17T15:17:09.008Z</time></trkpt><trkpt lat="45.4749196" lon="9.2943394"><ele>112.19999999999999</ele><time>2026-04-17T15:17:11.008Z</time></trkpt><trkpt lat="45.4750229" lon="9.294357"><ele>113.39999999999999</ele><time>2026-04-17T15:17:13.008Z</time></trkpt><trkpt lat="45.4751242" lon="9.2943778"><ele>114.6</ele><time>2026-04-17T15:17:15.009Z</time></trkpt><trkpt lat="45.4752322" lon="9.2944018"><ele>115.8</ele><time>2026-04-17T15:17:17.008Z</time></trkpt><trkpt lat="45.475337" lon="9.2944207"><ele>117.0</ele><time>2026-04-17T15:17:19.008Z</time></trkpt><trkpt lat="45.4754427" lon="9.2944455"><ele>117.39999999999999</ele><time>2026-04-17T15:17:21.008Z</time></trkpt><trkpt lat="45.4755503" lon="9.2944531"><ele>117.79999999999998</ele><time>2026-04-17T15:17:23.008Z</time></trkpt><trkpt lat="45.4756697" lon="9.2944782"><ele>118.2</ele><time>2026-04-17T15:17:25.008Z</time></trkpt><trkpt lat="45.4757763" lon="9.2945088"><ele>118.6</ele><time>2026-04-17T15:17:27.008Z</time></trkpt><trkpt lat="45.4758806" lon="9.2945232"><ele>119.0</ele><time>2026-04-17T15:17:29.009Z</time></trkpt><trkpt lat="45.475977" lon="9.2944877"><ele>119.0</ele><time>2026-04-17T15:17:31.008Z</time></trkpt><trkpt lat="45.4760167" lon="9.2943542"><ele>119.0</ele><time>2026-04-17T15:17:33.008Z</time></trkpt><trkpt lat="45.476031" lon="9.2941966"><ele>119.0</ele><time>2026-04-17T15:17:35.008Z</time></trkpt><trkpt lat="45.4760482" lon="9.2940374"><ele>119.0</ele><time>2026-04-17T15:17:37.008Z</time></trkpt><trkpt lat="45.4760702" lon="9.2938859"><ele>119.0</ele><time>2026-04-17T15:17:39.008Z</time></trkpt><trkpt lat="45.4761037" lon="9.2937461"><ele>117.75</ele><time>2026-04-17T15:17:41.008Z</time></trkpt><trkpt lat="45.4761189" lon="9.2935993"><ele>116.5</ele><time>2026-04-17T15:17:43.008Z</time></trkpt><trkpt lat="45.476139" lon="9.2934432"><ele>115.25</ele><time>2026-04-17T15:17:45.008Z</time></trkpt><trkpt lat="45.476169" lon="9.2932851"><ele>114.0</ele><time>2026-04-17T15:17:47.009Z</time></trkpt><trkpt lat="45.4761901" lon="9.2931113"><ele>113.42857142857142</ele><time>2026-04-17T15:17:49.008Z</time></trkpt><trkpt lat="45.4761949" lon="9.2930169"><ele>112.85714285714285</ele><time>2026-04-17T15:17:50.008Z</time></trkpt><trkpt lat="45.4761918" lon="9.2929217"><ele>112.28571428571428</ele><time>2026-04-17T15:17:51.008Z</time></trkpt><trkpt lat="45.4761755" lon="9.2928258"><ele>111.71428571428571</ele><time>2026-04-17T15:17:52.008Z</time></trkpt><trkpt lat="45.4761562" lon="9.2927326"><ele>111.14285714285714</ele><time>2026-04-17T15:17:53.009Z</time></trkpt><trkpt lat="45.4761298" lon="9.2926398"><ele>110.57142857142856</ele><time>2026-04-17T15:17:54.008Z</time></trkpt><trkpt lat="45.4760991" lon="9.2925449"><ele>110.0</ele><time>2026-04-17T15:17:55.008Z</time></trkpt><trkpt lat="45.4760674" lon="9.2924487"><ele>109.99999999999999</ele><time>2026-04-17T15:17:56.008Z</time></trkpt><trkpt lat="45.476039" lon="9.2923566"><ele>110.0</ele><time>2026-04-17T15:17:57.008Z</time></trkpt><trkpt lat="45.4760077" lon="9.2922578"><ele>110.0</ele><time>2026-04-17T15:17:58.008Z</time></trkpt><trkpt lat="45.4759848" lon="9.2921665"><ele>110.0</ele><time>2026-04-17T15:17:59.008Z</time></trkpt><trkpt lat="45.4759599" lon="9.2920771"><ele>110.0</ele><time>2026-04-17T15:18:00.008Z</time></trkpt><trkpt lat="45.4759341" lon="9.2919878"><ele>109.99999999999999</ele><time>2026-04-17T15:18:01.008Z</time></trkpt><trkpt lat="45.4759036" lon="9.2918953"><ele>110.0</ele><time>2026-04-17T15:18:02.008Z</time></trkpt><trkpt lat="45.4758748" lon="9.2917978"><ele>110.42857142857142</ele><time>2026-04-17T15:18:03.008Z</time></trkpt><trkpt lat="45.4758464" lon="9.2917066"><ele>110.85714285714286</ele><time>2026-04-17T15:18:04.008Z</time></trkpt><trkpt lat="45.4758174" lon="9.2916085"><ele>111.28571428571428</ele><time>2026-04-17T15:18:05.008Z</time></trkpt><trkpt lat="45.4757917" lon="9.2915132"><ele>111.71428571428571</ele><time>2026-04-17T15:18:06.008Z</time></trkpt><trkpt lat="45.4757658" lon="9.2914257"><ele>112.14285714285714</ele><time>2026-04-17T15:18:07.008Z</time></trkpt><trkpt lat="45.475736" lon="9.2913331"><ele>112.57142857142857</ele><time>2026-04-17T15:18:08.008Z</time></trkpt><trkpt lat="45.4757115" lon="9.291238"><ele>113.0</ele><time>2026-04-17T15:18:09.008Z</time></trkpt><trkpt lat="45.4756847" lon="9.2911485"><ele>113.0</ele><time>2026-04-17T15:18:10.008Z</time></trkpt><trkpt lat="45.4756586" lon="9.2910616"><ele>113.0</ele><time>2026-04-17T15:18:11.008Z</time></trkpt><trkpt lat="45.4756324" lon="9.290972"><ele>113.0</ele><time>2026-04-17T15:18:12.008Z</time></trkpt><trkpt lat="45.4756072" lon="9.290878"><ele>113.0</ele><time>2026-04-17T15:18:13.008Z</time></trkpt><trkpt lat="45.4755847" lon="9.2907898"><ele>113.0</ele><time>2026-04-17T15:18:14.008Z</time></trkpt><trkpt lat="45.4755592" lon="9.2907067"><ele>113.0</ele><time>2026-04-17T15:18:15.008Z</time></trkpt><trkpt lat="45.4755325" lon="9.2906187"><ele>113.0</ele><time>2026-04-17T15:18:16.008Z</time></trkpt><trkpt lat="45.47551" lon="9.2905327"><ele>112.99999999999999</ele><time>2026-04-17T15:18:17.008Z</time></trkpt><trkpt lat="45.4754878" lon="9.2904473"><ele>113.0</ele><time>2026-04-17T15:18:18.008Z</time></trkpt><trkpt lat="45.4754696" lon="9.2903596"><ele>113.0</ele><time>2026-04-17T15:18:19.008Z</time></trkpt><trkpt lat="45.4754447" lon="9.2902714"><ele>113.0</ele><time>2026-04-17T15:18:20.008Z</time></trkpt><trkpt lat="45.475418" lon="9.290187"><ele>112.99999999999999</ele><time>2026-04-17T15:18:21.008Z</time></trkpt><trkpt lat="45.4753723" lon="9.2900181"><ele>113.0</ele><time>2026-04-17T15:18:23.008Z</time></trkpt><trkpt lat="45.4753276" lon="9.2898528"><ele>112.4</ele><time>2026-04-17T15:18:25.008Z</time></trkpt><trkpt lat="45.4753013" lon="9.289769"><ele>111.80000000000001</ele><time>2026-04-17T15:18:26.008Z</time></trkpt><trkpt lat="45.4752474" lon="9.2896238"><ele>111.2</ele><time>2026-04-17T15:18:28.008Z</time></trkpt><trkpt lat="45.4751796" lon="9.2894836"><ele>110.6</ele><time>2026-04-17T15:18:30.008Z</time></trkpt><trkpt lat="45.47509" lon="9.289372"><ele>110.0</ele><time>2026-04-17T15:18:32.008Z</time></trkpt><trkpt lat="45.4749966" lon="9.2892752"><ele>110.0</ele><time>2026-04-17T15:18:34.008Z</time></trkpt><trkpt lat="45.4748967" lon="9.2891972"><ele>110.0</ele><time>2026-04-17T15:18:36.008Z</time></trkpt><trkpt lat="45.4747893" lon="9.2891419"><ele>110.0</ele><time>2026-04-17T15:18:38.009Z</time></trkpt><trkpt lat="45.47468" lon="9.2891005"><ele>110.0</ele><time>2026-04-17T15:18:40.008Z</time></trkpt><trkpt lat="45.4745635" lon="9.289074"><ele>109.5</ele><time>2026-04-17T15:18:42.008Z</time></trkpt><trkpt lat="45.4744522" lon="9.2890558"><ele>109.0</ele><time>2026-04-17T15:18:44.008Z</time></trkpt><trkpt lat="45.4743393" lon="9.2890389"><ele>108.5</ele><time>2026-04-17T15:18:46.008Z</time></trkpt><trkpt lat="45.4742238" lon="9.2890205"><ele>108.0</ele><time>2026-04-17T15:18:48.008Z</time></trkpt><trkpt lat="45.4741104" lon="9.2890113"><ele>108.0</ele><time>2026-04-17T15:18:50.008Z</time></trkpt><trkpt lat="45.4739994" lon="9.2889936"><ele>108.00000000000001</ele><time>2026-04-17T15:18:52.008Z</time></trkpt><trkpt lat="45.4738969" lon="9.2889291"><ele>108.00000000000001</ele><time>2026-04-17T15:18:54.009Z</time></trkpt><trkpt lat="45.4738211" lon="9.2888301"><ele>108.0</ele><time>2026-04-17T15:18:56.008Z</time></trkpt><trkpt lat="45.4737734" lon="9.2887432"><ele>108.0</ele><time>2026-04-17T15:18:58.008Z</time></trkpt><trkpt lat="45.4737373" lon="9.2886583"><ele>109.2</ele><time>2026-04-17T15:19:00.008Z</time></trkpt><trkpt lat="45.4736777" lon="9.2885898"><ele>110.4</ele><time>2026-04-17T15:19:02.008Z</time></trkpt><trkpt lat="45.4735928" lon="9.2885604"><ele>111.60000000000001</ele><time>2026-04-17T15:19:04.008Z</time></trkpt><trkpt lat="45.4734976" lon="9.2885414"><ele>112.80000000000001</ele><time>2026-04-17T15:19:06.008Z</time></trkpt><trkpt lat="45.4733998" lon="9.2885028"><ele>114.0</ele><time>2026-04-17T15:19:08.008Z</time></trkpt><trkpt lat="45.4733003" lon="9.2884616"><ele>114.0</ele><time>2026-04-17T15:19:10.008Z</time></trkpt><trkpt lat="45.4731972" lon="9.2884322"><ele>114.0</ele><time>2026-04-17T15:19:12.008Z</time></trkpt><trkpt lat="45.473096" lon="9.2884029"><ele>114.0</ele><time>2026-04-17T15:19:14.008Z</time></trkpt><trkpt lat="45.4729924" lon="9.2883708"><ele>114.0</ele><time>2026-04-17T15:19:16.008Z</time></trkpt><trkpt lat="45.4728923" lon="9.2883378"><ele>114.0</ele><time>2026-04-17T15:19:18.008Z</time></trkpt><trkpt lat="45.4727875" lon="9.2883296"><ele>114.0</ele><time>2026-04-17T15:19:20.008Z</time></trkpt><trkpt lat="45.4726866" lon="9.288353"><ele>114.0</ele><time>2026-04-17T15:19:22.008Z</time></trkpt><trkpt lat="45.4725805" lon="9.2883908"><ele>114.0</ele><time>2026-04-17T15:19:24.008Z</time></trkpt><trkpt lat="45.4724711" lon="9.2884362"><ele>114.0</ele><time>2026-04-17T15:19:26.008Z</time></trkpt><trkpt lat="45.4723608" lon="9.2884811"><ele>114.0</ele><time>2026-04-17T15:19:28.008Z</time></trkpt><trkpt lat="45.472247" lon="9.2885108"><ele>114.0</ele><time>2026-04-17T15:19:30.008Z</time></trkpt><trkpt lat="45.4721315" lon="9.2885435"><ele>114.0</ele><time>2026-04-17T15:19:32.008Z</time></trkpt><trkpt lat="45.4720184" lon="9.2885597"><ele>114.0</ele><time>2026-04-17T15:19:34.008Z</time></trkpt><trkpt lat="45.4719096" lon="9.2885697"><ele>114.0</ele><time>2026-04-17T15:19:36.008Z</time></trkpt><trkpt lat="45.4718006" lon="9.2885681"><ele>114.0</ele><time>2026-04-17T15:19:38.008Z</time></trkpt><trkpt lat="45.4716933" lon="9.2885595"><ele>113.6</ele><time>2026-04-17T15:19:40.008Z</time></trkpt><trkpt lat="45.4715837" lon="9.288557"><ele>113.2</ele><time>2026-04-17T15:19:42.008Z</time></trkpt><trkpt lat="45.4714732" lon="9.2885427"><ele>112.79999999999998</ele><time>2026-04-17T15:19:44.008Z</time></trkpt><trkpt lat="45.4713641" lon="9.2885274"><ele>112.39999999999999</ele><time>2026-04-17T15:19:46.008Z</time></trkpt><trkpt lat="45.4712572" lon="9.2885036"><ele>112.0</ele><time>2026-04-17T15:19:48.008Z</time></trkpt><trkpt lat="45.4711477" lon="9.2884831"><ele>111.75</ele><time>2026-04-17T15:19:50.008Z</time></trkpt><trkpt lat="45.4710359" lon="9.2884608"><ele>111.5</ele><time>2026-04-17T15:19:52.008Z</time></trkpt><trkpt lat="45.4709223" lon="9.2884456"><ele>111.25</ele><time>2026-04-17T15:19:54.008Z</time></trkpt><trkpt lat="45.4708112" lon="9.2884295"><ele>111.0</ele><time>2026-04-17T15:19:56.008Z</time></trkpt><trkpt lat="45.4706999" lon="9.2884105"><ele>111.0</ele><time>2026-04-17T15:19:58.008Z</time></trkpt><trkpt lat="45.4705917" lon="9.2883872"><ele>111.0</ele><time>2026-04-17T15:20:00.008Z</time></trkpt><trkpt lat="45.4704838" lon="9.2883693"><ele>111.0</ele><time>2026-04-17T15:20:02.008Z</time></trkpt><trkpt lat="45.4703771" lon="9.2883481"><ele>111.0</ele><time>2026-04-17T15:20:04.008Z</time></trkpt><trkpt lat="45.4702685" lon="9.2883339"><ele>111.0</ele><time>2026-04-17T15:20:06.008Z</time></trkpt><trkpt lat="45.4701562" lon="9.2883196"><ele>111.75</ele><time>2026-04-17T15:20:08.008Z</time></trkpt><trkpt lat="45.4700377" lon="9.2882982"><ele>112.5</ele><time>2026-04-17T15:20:10.008Z</time></trkpt><trkpt lat="45.4699248" lon="9.2882658"><ele>113.25</ele><time>2026-04-17T15:20:12.008Z</time></trkpt><trkpt lat="45.4698114" lon="9.2882428"><ele>114.0</ele><time>2026-04-17T15:20:14.008Z</time></trkpt><trkpt lat="45.4696981" lon="9.288228"><ele>113.4</ele><time>2026-04-17T15:20:16.008Z</time></trkpt><trkpt lat="45.4695864" lon="9.2882102"><ele>112.80000000000001</ele><time>2026-04-17T15:20:18.008Z</time></trkpt><trkpt lat="45.4694721" lon="9.2881976"><ele>112.19999999999999</ele><time>2026-04-17T15:20:20.008Z</time></trkpt><trkpt lat="45.4693665" lon="9.2881839"><ele>111.6</ele><time>2026-04-17T15:20:22.008Z</time></trkpt><trkpt lat="45.4692587" lon="9.2881675"><ele>111.0</ele><time>2026-04-17T15:20:24.008Z</time></trkpt><trkpt lat="45.4691495" lon="9.2881503"><ele>111.0</ele><time>2026-04-17T15:20:26.008Z</time></trkpt><trkpt lat="45.469054" lon="9.2881346"><ele>111.0</ele><time>2026-04-17T15:20:28.008Z</time></trkpt><trkpt lat="45.4689781" lon="9.2881254"><ele>111.0</ele><time>2026-04-17T15:20:30.008Z</time></trkpt><trkpt lat="45.4689062" lon="9.2881333"><ele>111.0</ele><time>2026-04-17T15:20:32.008Z</time></trkpt><trkpt lat="45.4688162" lon="9.2881205"><ele>111.0</ele><time>2026-04-17T15:20:34.008Z</time></trkpt><trkpt lat="45.4687208" lon="9.2880767"><ele>111.0</ele><time>2026-04-17T15:20:36.008Z</time></trkpt><trkpt lat="45.468614" lon="9.2880344"><ele>112.25</ele><time>2026-04-17T15:20:38.008Z</time></trkpt><trkpt lat="45.4685027" lon="9.2880121"><ele>113.5</ele><time>2026-04-17T15:20:40.008Z</time></trkpt><trkpt lat="45.4683908" lon="9.2879961"><ele>114.75</ele><time>2026-04-17T15:20:42.008Z</time></trkpt><trkpt lat="45.4682747" lon="9.2879816"><ele>116.0</ele><time>2026-04-17T15:20:44.008Z</time></trkpt><trkpt lat="45.4681612" lon="9.2879651"><ele>116.0</ele><time>2026-04-17T15:20:46.008Z</time></trkpt><trkpt lat="45.4680481" lon="9.2879472"><ele>116.0</ele><time>2026-04-17T15:20:48.008Z</time></trkpt><trkpt lat="45.4679358" lon="9.2879282"><ele>116.0</ele><time>2026-04-17T15:20:50.008Z</time></trkpt><trkpt lat="45.4678243" lon="9.2879078"><ele>116.0</ele><time>2026-04-17T15:20:52.008Z</time></trkpt><trkpt lat="45.4677107" lon="9.2878928"><ele>116.75</ele><time>2026-04-17T15:20:54.008Z</time></trkpt><trkpt lat="45.4675971" lon="9.2878777"><ele>117.5</ele><time>2026-04-17T15:20:56.008Z</time></trkpt><trkpt lat="45.4674884" lon="9.2878571"><ele>118.25</ele><time>2026-04-17T15:20:58.008Z</time></trkpt><trkpt lat="45.4673714" lon="9.2878433"><ele>119.0</ele><time>2026-04-17T15:21:00.008Z</time></trkpt><trkpt lat="45.4672518" lon="9.2878287"><ele>119.0</ele><time>2026-04-17T15:21:02.008Z</time></trkpt><trkpt lat="45.4671374" lon="9.2878091"><ele>119.0</ele><time>2026-04-17T15:21:04.008Z</time></trkpt><trkpt lat="45.467026" lon="9.2877748"><ele>119.0</ele><time>2026-04-17T15:21:06.008Z</time></trkpt><trkpt lat="45.4669104" lon="9.2877527"><ele>119.0</ele><time>2026-04-17T15:21:08.008Z</time></trkpt><trkpt lat="45.4667941" lon="9.287733"><ele>118.0</ele><time>2026-04-17T15:21:10.008Z</time></trkpt><trkpt lat="45.4666793" lon="9.2877089"><ele>117.0</ele><time>2026-04-17T15:21:12.008Z</time></trkpt><trkpt lat="45.466569" lon="9.2876983"><ele>116.0</ele><time>2026-04-17T15:21:14.008Z</time></trkpt><trkpt lat="45.466457" lon="9.2876925"><ele>115.0</ele><time>2026-04-17T15:21:16.008Z</time></trkpt><trkpt lat="45.4663462" lon="9.2876785"><ele>114.8</ele><time>2026-04-17T15:21:18.008Z</time></trkpt><trkpt lat="45.466245" lon="9.287623"><ele>114.6</ele><time>2026-04-17T15:21:20.008Z</time></trkpt><trkpt lat="45.4661387" lon="9.2876035"><ele>114.4</ele><time>2026-04-17T15:21:22.008Z</time></trkpt><trkpt lat="45.4660285" lon="9.2875903"><ele>114.2</ele><time>2026-04-17T15:21:24.008Z</time></trkpt><trkpt lat="45.4659123" lon="9.2875821"><ele>114.0</ele><time>2026-04-17T15:21:26.008Z</time></trkpt><trkpt lat="45.4658004" lon="9.2875659"><ele>114.0</ele><time>2026-04-17T15:21:28.008Z</time></trkpt><trkpt lat="45.4656872" lon="9.2875444"><ele>114.0</ele><time>2026-04-17T15:21:30.008Z</time></trkpt><trkpt lat="45.4655675" lon="9.2875305"><ele>114.0</ele><time>2026-04-17T15:21:32.008Z</time></trkpt><trkpt lat="45.4654511" lon="9.2875058"><ele>114.0</ele><time>2026-04-17T15:21:34.009Z</time></trkpt><trkpt lat="45.4653351" lon="9.2874845"><ele>113.75</ele><time>2026-04-17T15:21:36.008Z</time></trkpt><trkpt lat="45.4652204" lon="9.2874602"><ele>113.5</ele><time>2026-04-17T15:21:38.008Z</time></trkpt><trkpt lat="45.4651048" lon="9.2874356"><ele>113.25</ele><time>2026-04-17T15:21:40.008Z</time></trkpt><trkpt lat="45.4649858" lon="9.2874155"><ele>113.0</ele><time>2026-04-17T15:21:42.008Z</time></trkpt><trkpt lat="45.4648681" lon="9.2874071"><ele>113.0</ele><time>2026-04-17T15:21:44.008Z</time></trkpt><trkpt lat="45.4647509" lon="9.2873894"><ele>113.0</ele><time>2026-04-17T15:21:46.008Z</time></trkpt><trkpt lat="45.4646333" lon="9.2873737"><ele>113.0</ele><time>2026-04-17T15:21:48.008Z</time></trkpt><trkpt lat="45.4645148" lon="9.2873498"><ele>113.0</ele><time>2026-04-17T15:21:50.008Z</time></trkpt><trkpt lat="45.464398" lon="9.2873277"><ele>113.25</ele><time>2026-04-17T15:21:52.008Z</time></trkpt><trkpt lat="45.4642831" lon="9.2873071"><ele>113.5</ele><time>2026-04-17T15:21:54.008Z</time></trkpt><trkpt lat="45.4641653" lon="9.2872955"><ele>113.75</ele><time>2026-04-17T15:21:56.009Z</time></trkpt><trkpt lat="45.4640512" lon="9.2872789"><ele>114.0</ele><time>2026-04-17T15:21:58.008Z</time></trkpt><trkpt lat="45.4639374" lon="9.2872585"><ele>114.0</ele><time>2026-04-17T15:22:00.008Z</time></trkpt><trkpt lat="45.4638245" lon="9.2872377"><ele>114.0</ele><time>2026-04-17T15:22:02.008Z</time></trkpt><trkpt lat="45.4637108" lon="9.2872163"><ele>114.0</ele><time>2026-04-17T15:22:04.008Z</time></trkpt><trkpt lat="45.463597" lon="9.2871843"><ele>114.0</ele><time>2026-04-17T15:22:06.008Z</time></trkpt><trkpt lat="45.4634899" lon="9.2871207"><ele>114.0</ele><time>2026-04-17T15:22:08.008Z</time></trkpt><trkpt lat="45.4633895" lon="9.287049"><ele>114.0</ele><time>2026-04-17T15:22:10.008Z</time></trkpt><trkpt lat="45.4632961" lon="9.2869567"><ele>114.0</ele><time>2026-04-17T15:22:12.008Z</time></trkpt><trkpt lat="45.4632099" lon="9.286856"><ele>114.0</ele><time>2026-04-17T15:22:14.008Z</time></trkpt><trkpt lat="45.4631303" lon="9.2867306"><ele>114.0</ele><time>2026-04-17T15:22:16.008Z</time></trkpt><trkpt lat="45.4630571" lon="9.2866014"><ele>114.0</ele><time>2026-04-17T15:22:18.008Z</time></trkpt><trkpt lat="45.4629901" lon="9.2864734"><ele>114.0</ele><time>2026-04-17T15:22:20.008Z</time></trkpt><trkpt lat="45.4628936" lon="9.2864115"><ele>114.0</ele><time>2026-04-17T15:22:22.009Z</time></trkpt><trkpt lat="45.4627793" lon="9.2864099"><ele>114.0</ele><time>2026-04-17T15:22:24.008Z</time></trkpt><trkpt lat="45.4626575" lon="9.2864058"><ele>114.6</ele><time>2026-04-17T15:22:26.008Z</time></trkpt><trkpt lat="45.4625429" lon="9.2863987"><ele>115.2</ele><time>2026-04-17T15:22:28.008Z</time></trkpt><trkpt lat="45.462429" lon="9.286396"><ele>115.79999999999998</ele><time>2026-04-17T15:22:30.008Z</time></trkpt><trkpt lat="45.4623298" lon="9.2863853"><ele>116.39999999999999</ele><time>2026-04-17T15:22:32.008Z</time></trkpt><trkpt lat="45.4622274" lon="9.2863729"><ele>117.0</ele><time>2026-04-17T15:22:34.008Z</time></trkpt><trkpt lat="45.4621451" lon="9.2863702"><ele>115.6</ele><time>2026-04-17T15:22:36.008Z</time></trkpt><trkpt lat="45.462048" lon="9.2863678"><ele>114.19999999999999</ele><time>2026-04-17T15:22:38.008Z</time></trkpt><trkpt lat="45.4619435" lon="9.2863567"><ele>112.8</ele><time>2026-04-17T15:22:40.008Z</time></trkpt><trkpt lat="45.4618454" lon="9.2863387"><ele>111.4</ele><time>2026-04-17T15:22:42.008Z</time></trkpt><trkpt lat="45.4617435" lon="9.2863254"><ele>110.0</ele><time>2026-04-17T15:22:44.008Z</time></trkpt><trkpt lat="45.4616409" lon="9.2863082"><ele>110.0</ele><time>2026-04-17T15:22:46.008Z</time></trkpt><trkpt lat="45.4615329" lon="9.2862863"><ele>110.0</ele><time>2026-04-17T15:22:48.008Z</time></trkpt><trkpt lat="45.4614218" lon="9.2862622"><ele>110.0</ele><time>2026-04-17T15:22:50.009Z</time></trkpt><trkpt lat="45.4613085" lon="9.2862471"><ele>110.0</ele><time>2026-04-17T15:22:52.008Z</time></trkpt><trkpt lat="45.4611947" lon="9.2862342"><ele>110.0</ele><time>2026-04-17T15:22:54.008Z</time></trkpt><trkpt lat="45.4610815" lon="9.2862157"><ele>109.4</ele><time>2026-04-17T15:22:56.008Z</time></trkpt><trkpt lat="45.4609679" lon="9.2861986"><ele>108.8</ele><time>2026-04-17T15:22:58.008Z</time></trkpt><trkpt lat="45.4608567" lon="9.2861748"><ele>108.19999999999999</ele><time>2026-04-17T15:23:00.008Z</time></trkpt><trkpt lat="45.4607491" lon="9.2862088"><ele>107.6</ele><time>2026-04-17T15:23:02.008Z</time></trkpt><trkpt lat="45.4606471" lon="9.2862734"><ele>107.0</ele><time>2026-04-17T15:23:04.008Z</time></trkpt><trkpt lat="45.460535" lon="9.2863002"><ele>107.0</ele><time>2026-04-17T15:23:06.008Z</time></trkpt><trkpt lat="45.4604183" lon="9.2862793"><ele>107.0</ele><time>2026-04-17T15:23:08.008Z</time></trkpt><trkpt lat="45.460297" lon="9.2862512"><ele>107.0</ele><time>2026-04-17T15:23:10.008Z</time></trkpt><trkpt lat="45.4601852" lon="9.2861885"><ele>107.0</ele><time>2026-04-17T15:23:12.008Z</time></trkpt><trkpt lat="45.4600746" lon="9.28612"><ele>107.0</ele><time>2026-04-17T15:23:14.008Z</time></trkpt><trkpt lat="45.4599738" lon="9.2860434"><ele>106.99999999999999</ele><time>2026-04-17T15:23:16.008Z</time></trkpt><trkpt lat="45.4598864" lon="9.2859644"><ele>106.99999999999999</ele><time>2026-04-17T15:23:18.008Z</time></trkpt><trkpt lat="45.4597935" lon="9.2859021"><ele>107.0</ele><time>2026-04-17T15:23:20.008Z</time></trkpt><trkpt lat="45.4596898" lon="9.2858302"><ele>107.0</ele><time>2026-04-17T15:23:22.008Z</time></trkpt><trkpt lat="45.4595719" lon="9.2857907"><ele>107.75</ele><time>2026-04-17T15:23:24.009Z</time></trkpt><trkpt lat="45.4594593" lon="9.2858435"><ele>108.5</ele><time>2026-04-17T15:23:26.008Z</time></trkpt><trkpt lat="45.4593752" lon="9.2859648"><ele>109.25</ele><time>2026-04-17T15:23:28.008Z</time></trkpt><trkpt lat="45.459294" lon="9.2860914"><ele>110.0</ele><time>2026-04-17T15:23:30.008Z</time></trkpt><trkpt lat="45.4591918" lon="9.2861715"><ele>110.0</ele><time>2026-04-17T15:23:32.008Z</time></trkpt><trkpt lat="45.4590833" lon="9.2862373"><ele>110.0</ele><time>2026-04-17T15:23:34.008Z</time></trkpt><trkpt lat="45.4589799" lon="9.2862927"><ele>110.0</ele><time>2026-04-17T15:23:36.008Z</time></trkpt><trkpt lat="45.4588697" lon="9.2863421"><ele>110.0</ele><time>2026-04-17T15:23:38.008Z</time></trkpt><trkpt lat="45.4587563" lon="9.2863751"><ele>110.2</ele><time>2026-04-17T15:23:40.008Z</time></trkpt><trkpt lat="45.4586386" lon="9.2863687"><ele>110.4</ele><time>2026-04-17T15:23:42.008Z</time></trkpt><trkpt lat="45.4585273" lon="9.2863644"><ele>110.6</ele><time>2026-04-17T15:23:44.008Z</time></trkpt><trkpt lat="45.4584624" lon="9.2863696"><ele>110.8</ele><time>2026-04-17T15:23:45.009Z</time></trkpt><trkpt lat="45.4583492" lon="9.2863637"><ele>111.0</ele><time>2026-04-17T15:23:47.008Z</time></trkpt><trkpt lat="45.4582308" lon="9.2863522"><ele>111.0</ele><time>2026-04-17T15:23:49.008Z</time></trkpt><trkpt lat="45.4581129" lon="9.2863225"><ele>111.0</ele><time>2026-04-17T15:23:51.008Z</time></trkpt><trkpt lat="45.4579941" lon="9.2862843"><ele>111.0</ele><time>2026-04-17T15:23:53.008Z</time></trkpt><trkpt lat="45.4578747" lon="9.2862538"><ele>111.0</ele><time>2026-04-17T15:23:55.008Z</time></trkpt><trkpt lat="45.4577601" lon="9.2862346"><ele>110.75</ele><time>2026-04-17T15:23:57.008Z</time></trkpt><trkpt lat="45.457647" lon="9.2862151"><ele>110.5</ele><time>2026-04-17T15:23:59.008Z</time></trkpt><trkpt lat="45.4575338" lon="9.2861833"><ele>110.25</ele><time>2026-04-17T15:24:01.008Z</time></trkpt><trkpt lat="45.4574142" lon="9.2861661"><ele>110.0</ele><time>2026-04-17T15:24:03.009Z</time></trkpt><trkpt lat="45.4573033" lon="9.2861531"><ele>110.0</ele><time>2026-04-17T15:24:05.008Z</time></trkpt><trkpt lat="45.4571898" lon="9.2861366"><ele>110.0</ele><time>2026-04-17T15:24:07.008Z</time></trkpt><trkpt lat="45.457083" lon="9.2861151"><ele>110.0</ele><time>2026-04-17T15:24:09.008Z</time></trkpt><trkpt lat="45.4569684" lon="9.2861076"><ele>110.0</ele><time>2026-04-17T15:24:11.008Z</time></trkpt><trkpt lat="45.4568544" lon="9.2860762"><ele>109.5</ele><time>2026-04-17T15:24:13.008Z</time></trkpt><trkpt lat="45.4567461" lon="9.2860383"><ele>109.0</ele><time>2026-04-17T15:24:15.008Z</time></trkpt><trkpt lat="45.4566364" lon="9.2860198"><ele>108.5</ele><time>2026-04-17T15:24:17.008Z</time></trkpt><trkpt lat="45.4565246" lon="9.2860045"><ele>108.0</ele><time>2026-04-17T15:24:19.008Z</time></trkpt><trkpt lat="45.456408" lon="9.2859727"><ele>108.0</ele><time>2026-04-17T15:24:21.008Z</time></trkpt><trkpt lat="45.4562884" lon="9.2859575"><ele>108.0</ele><time>2026-04-17T15:24:23.008Z</time></trkpt><trkpt lat="45.4561685" lon="9.2859338"><ele>108.0</ele><time>2026-04-17T15:24:25.008Z</time></trkpt><trkpt lat="45.4560592" lon="9.28591"><ele>108.0</ele><time>2026-04-17T15:24:27.008Z</time></trkpt><trkpt lat="45.4559459" lon="9.2858879"><ele>108.0</ele><time>2026-04-17T15:24:29.008Z</time></trkpt><trkpt lat="45.4558345" lon="9.2858712"><ele>108.0</ele><time>2026-04-17T15:24:31.008Z</time></trkpt><trkpt lat="45.4557186" lon="9.2858475"><ele>108.0</ele><time>2026-04-17T15:24:33.008Z</time></trkpt><trkpt lat="45.4556064" lon="9.2858335"><ele>108.0</ele><time>2026-04-17T15:24:35.008Z</time></trkpt><trkpt lat="45.4554888" lon="9.2858121"><ele>108.25</ele><time>2026-04-17T15:24:37.008Z</time></trkpt><trkpt lat="45.4553739" lon="9.2857914"><ele>108.5</ele><time>2026-04-17T15:24:39.008Z</time></trkpt><trkpt lat="45.4552585" lon="9.2857748"><ele>108.75</ele><time>2026-04-17T15:24:41.008Z</time></trkpt><trkpt lat="45.4551428" lon="9.2857562"><ele>109.0</ele><time>2026-04-17T15:24:43.009Z</time></trkpt><trkpt lat="45.4550238" lon="9.2857392"><ele>109.0</ele><time>2026-04-17T15:24:45.008Z</time></trkpt><trkpt lat="45.4549051" lon="9.2857199"><ele>109.0</ele><time>2026-04-17T15:24:47.008Z</time></trkpt><trkpt lat="45.454783" lon="9.2857004"><ele>109.0</ele><time>2026-04-17T15:24:49.008Z</time></trkpt><trkpt lat="45.4546632" lon="9.2856807"><ele>109.0</ele><time>2026-04-17T15:24:51.008Z</time></trkpt><trkpt lat="45.4545446" lon="9.285661"><ele>108.80000000000001</ele><time>2026-04-17T15:24:53.008Z</time></trkpt><trkpt lat="45.4544387" lon="9.2856459"><ele>108.60000000000001</ele><time>2026-04-17T15:24:55.008Z</time></trkpt><trkpt lat="45.4543462" lon="9.285634"><ele>108.4</ele><time>2026-04-17T15:24:57.008Z</time></trkpt><trkpt lat="45.4542494" lon="9.2856201"><ele>108.2</ele><time>2026-04-17T15:24:59.008Z</time></trkpt><trkpt lat="45.4541462" lon="9.285618"><ele>108.0</ele><time>2026-04-17T15:25:01.008Z</time></trkpt><trkpt lat="45.4540338" lon="9.2856037"><ele>107.75</ele><time>2026-04-17T15:25:03.008Z</time></trkpt><trkpt lat="45.4539217" lon="9.2855715"><ele>107.5</ele><time>2026-04-17T15:25:05.008Z</time></trkpt><trkpt lat="45.4538096" lon="9.2855427"><ele>107.25</ele><time>2026-04-17T15:25:07.008Z</time></trkpt><trkpt lat="45.4536935" lon="9.2855314"><ele>107.0</ele><time>2026-04-17T15:25:09.008Z</time></trkpt><trkpt lat="45.453576" lon="9.2855359"><ele>106.75</ele><time>2026-04-17T15:25:11.008Z</time></trkpt><trkpt lat="45.4534617" lon="9.2855614"><ele>106.5</ele><time>2026-04-17T15:25:13.008Z</time></trkpt><trkpt lat="45.453346" lon="9.2856138"><ele>106.25</ele><time>2026-04-17T15:25:15.008Z</time></trkpt><trkpt lat="45.4532364" lon="9.2856898"><ele>106.0</ele><time>2026-04-17T15:25:17.008Z</time></trkpt><trkpt lat="45.453139" lon="9.2857864"><ele>106.4</ele><time>2026-04-17T15:25:19.008Z</time></trkpt><trkpt lat="45.4530512" lon="9.2859022"><ele>106.8</ele><time>2026-04-17T15:25:21.008Z</time></trkpt><trkpt lat="45.4530082" lon="9.2859692"><ele>107.20000000000002</ele><time>2026-04-17T15:25:22.008Z</time></trkpt><trkpt lat="45.4529376" lon="9.2860989"><ele>107.60000000000001</ele><time>2026-04-17T15:25:24.008Z</time></trkpt><trkpt lat="45.4528716" lon="9.2862323"><ele>108.0</ele><time>2026-04-17T15:25:26.008Z</time></trkpt><trkpt lat="45.4528084" lon="9.2863824"><ele>108.75</ele><time>2026-04-17T15:25:28.008Z</time></trkpt><trkpt lat="45.4527533" lon="9.286535"><ele>109.5</ele><time>2026-04-17T15:25:30.008Z</time></trkpt><trkpt lat="45.4526995" lon="9.2866804"><ele>110.25</ele><time>2026-04-17T15:25:32.008Z</time></trkpt><trkpt lat="45.4526771" lon="9.2868407"><ele>111.0</ele><time>2026-04-17T15:25:34.008Z</time></trkpt><trkpt lat="45.4526491" lon="9.2869964"><ele>111.0</ele><time>2026-04-17T15:25:36.008Z</time></trkpt><trkpt lat="45.4526201" lon="9.2871576"><ele>111.0</ele><time>2026-04-17T15:25:38.008Z</time></trkpt><trkpt lat="45.4526026" lon="9.2873249"><ele>111.0</ele><time>2026-04-17T15:25:40.008Z</time></trkpt><trkpt lat="45.4525843" lon="9.2874884"><ele>111.0</ele><time>2026-04-17T15:25:42.008Z</time></trkpt><trkpt lat="45.452562" lon="9.2876533"><ele>110.6</ele><time>2026-04-17T15:25:44.008Z</time></trkpt><trkpt lat="45.4525447" lon="9.2878164"><ele>110.19999999999999</ele><time>2026-04-17T15:25:46.008Z</time></trkpt><trkpt lat="45.4525412" lon="9.2879717"><ele>109.80000000000001</ele><time>2026-04-17T15:25:48.008Z</time></trkpt><trkpt lat="45.4525389" lon="9.2881174"><ele>109.4</ele><time>2026-04-17T15:25:50.008Z</time></trkpt><trkpt lat="45.4525271" lon="9.2882633"><ele>109.0</ele><time>2026-04-17T15:25:52.008Z</time></trkpt><trkpt lat="45.4525224" lon="9.2884144"><ele>109.0</ele><time>2026-04-17T15:25:54.008Z</time></trkpt><trkpt lat="45.452508" lon="9.2885603"><ele>109.0</ele><time>2026-04-17T15:25:56.008Z</time></trkpt><trkpt lat="45.4524973" lon="9.2887019"><ele>109.0</ele><time>2026-04-17T15:25:58.008Z</time></trkpt><trkpt lat="45.4524847" lon="9.2888553"><ele>109.0</ele><time>2026-04-17T15:26:00.008Z</time></trkpt><trkpt lat="45.4524689" lon="9.2890033"><ele>109.0</ele><time>2026-04-17T15:26:02.008Z</time></trkpt><trkpt lat="45.4524533" lon="9.2891496"><ele>109.2</ele><time>2026-04-17T15:26:04.008Z</time></trkpt><trkpt lat="45.4524388" lon="9.2892949"><ele>109.4</ele><time>2026-04-17T15:26:06.008Z</time></trkpt><trkpt lat="45.4524288" lon="9.289446"><ele>109.6</ele><time>2026-04-17T15:26:08.008Z</time></trkpt><trkpt lat="45.4524226" lon="9.2896053"><ele>109.8</ele><time>2026-04-17T15:26:10.008Z</time></trkpt><trkpt lat="45.4524075" lon="9.2897707"><ele>110.0</ele><time>2026-04-17T15:26:12.008Z</time></trkpt><trkpt lat="45.4524009" lon="9.2899471"><ele>110.0</ele><time>2026-04-17T15:26:14.008Z</time></trkpt><trkpt lat="45.4524098" lon="9.2901196"><ele>110.0</ele><time>2026-04-17T15:26:16.008Z</time></trkpt><trkpt lat="45.4524206" lon="9.2902954"><ele>110.0</ele><time>2026-04-17T15:26:18.008Z</time></trkpt><trkpt lat="45.4524075" lon="9.2904678"><ele>110.0</ele><time>2026-04-17T15:26:20.008Z</time></trkpt><trkpt lat="45.4523901" lon="9.290637"><ele>110.0</ele><time>2026-04-17T15:26:22.008Z</time></trkpt><trkpt lat="45.4524138" lon="9.2907937"><ele>110.0</ele><time>2026-04-17T15:26:24.008Z</time></trkpt><trkpt lat="45.4524943" lon="9.2909129"><ele>110.0</ele><time>2026-04-17T15:26:26.008Z</time></trkpt><trkpt lat="45.4525889" lon="9.2909957"><ele>110.0</ele><time>2026-04-17T15:26:28.008Z</time></trkpt><trkpt lat="45.452683" lon="9.2910745"><ele>110.0</ele><time>2026-04-17T15:26:30.008Z</time></trkpt><trkpt lat="45.4527769" lon="9.2911412"><ele>110.0</ele><time>2026-04-17T15:26:32.008Z</time></trkpt><trkpt lat="45.4528835" lon="9.2912095"><ele>110.0</ele><time>2026-04-17T15:26:34.008Z</time></trkpt><trkpt lat="45.4529892" lon="9.2912592"><ele>110.0</ele><time>2026-04-17T15:26:36.008Z</time></trkpt><trkpt lat="45.4530977" lon="9.2912873"><ele>110.0</ele><time>2026-04-17T15:26:38.008Z</time></trkpt><trkpt lat="45.4532065" lon="9.2913023"><ele>110.0</ele><time>2026-04-17T15:26:40.008Z</time></trkpt><trkpt lat="45.4533143" lon="9.2913271"><ele>110.16666666666666</ele><time>2026-04-17T15:26:42.008Z</time></trkpt><trkpt lat="45.4534112" lon="9.2913913"><ele>110.33333333333333</ele><time>2026-04-17T15:26:44.008Z</time></trkpt><trkpt lat="45.4535147" lon="9.2914669"><ele>110.5</ele><time>2026-04-17T15:26:46.008Z</time></trkpt><trkpt lat="45.4535745" lon="9.2914952"><ele>110.66666666666666</ele><time>2026-04-17T15:26:47.008Z</time></trkpt><trkpt lat="45.4536364" lon="9.291512"><ele>110.83333333333333</ele><time>2026-04-17T15:26:48.008Z</time></trkpt><trkpt lat="45.4537" lon="9.2915273"><ele>111.0</ele><time>2026-04-17T15:26:49.008Z</time></trkpt><trkpt lat="45.4538232" lon="9.291573"><ele>110.5</ele><time>2026-04-17T15:26:51.008Z</time></trkpt><trkpt lat="45.4538856" lon="9.2915904"><ele>110.0</ele><time>2026-04-17T15:26:52.008Z</time></trkpt><trkpt lat="45.4539501" lon="9.2916034"><ele>109.5</ele><time>2026-04-17T15:26:53.008Z</time></trkpt><trkpt lat="45.4540156" lon="9.2916102"><ele>109.0</ele><time>2026-04-17T15:26:54.009Z</time></trkpt><trkpt lat="45.4540813" lon="9.2916116"><ele>108.5</ele><time>2026-04-17T15:26:55.008Z</time></trkpt><trkpt lat="45.4541972" lon="9.2915812"><ele>108.0</ele><time>2026-04-17T15:26:57.008Z</time></trkpt><trkpt lat="45.454311" lon="9.2915515"><ele>108.0</ele><time>2026-04-17T15:26:59.008Z</time></trkpt><trkpt lat="45.4544225" lon="9.291526"><ele>108.0</ele><time>2026-04-17T15:27:01.008Z</time></trkpt><trkpt lat="45.4545313" lon="9.2915437"><ele>108.0</ele><time>2026-04-17T15:27:03.008Z</time></trkpt><trkpt lat="45.4546428" lon="9.2915631"><ele>108.0</ele><time>2026-04-17T15:27:05.008Z</time></trkpt><trkpt lat="45.4547568" lon="9.2915858"><ele>108.25</ele><time>2026-04-17T15:27:07.008Z</time></trkpt><trkpt lat="45.4548701" lon="9.2916027"><ele>108.5</ele><time>2026-04-17T15:27:09.008Z</time></trkpt><trkpt lat="45.4549866" lon="9.2916206"><ele>108.75</ele><time>2026-04-17T15:27:11.008Z</time></trkpt><trkpt lat="45.455096" lon="9.2916404"><ele>109.0</ele><time>2026-04-17T15:27:13.008Z</time></trkpt><trkpt lat="45.4552084" lon="9.2916469"><ele>109.0</ele><time>2026-04-17T15:27:15.008Z</time></trkpt><trkpt lat="45.4553193" lon="9.2916596"><ele>109.0</ele><time>2026-04-17T15:27:17.008Z</time></trkpt><trkpt lat="45.4554377" lon="9.2916587"><ele>109.0</ele><time>2026-04-17T15:27:19.008Z</time></trkpt><trkpt lat="45.455549" lon="9.2916413"><ele>109.0</ele><time>2026-04-17T15:27:21.008Z</time></trkpt><trkpt lat="45.4556613" lon="9.2916361"><ele>109.4</ele><time>2026-04-17T15:27:23.008Z</time></trkpt><trkpt lat="45.4557687" lon="9.2916174"><ele>109.80000000000001</ele><time>2026-04-17T15:27:25.008Z</time></trkpt><trkpt lat="45.4558758" lon="9.2915897"><ele>110.19999999999999</ele><time>2026-04-17T15:27:27.008Z</time></trkpt><trkpt lat="45.4559813" lon="9.2915561"><ele>110.6</ele><time>2026-04-17T15:27:29.008Z</time></trkpt><trkpt lat="45.4560906" lon="9.2915035"><ele>111.0</ele><time>2026-04-17T15:27:31.008Z</time></trkpt><trkpt lat="45.4561937" lon="9.2914518"><ele>111.5</ele><time>2026-04-17T15:27:33.008Z</time></trkpt><trkpt lat="45.456304" lon="9.2913895"><ele>112.0</ele><time>2026-04-17T15:27:35.008Z</time></trkpt><trkpt lat="45.4564084" lon="9.2913229"><ele>112.5</ele><time>2026-04-17T15:27:37.008Z</time></trkpt><trkpt lat="45.4565138" lon="9.291256"><ele>113.0</ele><time>2026-04-17T15:27:39.009Z</time></trkpt><trkpt lat="45.456623" lon="9.2911983"><ele>113.0</ele><time>2026-04-17T15:27:41.008Z</time></trkpt><trkpt lat="45.456737" lon="9.2911686"><ele>113.0</ele><time>2026-04-17T15:27:43.008Z</time></trkpt><trkpt lat="45.4568519" lon="9.2911471"><ele>113.0</ele><time>2026-04-17T15:27:45.008Z</time></trkpt><trkpt lat="45.4569637" lon="9.2911157"><ele>113.0</ele><time>2026-04-17T15:27:47.008Z</time></trkpt><trkpt lat="45.4570793" lon="9.2910798"><ele>113.25</ele><time>2026-04-17T15:27:49.008Z</time></trkpt><trkpt lat="45.457192" lon="9.291022"><ele>113.5</ele><time>2026-04-17T15:27:51.008Z</time></trkpt><trkpt lat="45.4573019" lon="9.2909674"><ele>113.75</ele><time>2026-04-17T15:27:53.008Z</time></trkpt><trkpt lat="45.4574152" lon="9.2909271"><ele>114.0</ele><time>2026-04-17T15:27:55.008Z</time></trkpt><trkpt lat="45.4575264" lon="9.2909136"><ele>114.0</ele><time>2026-04-17T15:27:57.008Z</time></trkpt><trkpt lat="45.4576397" lon="9.2909295"><ele>114.0</ele><time>2026-04-17T15:27:59.008Z</time></trkpt><trkpt lat="45.4577514" lon="9.2909747"><ele>114.0</ele><time>2026-04-17T15:28:01.008Z</time></trkpt><trkpt lat="45.4578508" lon="9.2910486"><ele>114.0</ele><time>2026-04-17T15:28:03.008Z</time></trkpt><trkpt lat="45.4579514" lon="9.2911184"><ele>114.5</ele><time>2026-04-17T15:28:05.008Z</time></trkpt><trkpt lat="45.4580491" lon="9.2911862"><ele>115.0</ele><time>2026-04-17T15:28:07.009Z</time></trkpt><trkpt lat="45.4581474" lon="9.2912682"><ele>115.5</ele><time>2026-04-17T15:28:09.009Z</time></trkpt><trkpt lat="45.4582607" lon="9.291344"><ele>116.0</ele><time>2026-04-17T15:28:11.008Z</time></trkpt><trkpt lat="45.4583597" lon="9.2914306"><ele>116.0</ele><time>2026-04-17T15:28:13.008Z</time></trkpt><trkpt lat="45.4584644" lon="9.2915178"><ele>116.0</ele><time>2026-04-17T15:28:15.008Z</time></trkpt><trkpt lat="45.458569" lon="9.2916118"><ele>116.0</ele><time>2026-04-17T15:28:17.008Z</time></trkpt><trkpt lat="45.4586632" lon="9.2917187"><ele>116.0</ele><time>2026-04-17T15:28:19.008Z</time></trkpt><trkpt lat="45.4587135" lon="9.2917785"><ele>116.0</ele><time>2026-04-17T15:28:20.008Z</time></trkpt><trkpt lat="45.4588188" lon="9.2918704"><ele>116.16666666666666</ele><time>2026-04-17T15:28:22.008Z</time></trkpt><trkpt lat="45.4588809" lon="9.2919215"><ele>116.33333333333333</ele><time>2026-04-17T15:28:23.008Z</time></trkpt><trkpt lat="45.4589384" lon="9.2919636"><ele>116.5</ele><time>2026-04-17T15:28:24.008Z</time></trkpt><trkpt lat="45.4590006" lon="9.2920001"><ele>116.66666666666666</ele><time>2026-04-17T15:28:25.008Z</time></trkpt><trkpt lat="45.459066" lon="9.2920217"><ele>116.83333333333333</ele><time>2026-04-17T15:28:26.008Z</time></trkpt><trkpt lat="45.4591933" lon="9.2920674"><ele>117.0</ele><time>2026-04-17T15:28:28.008Z</time></trkpt><trkpt lat="45.4592563" lon="9.2920843"><ele>117.0</ele><time>2026-04-17T15:28:29.008Z</time></trkpt><trkpt lat="45.4593197" lon="9.2920978"><ele>117.0</ele><time>2026-04-17T15:28:30.008Z</time></trkpt><trkpt lat="45.4593831" lon="9.2921089"><ele>117.0</ele><time>2026-04-17T15:28:31.008Z</time></trkpt><trkpt lat="45.4595035" lon="9.2921287"><ele>117.0</ele><time>2026-04-17T15:28:33.009Z</time></trkpt><trkpt lat="45.4595678" lon="9.29215"><ele>117.0</ele><time>2026-04-17T15:28:34.008Z</time></trkpt><trkpt lat="45.4596873" lon="9.2921741"><ele>117.0</ele><time>2026-04-17T15:28:36.008Z</time></trkpt><trkpt lat="45.4598083" lon="9.292196"><ele>117.5</ele><time>2026-04-17T15:28:38.008Z</time></trkpt><trkpt lat="45.4599201" lon="9.2922079"><ele>118.0</ele><time>2026-04-17T15:28:40.008Z</time></trkpt><trkpt lat="45.4600387" lon="9.2922282"><ele>118.5</ele><time>2026-04-17T15:28:42.008Z</time></trkpt><trkpt lat="45.460155" lon="9.2922314"><ele>119.0</ele><time>2026-04-17T15:28:44.008Z</time></trkpt><trkpt lat="45.460274" lon="9.2922219"><ele>118.99999999999999</ele><time>2026-04-17T15:28:46.008Z</time></trkpt><trkpt lat="45.4603363" lon="9.2922066"><ele>119.0</ele><time>2026-04-17T15:28:47.008Z</time></trkpt><trkpt lat="45.4604487" lon="9.2921664"><ele>119.0</ele><time>2026-04-17T15:28:49.008Z</time></trkpt><trkpt lat="45.4605089" lon="9.292134"><ele>119.0</ele><time>2026-04-17T15:28:50.008Z</time></trkpt><trkpt lat="45.4606234" lon="9.2920687"><ele>118.99999999999999</ele><time>2026-04-17T15:28:52.008Z</time></trkpt><trkpt lat="45.4606808" lon="9.2920316"><ele>119.0</ele><time>2026-04-17T15:28:53.008Z</time></trkpt><trkpt lat="45.4607986" lon="9.2919649"><ele>118.75</ele><time>2026-04-17T15:28:55.008Z</time></trkpt><trkpt lat="45.4609051" lon="9.2918854"><ele>118.5</ele><time>2026-04-17T15:28:57.008Z</time></trkpt><trkpt lat="45.4610122" lon="9.2918051"><ele>118.25</ele><time>2026-04-17T15:28:59.008Z</time></trkpt><trkpt lat="45.4611182" lon="9.2917238"><ele>118.0</ele><time>2026-04-17T15:29:01.008Z</time></trkpt><trkpt lat="45.4612275" lon="9.2916482"><ele>117.5</ele><time>2026-04-17T15:29:03.008Z</time></trkpt><trkpt lat="45.4613451" lon="9.2915758"><ele>117.0</ele><time>2026-04-17T15:29:05.009Z</time></trkpt><trkpt lat="45.4614599" lon="9.2915393"><ele>116.5</ele><time>2026-04-17T15:29:07.008Z</time></trkpt><trkpt lat="45.4615718" lon="9.2915154"><ele>116.0</ele><time>2026-04-17T15:29:09.008Z</time></trkpt><trkpt lat="45.4616836" lon="9.2915065"><ele>116.0</ele><time>2026-04-17T15:29:11.008Z</time></trkpt><trkpt lat="45.4617977" lon="9.2914986"><ele>116.0</ele><time>2026-04-17T15:29:13.008Z</time></trkpt><trkpt lat="45.4619086" lon="9.2915171"><ele>116.0</ele><time>2026-04-17T15:29:15.008Z</time></trkpt><trkpt lat="45.4620117" lon="9.2915639"><ele>116.0</ele><time>2026-04-17T15:29:17.008Z</time></trkpt><trkpt lat="45.4621192" lon="9.2916084"><ele>116.0</ele><time>2026-04-17T15:29:19.008Z</time></trkpt><trkpt lat="45.4622219" lon="9.2916695"><ele>116.19999999999999</ele><time>2026-04-17T15:29:21.008Z</time></trkpt><trkpt lat="45.4623164" lon="9.2917466"><ele>116.39999999999999</ele><time>2026-04-17T15:29:23.008Z</time></trkpt><trkpt lat="45.4624045" lon="9.2918326"><ele>116.6</ele><time>2026-04-17T15:29:25.009Z</time></trkpt><trkpt lat="45.4624931" lon="9.2919078"><ele>116.8</ele><time>2026-04-17T15:29:27.008Z</time></trkpt><trkpt lat="45.4625842" lon="9.2919749"><ele>117.0</ele><time>2026-04-17T15:29:29.008Z</time></trkpt><trkpt lat="45.4626699" lon="9.292044"><ele>117.0</ele><time>2026-04-17T15:29:31.008Z</time></trkpt><trkpt lat="45.4627662" lon="9.2921277"><ele>116.99999999999999</ele><time>2026-04-17T15:29:33.008Z</time></trkpt><trkpt lat="45.4628535" lon="9.2922233"><ele>116.99999999999999</ele><time>2026-04-17T15:29:35.008Z</time></trkpt><trkpt lat="45.4629426" lon="9.2923052"><ele>117.0</ele><time>2026-04-17T15:29:37.008Z</time></trkpt><trkpt lat="45.4630343" lon="9.2923851"><ele>117.0</ele><time>2026-04-17T15:29:39.008Z</time></trkpt><trkpt lat="45.4631267" lon="9.2924576"><ele>116.39999999999999</ele><time>2026-04-17T15:29:41.008Z</time></trkpt><trkpt lat="45.463211" lon="9.2925333"><ele>115.79999999999998</ele><time>2026-04-17T15:29:43.008Z</time></trkpt><trkpt lat="45.4633024" lon="9.2926066"><ele>115.2</ele><time>2026-04-17T15:29:45.008Z</time></trkpt><trkpt lat="45.4634062" lon="9.292674"><ele>114.6</ele><time>2026-04-17T15:29:47.008Z</time></trkpt><trkpt lat="45.4635133" lon="9.2927541"><ele>114.0</ele><time>2026-04-17T15:29:49.009Z</time></trkpt><trkpt lat="45.4636082" lon="9.2928144"><ele>114.0</ele><time>2026-04-17T15:29:51.008Z</time></trkpt><trkpt lat="45.4637147" lon="9.2928265"><ele>114.0</ele><time>2026-04-17T15:29:53.008Z</time></trkpt><trkpt lat="45.4638107" lon="9.292781"><ele>114.0</ele><time>2026-04-17T15:29:55.008Z</time></trkpt><trkpt lat="45.4639003" lon="9.2926926"><ele>114.0</ele><time>2026-04-17T15:29:57.008Z</time></trkpt><trkpt lat="45.4639982" lon="9.29261"><ele>114.0</ele><time>2026-04-17T15:29:59.008Z</time></trkpt><trkpt lat="45.4640915" lon="9.2925442"><ele>114.6</ele><time>2026-04-17T15:30:01.008Z</time></trkpt><trkpt lat="45.4641885" lon="9.2924829"><ele>115.2</ele><time>2026-04-17T15:30:03.008Z</time></trkpt><trkpt lat="45.4642833" lon="9.292414"><ele>115.79999999999998</ele><time>2026-04-17T15:30:05.008Z</time></trkpt><trkpt lat="45.4643868" lon="9.2923437"><ele>116.39999999999999</ele><time>2026-04-17T15:30:07.008Z</time></trkpt><trkpt lat="45.4644943" lon="9.2923011"><ele>117.0</ele><time>2026-04-17T15:30:09.008Z</time></trkpt><trkpt lat="45.4646063" lon="9.2922832"><ele>117.0</ele><time>2026-04-17T15:30:11.008Z</time></trkpt><trkpt lat="45.4647175" lon="9.2922774"><ele>117.0</ele><time>2026-04-17T15:30:13.008Z</time></trkpt><trkpt lat="45.4648346" lon="9.2922754"><ele>117.0</ele><time>2026-04-17T15:30:15.008Z</time></trkpt><trkpt lat="45.464945" lon="9.2922783"><ele>117.0</ele><time>2026-04-17T15:30:17.008Z</time></trkpt><trkpt lat="45.4650609" lon="9.2922948"><ele>117.0</ele><time>2026-04-17T15:30:19.008Z</time></trkpt><trkpt lat="45.4651688" lon="9.2923275"><ele>116.99999999999999</ele><time>2026-04-17T15:30:21.008Z</time></trkpt><trkpt lat="45.465278" lon="9.2923505"><ele>116.99999999999999</ele><time>2026-04-17T15:30:23.008Z</time></trkpt><trkpt lat="45.4653825" lon="9.2923777"><ele>117.0</ele><time>2026-04-17T15:30:25.008Z</time></trkpt><trkpt lat="45.4654897" lon="9.2923975"><ele>117.0</ele><time>2026-04-17T15:30:27.008Z</time></trkpt><trkpt lat="45.4655945" lon="9.2924328"><ele>117.39999999999999</ele><time>2026-04-17T15:30:29.008Z</time></trkpt><trkpt lat="45.4657013" lon="9.2924637"><ele>117.79999999999998</ele><time>2026-04-17T15:30:31.008Z</time></trkpt><trkpt lat="45.4658102" lon="9.2924959"><ele>118.2</ele><time>2026-04-17T15:30:33.008Z</time></trkpt><trkpt lat="45.4659119" lon="9.2925328"><ele>118.6</ele><time>2026-04-17T15:30:35.008Z</time></trkpt><trkpt lat="45.4660249" lon="9.2925798"><ele>119.0</ele><time>2026-04-17T15:30:37.008Z</time></trkpt><trkpt lat="45.4661313" lon="9.2926179"><ele>119.0</ele><time>2026-04-17T15:30:39.008Z</time></trkpt><trkpt lat="45.4662256" lon="9.2926535"><ele>119.0</ele><time>2026-04-17T15:30:41.008Z</time></trkpt><trkpt lat="45.4663306" lon="9.292705"><ele>119.0</ele><time>2026-04-17T15:30:43.008Z</time></trkpt><trkpt lat="45.4664411" lon="9.2927468"><ele>119.0</ele><time>2026-04-17T15:30:45.008Z</time></trkpt><trkpt lat="45.4665492" lon="9.2927837"><ele>119.0</ele><time>2026-04-17T15:30:47.008Z</time></trkpt><trkpt lat="45.4666548" lon="9.2928144"><ele>119.25</ele><time>2026-04-17T15:30:49.009Z</time></trkpt><trkpt lat="45.4667639" lon="9.2928385"><ele>119.5</ele><time>2026-04-17T15:30:51.008Z</time></trkpt><trkpt lat="45.4668756" lon="9.2928828"><ele>119.75</ele><time>2026-04-17T15:30:53.008Z</time></trkpt><trkpt lat="45.4669817" lon="9.2929451"><ele>120.0</ele><time>2026-04-17T15:30:55.008Z</time></trkpt><trkpt lat="45.4670832" lon="9.2930199"><ele>118.75</ele><time>2026-04-17T15:30:57.008Z</time></trkpt><trkpt lat="45.467173" lon="9.2931242"><ele>117.5</ele><time>2026-04-17T15:30:59.008Z</time></trkpt><trkpt lat="45.4672584" lon="9.2932278"><ele>116.25</ele><time>2026-04-17T15:31:01.008Z</time></trkpt><trkpt lat="45.4673394" lon="9.2933313"><ele>115.0</ele><time>2026-04-17T15:31:03.008Z</time></trkpt><trkpt lat="45.4674231" lon="9.2934426"><ele>115.0</ele><time>2026-04-17T15:31:05.008Z</time></trkpt><trkpt lat="45.4675192" lon="9.2935348"><ele>115.0</ele><time>2026-04-17T15:31:07.008Z</time></trkpt><trkpt lat="45.4676103" lon="9.2936267"><ele>115.0</ele><time>2026-04-17T15:31:09.008Z</time></trkpt><trkpt lat="45.467715" lon="9.2936944"><ele>115.0</ele><time>2026-04-17T15:31:11.008Z</time></trkpt><trkpt lat="45.4678195" lon="9.2937531"><ele>115.0</ele><time>2026-04-17T15:31:13.008Z</time></trkpt><trkpt lat="45.4679193" lon="9.293808"><ele>115.0</ele><time>2026-04-17T15:31:15.008Z</time></trkpt><trkpt lat="45.4680267" lon="9.2937954"><ele>115.0</ele><time>2026-04-17T15:31:17.008Z</time></trkpt><trkpt lat="45.4681209" lon="9.2937389"><ele>115.0</ele><time>2026-04-17T15:31:19.008Z</time></trkpt><trkpt lat="45.4681766" lon="9.2936189"><ele>115.0</ele><time>2026-04-17T15:31:21.008Z</time></trkpt><trkpt lat="45.4681789" lon="9.2934763"><ele>114.8</ele><time>2026-04-17T15:31:23.009Z</time></trkpt><trkpt lat="45.4681864" lon="9.2933306"><ele>114.6</ele><time>2026-04-17T15:31:25.008Z</time></trkpt><trkpt lat="45.4682012" lon="9.2931765"><ele>114.4</ele><time>2026-04-17T15:31:27.008Z</time></trkpt><trkpt lat="45.4682131" lon="9.2930189"><ele>114.2</ele><time>2026-04-17T15:31:29.008Z</time></trkpt><trkpt lat="45.4682224" lon="9.2928601"><ele>114.0</ele><time>2026-04-17T15:31:31.008Z</time></trkpt><trkpt lat="45.468239" lon="9.2926994"><ele>113.5</ele><time>2026-04-17T15:31:33.008Z</time></trkpt><trkpt lat="45.4682583" lon="9.2925346"><ele>113.0</ele><time>2026-04-17T15:31:35.009Z</time></trkpt><trkpt lat="45.4682748" lon="9.2923651"><ele>112.5</ele><time>2026-04-17T15:31:37.008Z</time></trkpt><trkpt lat="45.4682883" lon="9.2922002"><ele>112.0</ele><time>2026-04-17T15:31:39.008Z</time></trkpt><trkpt lat="45.4683106" lon="9.2920297"><ele>111.39999999999999</ele><time>2026-04-17T15:31:41.008Z</time></trkpt><trkpt lat="45.4683258" lon="9.2918716"><ele>110.79999999999998</ele><time>2026-04-17T15:31:43.008Z</time></trkpt><trkpt lat="45.4683414" lon="9.2917177"><ele>110.2</ele><time>2026-04-17T15:31:45.008Z</time></trkpt><trkpt lat="45.4683837" lon="9.2916082"><ele>109.6</ele><time>2026-04-17T15:31:47.008Z</time></trkpt><trkpt lat="45.4684721" lon="9.2915817"><ele>109.0</ele><time>2026-04-17T15:31:49.008Z</time></trkpt><trkpt lat="45.4685673" lon="9.2916216"><ele>109.0</ele><time>2026-04-17T15:31:51.008Z</time></trkpt><trkpt lat="45.4686657" lon="9.2916682"><ele>109.0</ele><time>2026-04-17T15:31:53.008Z</time></trkpt><trkpt lat="45.4687661" lon="9.2917211"><ele>109.0</ele><time>2026-04-17T15:31:55.008Z</time></trkpt><trkpt lat="45.4688655" lon="9.2917679"><ele>109.0</ele><time>2026-04-17T15:31:57.008Z</time></trkpt><trkpt lat="45.4689703" lon="9.2918138"><ele>109.0</ele><time>2026-04-17T15:31:59.008Z</time></trkpt><trkpt lat="45.4690787" lon="9.2918588"><ele>108.75</ele><time>2026-04-17T15:32:01.008Z</time></trkpt><trkpt lat="45.4691876" lon="9.2919003"><ele>108.5</ele><time>2026-04-17T15:32:03.008Z</time></trkpt><trkpt lat="45.4693002" lon="9.2919441"><ele>108.25</ele><time>2026-04-17T15:32:05.008Z</time></trkpt><trkpt lat="45.4694109" lon="9.2919936"><ele>108.0</ele><time>2026-04-17T15:32:07.008Z</time></trkpt><trkpt lat="45.4695261" lon="9.2920316"><ele>108.0</ele><time>2026-04-17T15:32:09.008Z</time></trkpt><trkpt lat="45.4696416" lon="9.2920771"><ele>108.00000000000001</ele><time>2026-04-17T15:32:11.008Z</time></trkpt><trkpt lat="45.4697597" lon="9.2920977"><ele>108.00000000000001</ele><time>2026-04-17T15:32:13.008Z</time></trkpt><trkpt lat="45.4698232" lon="9.2921012"><ele>108.0</ele><time>2026-04-17T15:32:14.008Z</time></trkpt><trkpt lat="45.4699473" lon="9.2921428"><ele>108.0</ele><time>2026-04-17T15:32:16.008Z</time></trkpt><trkpt lat="45.4700109" lon="9.2921831"><ele>108.0</ele><time>2026-04-17T15:32:17.008Z</time></trkpt><trkpt lat="45.4700696" lon="9.2922234"><ele>108.00000000000001</ele><time>2026-04-17T15:32:18.008Z</time></trkpt><trkpt lat="45.4701279" lon="9.2922648"><ele>108.00000000000001</ele><time>2026-04-17T15:32:19.008Z</time></trkpt><trkpt lat="45.4702366" lon="9.2923399"><ele>108.0</ele><time>2026-04-17T15:32:21.008Z</time></trkpt><trkpt lat="45.4703434" lon="9.2924193"><ele>108.0</ele><time>2026-04-17T15:32:23.008Z</time></trkpt><trkpt lat="45.4704528" lon="9.2924769"><ele>108.25</ele><time>2026-04-17T15:32:25.008Z</time></trkpt><trkpt lat="45.4705657" lon="9.2925248"><ele>108.5</ele><time>2026-04-17T15:32:27.008Z</time></trkpt><trkpt lat="45.4706815" lon="9.2925692"><ele>108.75</ele><time>2026-04-17T15:32:29.008Z</time></trkpt><trkpt lat="45.4707932" lon="9.292593"><ele>109.0</ele><time>2026-04-17T15:32:31.008Z</time></trkpt><trkpt lat="45.4709086" lon="9.2926261"><ele>109.0</ele><time>2026-04-17T15:32:33.008Z</time></trkpt><trkpt lat="45.4710285" lon="9.2926521"><ele>109.0</ele><time>2026-04-17T15:32:35.009Z</time></trkpt><trkpt lat="45.4710913" lon="9.2926595"><ele>109.0</ele><time>2026-04-17T15:32:36.008Z</time></trkpt><trkpt lat="45.4712143" lon="9.2926552"><ele>109.0</ele><time>2026-04-17T15:32:38.008Z</time></trkpt><trkpt lat="45.4713294" lon="9.2926812"><ele>109.0</ele><time>2026-04-17T15:32:40.008Z</time></trkpt><trkpt lat="45.4714279" lon="9.2927583"><ele>109.0</ele><time>2026-04-17T15:32:42.008Z</time></trkpt><trkpt lat="45.4715369" lon="9.2928199"><ele>109.0</ele><time>2026-04-17T15:32:44.008Z</time></trkpt><trkpt lat="45.471647" lon="9.2928665"><ele>109.0</ele><time>2026-04-17T15:32:46.008Z</time></trkpt><trkpt lat="45.4717476" lon="9.2928953"><ele>109.0</ele><time>2026-04-17T15:32:48.008Z</time></trkpt><trkpt lat="45.4718524" lon="9.2929217"><ele>109.0</ele><time>2026-04-17T15:32:50.008Z</time></trkpt><trkpt lat="45.4719538" lon="9.2929514"><ele>109.00000000000001</ele><time>2026-04-17T15:32:52.008Z</time></trkpt><trkpt lat="45.4720362" lon="9.2930228"><ele>109.0</ele><time>2026-04-17T15:32:54.008Z</time></trkpt><trkpt lat="45.4720781" lon="9.2931415"><ele>109.0</ele><time>2026-04-17T15:32:56.008Z</time></trkpt><trkpt lat="45.4721063" lon="9.2932572"><ele>109.0</ele><time>2026-04-17T15:32:58.008Z</time></trkpt><trkpt lat="45.4721089" lon="9.293378"><ele>109.00000000000001</ele><time>2026-04-17T15:33:00.008Z</time></trkpt><trkpt lat="45.4720793" lon="9.2934823"><ele>109.0</ele><time>2026-04-17T15:33:02.008Z</time></trkpt><trkpt lat="45.4720286" lon="9.2935742"><ele>109.00000000000001</ele><time>2026-04-17T15:33:04.008Z</time></trkpt><trkpt lat="45.4719666" lon="9.2936536"><ele>109.0</ele><time>2026-04-17T15:33:06.008Z</time></trkpt><trkpt lat="45.4719823" lon="9.2937753"><ele>109.0</ele><time>2026-04-17T15:33:08.008Z</time></trkpt><trkpt lat="45.4720584" lon="9.293834"><ele>109.0</ele><time>2026-04-17T15:33:10.008Z</time></trkpt><trkpt lat="45.4721479" lon="9.293861"><ele>109.00000000000001</ele><time>2026-04-17T15:33:12.008Z</time></trkpt><trkpt lat="45.4722388" lon="9.2938777"><ele>109.0</ele><time>2026-04-17T15:33:14.008Z</time></trkpt><trkpt lat="45.47233" lon="9.2938921"><ele>109.2</ele><time>2026-04-17T15:33:16.008Z</time></trkpt><trkpt lat="45.4724189" lon="9.2939121"><ele>109.4</ele><time>2026-04-17T15:33:18.009Z</time></trkpt><trkpt lat="45.4725079" lon="9.2939229"><ele>109.6</ele><time>2026-04-17T15:33:20.008Z</time></trkpt><trkpt lat="45.4725982" lon="9.2939445"><ele>109.8</ele><time>2026-04-17T15:33:22.008Z</time></trkpt><trkpt lat="45.4726919" lon="9.293966"><ele>110.0</ele><time>2026-04-17T15:33:24.009Z</time></trkpt><trkpt lat="45.4727869" lon="9.2939815"><ele>110.2</ele><time>2026-04-17T15:33:26.008Z</time></trkpt><trkpt lat="45.4728823" lon="9.2940148"><ele>110.4</ele><time>2026-04-17T15:33:28.008Z</time></trkpt><trkpt lat="45.4729725" lon="9.2940332"><ele>110.6</ele><time>2026-04-17T15:33:30.008Z</time></trkpt><trkpt lat="45.4730604" lon="9.2940311"><ele>110.8</ele><time>2026-04-17T15:33:32.008Z</time></trkpt><trkpt lat="45.4731564" lon="9.2940536"><ele>111.0</ele><time>2026-04-17T15:33:34.008Z</time></trkpt><trkpt lat="45.4732467" lon="9.2940603"><ele>111.4</ele><time>2026-04-17T15:33:36.009Z</time></trkpt><trkpt lat="45.4733467" lon="9.2940781"><ele>111.8</ele><time>2026-04-17T15:33:38.008Z</time></trkpt><trkpt lat="45.4734383" lon="9.2940826"><ele>112.20000000000002</ele><time>2026-04-17T15:33:40.008Z</time></trkpt><trkpt lat="45.4735295" lon="9.2940874"><ele>112.60000000000001</ele><time>2026-04-17T15:33:42.008Z</time></trkpt><trkpt lat="45.4736336" lon="9.2941082"><ele>113.0</ele><time>2026-04-17T15:33:44.008Z</time></trkpt><trkpt lat="45.4737344" lon="9.2941392"><ele>112.60000000000001</ele><time>2026-04-17T15:33:46.008Z</time></trkpt><trkpt lat="45.4738395" lon="9.2941614"><ele>112.20000000000002</ele><time>2026-04-17T15:33:48.008Z</time></trkpt><trkpt lat="45.4739358" lon="9.2941735"><ele>111.8</ele><time>2026-04-17T15:33:50.008Z</time></trkpt><trkpt lat="45.4740336" lon="9.2941934"><ele>111.4</ele><time>2026-04-17T15:33:52.008Z</time></trkpt><trkpt lat="45.4741354" lon="9.2942317"><ele>111.0</ele><time>2026-04-17T15:33:54.009Z</time></trkpt><trkpt lat="45.4741929" lon="9.2943416"><ele>111.0</ele><time>2026-04-17T15:33:56.008Z</time></trkpt><trkpt lat="45.4742017" lon="9.2944744"><ele>111.0</ele><time>2026-04-17T15:33:58.008Z</time></trkpt><trkpt lat="45.4741988" lon="9.294613"><ele>111.0</ele><time>2026-04-17T15:34:00.008Z</time></trkpt><trkpt lat="45.4741868" lon="9.294747"><ele>111.0</ele><time>2026-04-17T15:34:02.008Z</time></trkpt><trkpt lat="45.4741843" lon="9.2948756"><ele>111.0</ele><time>2026-04-17T15:34:04.008Z</time></trkpt><trkpt lat="45.4741799" lon="9.2949802"><ele>111.0</ele><time>2026-04-17T15:34:06.008Z</time></trkpt><trkpt lat="45.4741829" lon="9.2950856"><ele>111.5</ele><time>2026-04-17T15:34:08.008Z</time></trkpt><trkpt lat="45.4742248" lon="9.2951882"><ele>112.0</ele><time>2026-04-17T15:34:11.008Z</time></trkpt><trkpt lat="45.4742978" lon="9.2951842"><ele>112.5</ele><time>2026-04-17T15:34:13.008Z</time></trkpt><trkpt lat="45.474371" lon="9.2951498"><ele>113.0</ele><time>2026-04-17T15:34:15.008Z</time></trkpt><trkpt lat="45.4744471" lon="9.2951038"><ele>113.5</ele><time>2026-04-17T15:34:17.008Z</time></trkpt><trkpt lat="45.4745378" lon="9.2950955"><ele>114.0</ele><time>2026-04-17T15:34:19.008Z</time></trkpt><trkpt lat="45.4746361" lon="9.2951113"><ele>114.80000000000001</ele><time>2026-04-17T15:34:21.008Z</time></trkpt><trkpt lat="45.4747341" lon="9.2951347"><ele>115.60000000000001</ele><time>2026-04-17T15:34:23.008Z</time></trkpt><trkpt lat="45.4748297" lon="9.2951566"><ele>116.4</ele><time>2026-04-17T15:34:25.008Z</time></trkpt><trkpt lat="45.4749317" lon="9.29517"><ele>117.2</ele><time>2026-04-17T15:34:27.008Z</time></trkpt><trkpt lat="45.4750282" lon="9.2951818"><ele>118.0</ele><time>2026-04-17T15:34:29.008Z</time></trkpt><trkpt lat="45.4751251" lon="9.2951939"><ele>118.0</ele><time>2026-04-17T15:34:31.008Z</time></trkpt><trkpt lat="45.4752274" lon="9.2952138"><ele>118.00000000000001</ele><time>2026-04-17T15:34:33.008Z</time></trkpt><trkpt lat="45.475326" lon="9.295235"><ele>118.00000000000001</ele><time>2026-04-17T15:34:35.008Z</time></trkpt><trkpt lat="45.4754232" lon="9.2952382"><ele>118.0</ele><time>2026-04-17T15:34:37.008Z</time></trkpt><trkpt lat="45.4755156" lon="9.2952629"><ele>118.0</ele><time>2026-04-17T15:34:39.008Z</time></trkpt><trkpt lat="45.4756135" lon="9.2952792"><ele>118.2</ele><time>2026-04-17T15:34:41.008Z</time></trkpt><trkpt lat="45.4756998" lon="9.2952987"><ele>118.4</ele><time>2026-04-17T15:34:43.008Z</time></trkpt><trkpt lat="45.4757939" lon="9.2953287"><ele>118.60000000000001</ele><time>2026-04-17T15:34:45.008Z</time></trkpt><trkpt lat="45.4758909" lon="9.2953482"><ele>118.80000000000001</ele><time>2026-04-17T15:34:47.008Z</time></trkpt><trkpt lat="45.4759882" lon="9.2953532"><ele>119.0</ele><time>2026-04-17T15:34:49.008Z</time></trkpt><trkpt lat="45.4760758" lon="9.295313"><ele>118.99999999999999</ele><time>2026-04-17T15:34:51.008Z</time></trkpt><trkpt lat="45.4761582" lon="9.2952575"><ele>119.0</ele><time>2026-04-17T15:34:53.008Z</time></trkpt><trkpt lat="45.476228" lon="9.2951881"><ele>119.0</ele><time>2026-04-17T15:34:55.008Z</time></trkpt><trkpt lat="45.4762507" lon="9.2952852"><ele>119.0</ele><time>2026-04-17T15:34:59.008Z</time></trkpt><trkpt lat="45.4761963" lon="9.29534"><ele>118.99999999999999</ele><time>2026-04-17T15:35:01.008Z</time></trkpt><trkpt lat="45.4761247" lon="9.2954004"><ele>119.0</ele><time>2026-04-17T15:35:04.008Z</time></trkpt><trkpt lat="45.4760528" lon="9.2954532"><ele>118.99999999999999</ele><time>2026-04-17T15:35:07.008Z</time></trkpt><trkpt lat="45.4759729" lon="9.2954853"><ele>119.0</ele><time>2026-04-17T15:35:10.008Z</time></trkpt><trkpt lat="45.4758955" lon="9.2955286"><ele>119.0</ele><time>2026-04-17T15:35:13.008Z</time></trkpt><trkpt lat="45.475813" lon="9.295562"><ele>119.0</ele><time>2026-04-17T15:35:16.008Z</time></trkpt><trkpt lat="45.4757393" lon="9.2956013"><ele>118.99999999999999</ele><time>2026-04-17T15:35:19.008Z</time></trkpt><trkpt lat="45.4757466" lon="9.2957329"><ele>119.0</ele><time>2026-04-17T15:35:23.008Z</time></trkpt><trkpt lat="45.4757567" lon="9.2958264"><ele>118.4</ele><time>2026-04-17T15:35:25.008Z</time></trkpt><trkpt lat="45.4757932" lon="9.2959133"><ele>117.80000000000001</ele><time>2026-04-17T15:35:28.008Z</time></trkpt><trkpt lat="45.4758661" lon="9.2958696"><ele>117.19999999999999</ele><time>2026-04-17T15:35:30.008Z</time></trkpt><trkpt lat="45.4759498" lon="9.2958125"><ele>116.6</ele><time>2026-04-17T15:35:32.008Z</time></trkpt><trkpt lat="45.476059" lon="9.295754"><ele>116.0</ele><time>2026-04-17T15:35:34.008Z</time></trkpt><trkpt lat="45.4761775" lon="9.2957032"><ele>116.16666666666666</ele><time>2026-04-17T15:35:36.008Z</time></trkpt><trkpt lat="45.4763061" lon="9.2957142"><ele>116.33333333333333</ele><time>2026-04-17T15:35:38.008Z</time></trkpt><trkpt lat="45.4763716" lon="9.295749"><ele>116.5</ele><time>2026-04-17T15:35:39.008Z</time></trkpt><trkpt lat="45.4764293" lon="9.2957938"><ele>116.66666666666666</ele><time>2026-04-17T15:35:40.008Z</time></trkpt><trkpt lat="45.4764762" lon="9.2958625"><ele>116.83333333333333</ele><time>2026-04-17T15:35:41.009Z</time></trkpt><trkpt lat="45.4765229" lon="9.2959419"><ele>117.0</ele><time>2026-04-17T15:35:42.008Z</time></trkpt><trkpt lat="45.47655" lon="9.2960266"><ele>117.0</ele><time>2026-04-17T15:35:43.008Z</time></trkpt><trkpt lat="45.476597" lon="9.2961827"><ele>117.0</ele><time>2026-04-17T15:35:45.008Z</time></trkpt><trkpt lat="45.4766266" lon="9.2963434"><ele>117.0</ele><time>2026-04-17T15:35:47.008Z</time></trkpt><trkpt lat="45.4766474" lon="9.296507"><ele>117.0</ele><time>2026-04-17T15:35:49.008Z</time></trkpt><trkpt lat="45.476664" lon="9.2966794"><ele>117.0</ele><time>2026-04-17T15:35:51.008Z</time></trkpt><trkpt lat="45.4766823" lon="9.2968384"><ele>116.99999999999999</ele><time>2026-04-17T15:35:53.008Z</time></trkpt><trkpt lat="45.4766944" lon="9.2969811"><ele>116.99999999999999</ele><time>2026-04-17T15:35:55.008Z</time></trkpt><trkpt lat="45.4767114" lon="9.2971148"><ele>117.0</ele><time>2026-04-17T15:35:57.008Z</time></trkpt><trkpt lat="45.4767241" lon="9.2972459"><ele>117.0</ele><time>2026-04-17T15:35:59.008Z</time></trkpt><trkpt lat="45.4767414" lon="9.2973752"><ele>116.39999999999999</ele><time>2026-04-17T15:36:01.008Z</time></trkpt><trkpt lat="45.4767581" lon="9.2975019"><ele>115.79999999999998</ele><time>2026-04-17T15:36:03.008Z</time></trkpt><trkpt lat="45.476772" lon="9.2976302"><ele>115.2</ele><time>2026-04-17T15:36:05.008Z</time></trkpt><trkpt lat="45.4767915" lon="9.2977588"><ele>114.6</ele><time>2026-04-17T15:36:07.008Z</time></trkpt><trkpt lat="45.4768137" lon="9.2978953"><ele>114.0</ele><time>2026-04-17T15:36:09.008Z</time></trkpt><trkpt lat="45.47684" lon="9.2980497"><ele>113.80000000000001</ele><time>2026-04-17T15:36:11.008Z</time></trkpt><trkpt lat="45.4768712" lon="9.2982077"><ele>113.60000000000001</ele><time>2026-04-17T15:36:13.008Z</time></trkpt><trkpt lat="45.4768959" lon="9.2983662"><ele>113.4</ele><time>2026-04-17T15:36:15.009Z</time></trkpt><trkpt lat="45.4768871" lon="9.2985246"><ele>113.2</ele><time>2026-04-17T15:36:17.009Z</time></trkpt><trkpt lat="45.4768548" lon="9.2986669"><ele>113.0</ele><time>2026-04-17T15:36:19.008Z</time></trkpt><trkpt lat="45.476845" lon="9.2988068"><ele>113.4</ele><time>2026-04-17T15:36:21.008Z</time></trkpt><trkpt lat="45.4768612" lon="9.2989558"><ele>113.80000000000001</ele><time>2026-04-17T15:36:23.008Z</time></trkpt><trkpt lat="45.4768817" lon="9.2991043"><ele>114.2</ele><time>2026-04-17T15:36:25.008Z</time></trkpt><trkpt lat="45.4768929" lon="9.2992522"><ele>114.6</ele><time>2026-04-17T15:36:27.008Z</time></trkpt><trkpt lat="45.4769071" lon="9.2993919"><ele>115.0</ele><time>2026-04-17T15:36:29.008Z</time></trkpt><trkpt lat="45.4769205" lon="9.2995187"><ele>115.00000000000001</ele><time>2026-04-17T15:36:31.008Z</time></trkpt><trkpt lat="45.4769308" lon="9.2996427"><ele>115.0</ele><time>2026-04-17T15:36:33.008Z</time></trkpt><trkpt lat="45.4769419" lon="9.2997546"><ele>115.0</ele><time>2026-04-17T15:36:35.008Z</time></trkpt><trkpt lat="45.476955" lon="9.2998694"><ele>115.0</ele><time>2026-04-17T15:36:37.008Z</time></trkpt><trkpt lat="45.4769648" lon="9.2999962"><ele>115.00000000000001</ele><time>2026-04-17T15:36:39.008Z</time></trkpt><trkpt lat="45.4769784" lon="9.3001422"><ele>115.0</ele><time>2026-04-17T15:36:41.008Z</time></trkpt><trkpt lat="45.4769995" lon="9.3003201"><ele>114.83333333333334</ele><time>2026-04-17T15:36:43.008Z</time></trkpt><trkpt lat="45.477017" lon="9.3004221"><ele>114.66666666666667</ele><time>2026-04-17T15:36:44.008Z</time></trkpt><trkpt lat="45.4770361" lon="9.3005316"><ele>114.5</ele><time>2026-04-17T15:36:45.008Z</time></trkpt><trkpt lat="45.4770593" lon="9.3006468"><ele>114.33333333333334</ele><time>2026-04-17T15:36:46.008Z</time></trkpt><trkpt lat="45.4770867" lon="9.3007691"><ele>114.16666666666667</ele><time>2026-04-17T15:36:47.008Z</time></trkpt><trkpt lat="45.4771138" lon="9.3008955"><ele>114.0</ele><time>2026-04-17T15:36:48.009Z</time></trkpt><trkpt lat="45.4771448" lon="9.3010199"><ele>114.0</ele><time>2026-04-17T15:36:49.008Z</time></trkpt><trkpt lat="45.477166" lon="9.3011382"><ele>114.0</ele><time>2026-04-17T15:36:50.008Z</time></trkpt><trkpt lat="45.4771798" lon="9.3012508"><ele>114.0</ele><time>2026-04-17T15:36:51.008Z</time></trkpt><trkpt lat="45.4771854" lon="9.3013601"><ele>114.0</ele><time>2026-04-17T15:36:52.008Z</time></trkpt><trkpt lat="45.4771869" lon="9.3014641"><ele>114.0</ele><time>2026-04-17T15:36:53.008Z</time></trkpt><trkpt lat="45.4771881" lon="9.3015666"><ele>114.0</ele><time>2026-04-17T15:36:54.008Z</time></trkpt><trkpt lat="45.4771872" lon="9.301662"><ele>113.85714285714285</ele><time>2026-04-17T15:36:55.008Z</time></trkpt><trkpt lat="45.4771875" lon="9.3017568"><ele>113.7142857142857</ele><time>2026-04-17T15:36:56.008Z</time></trkpt><trkpt lat="45.4771861" lon="9.3018515"><ele>113.57142857142857</ele><time>2026-04-17T15:36:57.008Z</time></trkpt><trkpt lat="45.4771881" lon="9.3019448"><ele>113.42857142857142</ele><time>2026-04-17T15:36:58.009Z</time></trkpt><trkpt lat="45.4771901" lon="9.3020403"><ele>113.28571428571428</ele><time>2026-04-17T15:36:59.008Z</time></trkpt><trkpt lat="45.4771881" lon="9.302135"><ele>113.14285714285714</ele><time>2026-04-17T15:37:00.008Z</time></trkpt><trkpt lat="45.4771879" lon="9.3022296"><ele>113.0</ele><time>2026-04-17T15:37:01.008Z</time></trkpt><trkpt lat="45.4771882" lon="9.3023266"><ele>112.85714285714286</ele><time>2026-04-17T15:37:02.008Z</time></trkpt><trkpt lat="45.47719" lon="9.3024284"><ele>112.71428571428571</ele><time>2026-04-17T15:37:03.008Z</time></trkpt><trkpt lat="45.4771898" lon="9.3025274"><ele>112.57142857142857</ele><time>2026-04-17T15:37:04.008Z</time></trkpt><trkpt lat="45.4771924" lon="9.3026295"><ele>112.42857142857143</ele><time>2026-04-17T15:37:05.008Z</time></trkpt><trkpt lat="45.4771965" lon="9.3027322"><ele>112.28571428571428</ele><time>2026-04-17T15:37:06.008Z</time></trkpt><trkpt lat="45.4772035" lon="9.302833"><ele>112.14285714285714</ele><time>2026-04-17T15:37:07.008Z</time></trkpt><trkpt lat="45.47721" lon="9.3029322"><ele>112.0</ele><time>2026-04-17T15:37:08.008Z</time></trkpt><trkpt lat="45.4772159" lon="9.3030324"><ele>112.00000000000001</ele><time>2026-04-17T15:37:09.008Z</time></trkpt><trkpt lat="45.4772195" lon="9.3031298"><ele>112.0</ele><time>2026-04-17T15:37:10.008Z</time></trkpt><trkpt lat="45.4772242" lon="9.3032253"><ele>112.0</ele><time>2026-04-17T15:37:11.008Z</time></trkpt><trkpt lat="45.4772279" lon="9.303321"><ele>112.0</ele><time>2026-04-17T15:37:12.008Z</time></trkpt><trkpt lat="45.4772281" lon="9.3034135"><ele>112.00000000000001</ele><time>2026-04-17T15:37:13.008Z</time></trkpt><trkpt lat="45.4771817" lon="9.3035369"><ele>112.0</ele><time>2026-04-17T15:37:15.008Z</time></trkpt><trkpt lat="45.4770756" lon="9.3035671"><ele>112.0</ele><time>2026-04-17T15:37:17.008Z</time></trkpt><trkpt lat="45.4769959" lon="9.3036694"><ele>111.99999999999999</ele><time>2026-04-17T15:37:19.008Z</time></trkpt><trkpt lat="45.4769156" lon="9.3037775"><ele>111.99999999999999</ele><time>2026-04-17T15:37:21.008Z</time></trkpt><trkpt lat="45.4768057" lon="9.3037935"><ele>112.0</ele><time>2026-04-17T15:37:23.009Z</time></trkpt><trkpt lat="45.4766919" lon="9.3038026"><ele>112.0</ele><time>2026-04-17T15:37:25.008Z</time></trkpt><trkpt lat="45.4765768" lon="9.3038002"><ele>112.0</ele><time>2026-04-17T15:37:27.008Z</time></trkpt><trkpt lat="45.4764625" lon="9.3038014"><ele>112.0</ele><time>2026-04-17T15:37:29.008Z</time></trkpt><trkpt lat="45.4763449" lon="9.3038065"><ele>112.0</ele><time>2026-04-17T15:37:31.008Z</time></trkpt><trkpt lat="45.4762267" lon="9.3038126"><ele>112.0</ele><time>2026-04-17T15:37:33.008Z</time></trkpt><trkpt lat="45.4761057" lon="9.3038143"><ele>111.8</ele><time>2026-04-17T15:37:35.008Z</time></trkpt><trkpt lat="45.4759827" lon="9.3038223"><ele>111.6</ele><time>2026-04-17T15:37:37.008Z</time></trkpt><trkpt lat="45.4758619" lon="9.3038222"><ele>111.39999999999999</ele><time>2026-04-17T15:37:39.008Z</time></trkpt><trkpt lat="45.4757389" lon="9.3038295"><ele>111.19999999999999</ele><time>2026-04-17T15:37:41.008Z</time></trkpt><trkpt lat="45.4756752" lon="9.3038335"><ele>111.0</ele><time>2026-04-17T15:37:42.008Z</time></trkpt><trkpt lat="45.4755496" lon="9.3038383"><ele>111.0</ele><time>2026-04-17T15:37:44.008Z</time></trkpt><trkpt lat="45.4754862" lon="9.3038416"><ele>111.0</ele><time>2026-04-17T15:37:45.008Z</time></trkpt><trkpt lat="45.475363" lon="9.3038293"><ele>111.0</ele><time>2026-04-17T15:37:47.008Z</time></trkpt><trkpt lat="45.4752418" lon="9.3037926"><ele>111.0</ele><time>2026-04-17T15:37:49.008Z</time></trkpt><trkpt lat="45.4751249" lon="9.3038041"><ele>111.0</ele><time>2026-04-17T15:37:51.008Z</time></trkpt><trkpt lat="45.4750141" lon="9.3037862"><ele>111.33333333333333</ele><time>2026-04-17T15:37:53.008Z</time></trkpt><trkpt lat="45.4749135" lon="9.3037584"><ele>111.66666666666666</ele><time>2026-04-17T15:37:55.008Z</time></trkpt><trkpt lat="45.4748326" lon="9.3037582"><ele>112.0</ele><time>2026-04-17T15:37:57.008Z</time></trkpt><trkpt lat="45.4748118" lon="9.3038553"><ele>112.33333333333333</ele><time>2026-04-17T15:38:01.008Z</time></trkpt><trkpt lat="45.4748105" lon="9.3039698"><ele>112.66666666666666</ele><time>2026-04-17T15:38:04.008Z</time></trkpt><trkpt lat="45.4748105" lon="9.3040626"><ele>113.0</ele><time>2026-04-17T15:38:06.008Z</time></trkpt><trkpt lat="45.4748637" lon="9.3041468"><ele>113.4</ele><time>2026-04-17T15:38:08.008Z</time></trkpt><trkpt lat="45.4749484" lon="9.3041591"><ele>113.80000000000001</ele><time>2026-04-17T15:38:10.008Z</time></trkpt><trkpt lat="45.4750467" lon="9.3041554"><ele>114.2</ele><time>2026-04-17T15:38:12.008Z</time></trkpt><trkpt lat="45.4751553" lon="9.3041501"><ele>114.6</ele><time>2026-04-17T15:38:14.008Z</time></trkpt><trkpt lat="45.4752591" lon="9.3041571"><ele>115.0</ele><time>2026-04-17T15:38:16.008Z</time></trkpt><trkpt lat="45.4753705" lon="9.3041753"><ele>114.4</ele><time>2026-04-17T15:38:18.008Z</time></trkpt><trkpt lat="45.4754842" lon="9.3041754"><ele>113.8</ele><time>2026-04-17T15:38:20.008Z</time></trkpt><trkpt lat="45.4755937" lon="9.3041651"><ele>113.19999999999999</ele><time>2026-04-17T15:38:22.008Z</time></trkpt><trkpt lat="45.4757029" lon="9.304166"><ele>112.6</ele><time>2026-04-17T15:38:24.008Z</time></trkpt><trkpt lat="45.4758107" lon="9.3041736"><ele>112.0</ele><time>2026-04-17T15:38:26.008Z</time></trkpt><trkpt lat="45.4759158" lon="9.3041713"><ele>112.0</ele><time>2026-04-17T15:38:28.008Z</time></trkpt><trkpt lat="45.4760295" lon="9.3041579"><ele>112.0</ele><time>2026-04-17T15:38:30.008Z</time></trkpt><trkpt lat="45.4761381" lon="9.3041519"><ele>112.0</ele><time>2026-04-17T15:38:32.008Z</time></trkpt><trkpt lat="45.4762565" lon="9.304154"><ele>112.0</ele><time>2026-04-17T15:38:34.008Z</time></trkpt><trkpt lat="45.4763763" lon="9.3041582"><ele>112.25</ele><time>2026-04-17T15:38:36.008Z</time></trkpt><trkpt lat="45.4764944" lon="9.3041615"><ele>112.5</ele><time>2026-04-17T15:38:38.008Z</time></trkpt><trkpt lat="45.4766081" lon="9.3041561"><ele>112.75</ele><time>2026-04-17T15:38:40.008Z</time></trkpt><trkpt lat="45.4767244" lon="9.3041406"><ele>113.0</ele><time>2026-04-17T15:38:42.008Z</time></trkpt><trkpt lat="45.4768417" lon="9.3041476"><ele>113.0</ele><time>2026-04-17T15:38:44.008Z</time></trkpt><trkpt lat="45.4769583" lon="9.3041563"><ele>113.0</ele><time>2026-04-17T15:38:46.008Z</time></trkpt><trkpt lat="45.4770713" lon="9.3041915"><ele>113.0</ele><time>2026-04-17T15:38:48.008Z</time></trkpt><trkpt lat="45.4771707" lon="9.3042701"><ele>113.0</ele><time>2026-04-17T15:38:50.008Z</time></trkpt><trkpt lat="45.4772542" lon="9.3043776"><ele>113.2</ele><time>2026-04-17T15:38:52.008Z</time></trkpt><trkpt lat="45.4773326" lon="9.3044919"><ele>113.4</ele><time>2026-04-17T15:38:54.008Z</time></trkpt><trkpt lat="45.4773618" lon="9.3046435"><ele>113.60000000000001</ele><time>2026-04-17T15:38:56.008Z</time></trkpt><trkpt lat="45.4773788" lon="9.3047975"><ele>113.80000000000001</ele><time>2026-04-17T15:38:58.009Z</time></trkpt><trkpt lat="45.477395" lon="9.3049492"><ele>114.0</ele><time>2026-04-17T15:39:00.008Z</time></trkpt><trkpt lat="45.477408" lon="9.3050977"><ele>114.0</ele><time>2026-04-17T15:39:02.008Z</time></trkpt><trkpt lat="45.4774195" lon="9.3052483"><ele>114.0</ele><time>2026-04-17T15:39:04.008Z</time></trkpt><trkpt lat="45.4774238" lon="9.3053961"><ele>114.0</ele><time>2026-04-17T15:39:06.009Z</time></trkpt><trkpt lat="45.477432" lon="9.3055442"><ele>114.0</ele><time>2026-04-17T15:39:08.008Z</time></trkpt><trkpt lat="45.4774459" lon="9.305687"><ele>114.0</ele><time>2026-04-17T15:39:10.008Z</time></trkpt><trkpt lat="45.4774605" lon="9.3058334"><ele>114.2</ele><time>2026-04-17T15:39:12.008Z</time></trkpt><trkpt lat="45.4774777" lon="9.3059764"><ele>114.4</ele><time>2026-04-17T15:39:14.008Z</time></trkpt><trkpt lat="45.4774976" lon="9.3061229"><ele>114.6</ele><time>2026-04-17T15:39:16.008Z</time></trkpt><trkpt lat="45.4775175" lon="9.3062821"><ele>114.8</ele><time>2026-04-17T15:39:18.008Z</time></trkpt><trkpt lat="45.4775448" lon="9.3064481"><ele>115.0</ele><time>2026-04-17T15:39:20.008Z</time></trkpt><trkpt lat="45.4775673" lon="9.3066142"><ele>115.2</ele><time>2026-04-17T15:39:22.008Z</time></trkpt><trkpt lat="45.4775938" lon="9.3067759"><ele>115.4</ele><time>2026-04-17T15:39:24.008Z</time></trkpt><trkpt lat="45.4776283" lon="9.306925"><ele>115.6</ele><time>2026-04-17T15:39:26.008Z</time></trkpt><trkpt lat="45.4776603" lon="9.3070695"><ele>115.8</ele><time>2026-04-17T15:39:28.008Z</time></trkpt><trkpt lat="45.4776892" lon="9.3072071"><ele>116.0</ele><time>2026-04-17T15:39:30.008Z</time></trkpt><trkpt lat="45.4777142" lon="9.3073544"><ele>116.0</ele><time>2026-04-17T15:39:32.008Z</time></trkpt><trkpt lat="45.4777339" lon="9.3075023"><ele>116.0</ele><time>2026-04-17T15:39:34.008Z</time></trkpt><trkpt lat="45.4777532" lon="9.3076512"><ele>116.0</ele><time>2026-04-17T15:39:36.008Z</time></trkpt><trkpt lat="45.4777625" lon="9.3078095"><ele>116.0</ele><time>2026-04-17T15:39:38.008Z</time></trkpt><trkpt lat="45.4777718" lon="9.3079595"><ele>116.0</ele><time>2026-04-17T15:39:40.008Z</time></trkpt><trkpt lat="45.4777831" lon="9.3081117"><ele>116.4</ele><time>2026-04-17T15:39:42.008Z</time></trkpt><trkpt lat="45.4777865" lon="9.3082642"><ele>116.8</ele><time>2026-04-17T15:39:44.008Z</time></trkpt><trkpt lat="45.4778088" lon="9.3084114"><ele>117.20000000000002</ele><time>2026-04-17T15:39:46.008Z</time></trkpt><trkpt lat="45.4778239" lon="9.3085624"><ele>117.60000000000001</ele><time>2026-04-17T15:39:48.008Z</time></trkpt><trkpt lat="45.4778367" lon="9.308717"><ele>118.0</ele><time>2026-04-17T15:39:50.008Z</time></trkpt><trkpt lat="45.477848" lon="9.3088691"><ele>118.60000000000001</ele><time>2026-04-17T15:39:52.008Z</time></trkpt><trkpt lat="45.4778614" lon="9.3090239"><ele>119.20000000000002</ele><time>2026-04-17T15:39:54.008Z</time></trkpt><trkpt lat="45.477875" lon="9.309172"><ele>119.8</ele><time>2026-04-17T15:39:56.008Z</time></trkpt><trkpt lat="45.4778779" lon="9.3093161"><ele>120.4</ele><time>2026-04-17T15:39:58.008Z</time></trkpt><trkpt lat="45.4778842" lon="9.309458"><ele>121.0</ele><time>2026-04-17T15:40:00.008Z</time></trkpt><trkpt lat="45.4778873" lon="9.3095975"><ele>121.0</ele><time>2026-04-17T15:40:02.008Z</time></trkpt><trkpt lat="45.477897" lon="9.3097382"><ele>121.0</ele><time>2026-04-17T15:40:04.008Z</time></trkpt><trkpt lat="45.4779022" lon="9.3098782"><ele>121.0</ele><time>2026-04-17T15:40:06.008Z</time></trkpt><trkpt lat="45.4779091" lon="9.3100192"><ele>121.0</ele><time>2026-04-17T15:40:08.008Z</time></trkpt><trkpt lat="45.4779123" lon="9.3101638"><ele>121.0</ele><time>2026-04-17T15:40:10.008Z</time></trkpt><trkpt lat="45.4779184" lon="9.3103044"><ele>119.19999999999999</ele><time>2026-04-17T15:40:12.008Z</time></trkpt><trkpt lat="45.4779206" lon="9.3104452"><ele>117.39999999999999</ele><time>2026-04-17T15:40:14.008Z</time></trkpt><trkpt lat="45.477924" lon="9.3105896"><ele>115.6</ele><time>2026-04-17T15:40:16.009Z</time></trkpt><trkpt lat="45.4779159" lon="9.3107349"><ele>113.8</ele><time>2026-04-17T15:40:18.008Z</time></trkpt><trkpt lat="45.4778843" lon="9.3108688"><ele>112.0</ele><time>2026-04-17T15:40:20.008Z</time></trkpt><trkpt lat="45.4778234" lon="9.3109763"><ele>112.00000000000001</ele><time>2026-04-17T15:40:22.008Z</time></trkpt><trkpt lat="45.4777895" lon="9.3110563"><ele>112.0</ele><time>2026-04-17T15:40:24.008Z</time></trkpt><trkpt lat="45.4777529" lon="9.3111325"><ele>112.0</ele><time>2026-04-17T15:40:27.008Z</time></trkpt><trkpt lat="45.4777048" lon="9.3112621"><ele>112.0</ele><time>2026-04-17T15:40:30.008Z</time></trkpt><trkpt lat="45.4776964" lon="9.3113846"><ele>112.00000000000001</ele><time>2026-04-17T15:40:32.008Z</time></trkpt><trkpt lat="45.4777067" lon="9.311513"><ele>112.0</ele><time>2026-04-17T15:40:34.008Z</time></trkpt><trkpt lat="45.4777118" lon="9.3116342"><ele>112.33333333333334</ele><time>2026-04-17T15:40:36.008Z</time></trkpt><trkpt lat="45.4777163" lon="9.3117509"><ele>112.66666666666667</ele><time>2026-04-17T15:40:38.008Z</time></trkpt><trkpt lat="45.4777503" lon="9.3118627"><ele>113.0</ele><time>2026-04-17T15:40:40.008Z</time></trkpt><trkpt lat="45.4777479" lon="9.311984"><ele>113.33333333333334</ele><time>2026-04-17T15:40:42.008Z</time></trkpt><trkpt lat="45.4776839" lon="9.3120664"><ele>113.66666666666667</ele><time>2026-04-17T15:40:44.008Z</time></trkpt><trkpt lat="45.4775917" lon="9.3121248"><ele>114.0</ele><time>2026-04-17T15:40:46.008Z</time></trkpt><trkpt lat="45.4775014" lon="9.3121893"><ele>113.6</ele><time>2026-04-17T15:40:48.008Z</time></trkpt><trkpt lat="45.4774187" lon="9.3122571"><ele>113.2</ele><time>2026-04-17T15:40:50.008Z</time></trkpt><trkpt lat="45.4773369" lon="9.3123392"><ele>112.79999999999998</ele><time>2026-04-17T15:40:52.008Z</time></trkpt><trkpt lat="45.4772529" lon="9.3124184"><ele>112.39999999999999</ele><time>2026-04-17T15:40:54.008Z</time></trkpt><trkpt lat="45.4771842" lon="9.3125245"><ele>112.0</ele><time>2026-04-17T15:40:56.008Z</time></trkpt><trkpt lat="45.4771055" lon="9.312609"><ele>112.6</ele><time>2026-04-17T15:40:58.008Z</time></trkpt><trkpt lat="45.4770296" lon="9.3126991"><ele>113.19999999999999</ele><time>2026-04-17T15:41:00.008Z</time></trkpt><trkpt lat="45.4769525" lon="9.3127913"><ele>113.8</ele><time>2026-04-17T15:41:02.008Z</time></trkpt><trkpt lat="45.4768718" lon="9.3128928"><ele>114.4</ele><time>2026-04-17T15:41:04.008Z</time></trkpt><trkpt lat="45.4767851" lon="9.3129798"><ele>115.0</ele><time>2026-04-17T15:41:06.008Z</time></trkpt><trkpt lat="45.4766845" lon="9.3130292"><ele>115.0</ele><time>2026-04-17T15:41:08.008Z</time></trkpt><trkpt lat="45.4765809" lon="9.3130371"><ele>115.0</ele><time>2026-04-17T15:41:10.008Z</time></trkpt><trkpt lat="45.4764812" lon="9.3130386"><ele>115.0</ele><time>2026-04-17T15:41:12.008Z</time></trkpt><trkpt lat="45.4763845" lon="9.313064"><ele>115.0</ele><time>2026-04-17T15:41:14.008Z</time></trkpt><trkpt lat="45.4762899" lon="9.3131158"><ele>115.0</ele><time>2026-04-17T15:41:16.008Z</time></trkpt><trkpt lat="45.4761996" lon="9.3131958"><ele>115.0</ele><time>2026-04-17T15:41:18.008Z</time></trkpt><trkpt lat="45.4761118" lon="9.3132852"><ele>115.0</ele><time>2026-04-17T15:41:20.008Z</time></trkpt><trkpt lat="45.4760238" lon="9.3133671"><ele>115.0</ele><time>2026-04-17T15:41:22.008Z</time></trkpt><trkpt lat="45.4759327" lon="9.3134427"><ele>115.0</ele><time>2026-04-17T15:41:24.008Z</time></trkpt><trkpt lat="45.4758397" lon="9.3135167"><ele>115.0</ele><time>2026-04-17T15:41:26.009Z</time></trkpt><trkpt lat="45.475746" lon="9.3135887"><ele>115.0</ele><time>2026-04-17T15:41:28.008Z</time></trkpt><trkpt lat="45.4756541" lon="9.3136644"><ele>115.0</ele><time>2026-04-17T15:41:30.008Z</time></trkpt><trkpt lat="45.4755654" lon="9.313739"><ele>115.0</ele><time>2026-04-17T15:41:32.008Z</time></trkpt><trkpt lat="45.4754756" lon="9.3138056"><ele>115.0</ele><time>2026-04-17T15:41:34.008Z</time></trkpt><trkpt lat="45.4753817" lon="9.3138891"><ele>115.0</ele><time>2026-04-17T15:41:36.008Z</time></trkpt><trkpt lat="45.4752981" lon="9.3139543"><ele>114.2</ele><time>2026-04-17T15:41:38.008Z</time></trkpt><trkpt lat="45.475207" lon="9.314015"><ele>113.4</ele><time>2026-04-17T15:41:40.008Z</time></trkpt><trkpt lat="45.4751197" lon="9.3140859"><ele>112.6</ele><time>2026-04-17T15:41:42.008Z</time></trkpt><trkpt lat="45.4750282" lon="9.314158"><ele>111.8</ele><time>2026-04-17T15:41:44.008Z</time></trkpt><trkpt lat="45.4749403" lon="9.3142296"><ele>111.0</ele><time>2026-04-17T15:41:46.008Z</time></trkpt><trkpt lat="45.4748535" lon="9.3142925"><ele>111.0</ele><time>2026-04-17T15:41:48.008Z</time></trkpt><trkpt lat="45.4747699" lon="9.3143521"><ele>111.0</ele><time>2026-04-17T15:41:50.008Z</time></trkpt><trkpt lat="45.4746929" lon="9.3144149"><ele>111.0</ele><time>2026-04-17T15:41:52.008Z</time></trkpt><trkpt lat="45.474623" lon="9.3144825"><ele>111.0</ele><time>2026-04-17T15:41:54.008Z</time></trkpt><trkpt lat="45.4745541" lon="9.3145432"><ele>111.0</ele><time>2026-04-17T15:41:56.008Z</time></trkpt><trkpt lat="45.4744874" lon="9.3146067"><ele>111.0</ele><time>2026-04-17T15:41:58.008Z</time></trkpt><trkpt lat="45.4744209" lon="9.3146844"><ele>110.6</ele><time>2026-04-17T15:42:00.008Z</time></trkpt><trkpt lat="45.4743475" lon="9.3147665"><ele>110.19999999999999</ele><time>2026-04-17T15:42:02.008Z</time></trkpt><trkpt lat="45.4742698" lon="9.3148508"><ele>109.80000000000001</ele><time>2026-04-17T15:42:04.008Z</time></trkpt><trkpt lat="45.474191" lon="9.3149359"><ele>109.4</ele><time>2026-04-17T15:42:06.008Z</time></trkpt><trkpt lat="45.4741083" lon="9.3150259"><ele>109.0</ele><time>2026-04-17T15:42:08.008Z</time></trkpt><trkpt lat="45.4740276" lon="9.3151087"><ele>109.0</ele><time>2026-04-17T15:42:10.008Z</time></trkpt><trkpt lat="45.4739487" lon="9.3151946"><ele>109.0</ele><time>2026-04-17T15:42:12.008Z</time></trkpt><trkpt lat="45.4738665" lon="9.3152785"><ele>109.0</ele><time>2026-04-17T15:42:14.008Z</time></trkpt><trkpt lat="45.4737823" lon="9.3153627"><ele>109.0</ele><time>2026-04-17T15:42:16.008Z</time></trkpt><trkpt lat="45.4737013" lon="9.3154507"><ele>109.0</ele><time>2026-04-17T15:42:18.008Z</time></trkpt><trkpt lat="45.4736113" lon="9.3155187"><ele>109.6</ele><time>2026-04-17T15:42:20.008Z</time></trkpt><trkpt lat="45.4735219" lon="9.3155864"><ele>110.2</ele><time>2026-04-17T15:42:22.008Z</time></trkpt><trkpt lat="45.4734346" lon="9.3156623"><ele>110.79999999999998</ele><time>2026-04-17T15:42:24.008Z</time></trkpt><trkpt lat="45.4733486" lon="9.3157409"><ele>111.39999999999999</ele><time>2026-04-17T15:42:26.008Z</time></trkpt><trkpt lat="45.4732601" lon="9.3158144"><ele>112.0</ele><time>2026-04-17T15:42:28.008Z</time></trkpt><trkpt lat="45.4731725" lon="9.3158853"><ele>112.0</ele><time>2026-04-17T15:42:30.008Z</time></trkpt><trkpt lat="45.4730859" lon="9.3159514"><ele>111.99999999999999</ele><time>2026-04-17T15:42:32.008Z</time></trkpt><trkpt lat="45.4729952" lon="9.3160144"><ele>111.99999999999999</ele><time>2026-04-17T15:42:34.008Z</time></trkpt><trkpt lat="45.4728921" lon="9.3160349"><ele>112.0</ele><time>2026-04-17T15:42:36.008Z</time></trkpt><trkpt lat="45.4727922" lon="9.3160012"><ele>112.0</ele><time>2026-04-17T15:42:38.008Z</time></trkpt><trkpt lat="45.4727062" lon="9.3159284"><ele>111.8</ele><time>2026-04-17T15:42:40.008Z</time></trkpt><trkpt lat="45.4726452" lon="9.3158151"><ele>111.6</ele><time>2026-04-17T15:42:42.008Z</time></trkpt><trkpt lat="45.4726182" lon="9.3156839"><ele>111.39999999999999</ele><time>2026-04-17T15:42:44.008Z</time></trkpt><trkpt lat="45.4725898" lon="9.3155593"><ele>111.19999999999999</ele><time>2026-04-17T15:42:46.008Z</time></trkpt><trkpt lat="45.4725685" lon="9.3154329"><ele>111.0</ele><time>2026-04-17T15:42:48.008Z</time></trkpt><trkpt lat="45.4725472" lon="9.3153294"><ele>111.0</ele><time>2026-04-17T15:42:50.008Z</time></trkpt><trkpt lat="45.4725073" lon="9.3152516"><ele>111.0</ele><time>2026-04-17T15:43:17.008Z</time></trkpt><trkpt lat="45.4724886" lon="9.3151334"><ele>111.0</ele><time>2026-04-17T15:43:21.008Z</time></trkpt><trkpt lat="45.4724706" lon="9.3150038"><ele>111.0</ele><time>2026-04-17T15:43:24.008Z</time></trkpt><trkpt lat="45.4724589" lon="9.3149012"><ele>111.0</ele><time>2026-04-17T15:43:26.008Z</time></trkpt><trkpt lat="45.4724346" lon="9.3147943"><ele>111.0</ele><time>2026-04-17T15:43:28.008Z</time></trkpt><trkpt lat="45.4723907" lon="9.3146941"><ele>110.83333333333333</ele><time>2026-04-17T15:43:30.008Z</time></trkpt><trkpt lat="45.4723396" lon="9.3146061"><ele>110.66666666666666</ele><time>2026-04-17T15:43:32.008Z</time></trkpt><trkpt lat="45.4722739" lon="9.3145411"><ele>110.5</ele><time>2026-04-17T15:43:34.008Z</time></trkpt><trkpt lat="45.4722001" lon="9.3144895"><ele>110.33333333333333</ele><time>2026-04-17T15:43:36.008Z</time></trkpt><trkpt lat="45.4721151" lon="9.3144793"><ele>110.16666666666666</ele><time>2026-04-17T15:43:38.008Z</time></trkpt><trkpt lat="45.4720225" lon="9.3144763"><ele>110.0</ele><time>2026-04-17T15:43:40.008Z</time></trkpt><trkpt lat="45.4719272" lon="9.3144714"><ele>110.0</ele><time>2026-04-17T15:43:42.008Z</time></trkpt><trkpt lat="45.4718303" lon="9.3144538"><ele>110.0</ele><time>2026-04-17T15:43:44.008Z</time></trkpt><trkpt lat="45.4717326" lon="9.3144253"><ele>110.0</ele><time>2026-04-17T15:43:46.008Z</time></trkpt><trkpt lat="45.4716344" lon="9.314402"><ele>110.0</ele><time>2026-04-17T15:43:48.008Z</time></trkpt><trkpt lat="45.4715389" lon="9.3143642"><ele>110.0</ele><time>2026-04-17T15:43:50.008Z</time></trkpt><trkpt lat="45.4714392" lon="9.3143226"><ele>110.0</ele><time>2026-04-17T15:43:52.008Z</time></trkpt><trkpt lat="45.4713425" lon="9.3142842"><ele>110.0</ele><time>2026-04-17T15:43:54.008Z</time></trkpt><trkpt lat="45.4712463" lon="9.314238"><ele>110.0</ele><time>2026-04-17T15:43:56.008Z</time></trkpt><trkpt lat="45.4711484" lon="9.3141889"><ele>110.0</ele><time>2026-04-17T15:43:58.008Z</time></trkpt><trkpt lat="45.4710575" lon="9.3141395"><ele>110.0</ele><time>2026-04-17T15:44:00.008Z</time></trkpt><trkpt lat="45.4709597" lon="9.3141103"><ele>110.2</ele><time>2026-04-17T15:44:02.008Z</time></trkpt><trkpt lat="45.470862" lon="9.3140928"><ele>110.4</ele><time>2026-04-17T15:44:04.008Z</time></trkpt><trkpt lat="45.4707638" lon="9.3140833"><ele>110.6</ele><time>2026-04-17T15:44:06.008Z</time></trkpt><trkpt lat="45.4706691" lon="9.314084"><ele>110.8</ele><time>2026-04-17T15:44:08.008Z</time></trkpt><trkpt lat="45.4705842" lon="9.3141356"><ele>111.0</ele><time>2026-04-17T15:44:10.008Z</time></trkpt><trkpt lat="45.4705076" lon="9.3142212"><ele>111.0</ele><time>2026-04-17T15:44:12.008Z</time></trkpt><trkpt lat="45.470454" lon="9.3143425"><ele>111.0</ele><time>2026-04-17T15:44:14.008Z</time></trkpt><trkpt lat="45.4704326" lon="9.3144817"><ele>111.0</ele><time>2026-04-17T15:44:16.008Z</time></trkpt><trkpt lat="45.470433" lon="9.3146206"><ele>111.0</ele><time>2026-04-17T15:44:18.009Z</time></trkpt><trkpt lat="45.4704289" lon="9.3147647"><ele>111.0</ele><time>2026-04-17T15:44:20.008Z</time></trkpt><trkpt lat="45.4704224" lon="9.3149121"><ele>111.0</ele><time>2026-04-17T15:44:22.009Z</time></trkpt><trkpt lat="45.4704173" lon="9.3150513"><ele>111.0</ele><time>2026-04-17T15:44:24.008Z</time></trkpt><trkpt lat="45.4704101" lon="9.3151942"><ele>111.0</ele><time>2026-04-17T15:44:26.008Z</time></trkpt><trkpt lat="45.4703998" lon="9.3153376"><ele>111.0</ele><time>2026-04-17T15:44:28.008Z</time></trkpt><trkpt lat="45.4703501" lon="9.3154633"><ele>111.0</ele><time>2026-04-17T15:44:30.008Z</time></trkpt><trkpt lat="45.4702596" lon="9.3155173"><ele>111.0</ele><time>2026-04-17T15:44:32.008Z</time></trkpt><trkpt lat="45.4701597" lon="9.3155395"><ele>111.0</ele><time>2026-04-17T15:44:34.008Z</time></trkpt><trkpt lat="45.4700572" lon="9.3155528"><ele>111.0</ele><time>2026-04-17T15:44:36.008Z</time></trkpt><trkpt lat="45.4699514" lon="9.3155616"><ele>111.0</ele><time>2026-04-17T15:44:38.008Z</time></trkpt><trkpt lat="45.4698492" lon="9.3155799"><ele>111.0</ele><time>2026-04-17T15:44:40.008Z</time></trkpt><trkpt lat="45.469745" lon="9.3155933"><ele>111.0</ele><time>2026-04-17T15:44:42.008Z</time></trkpt><trkpt lat="45.4696421" lon="9.3156068"><ele>111.0</ele><time>2026-04-17T15:44:44.008Z</time></trkpt><trkpt lat="45.4695385" lon="9.3156128"><ele>111.0</ele><time>2026-04-17T15:44:46.008Z</time></trkpt><trkpt lat="45.4694338" lon="9.3156097"><ele>111.0</ele><time>2026-04-17T15:44:48.008Z</time></trkpt><trkpt lat="45.4693442" lon="9.315654"><ele>111.0</ele><time>2026-04-17T15:44:50.008Z</time></trkpt><trkpt lat="45.4693082" lon="9.3157718"><ele>111.0</ele><time>2026-04-17T15:44:52.008Z</time></trkpt><trkpt lat="45.4692988" lon="9.3159058"><ele>111.0</ele><time>2026-04-17T15:44:54.008Z</time></trkpt><trkpt lat="45.4692905" lon="9.3160461"><ele>111.0</ele><time>2026-04-17T15:44:56.008Z</time></trkpt><trkpt lat="45.4692891" lon="9.3161811"><ele>111.0</ele><time>2026-04-17T15:44:58.008Z</time></trkpt><trkpt lat="45.4692822" lon="9.3163187"><ele>111.0</ele><time>2026-04-17T15:45:00.008Z</time></trkpt><trkpt lat="45.4692791" lon="9.3164619"><ele>110.8</ele><time>2026-04-17T15:45:02.008Z</time></trkpt><trkpt lat="45.4692807" lon="9.3166069"><ele>110.6</ele><time>2026-04-17T15:45:04.008Z</time></trkpt><trkpt lat="45.4692753" lon="9.3167507"><ele>110.4</ele><time>2026-04-17T15:45:06.008Z</time></trkpt><trkpt lat="45.4692704" lon="9.3168954"><ele>110.2</ele><time>2026-04-17T15:45:08.008Z</time></trkpt><trkpt lat="45.4692671" lon="9.3170422"><ele>110.0</ele><time>2026-04-17T15:45:10.008Z</time></trkpt><trkpt lat="45.469264" lon="9.3171959"><ele>109.8</ele><time>2026-04-17T15:45:12.008Z</time></trkpt><trkpt lat="45.4693206" lon="9.3173353"><ele>109.6</ele><time>2026-04-17T15:45:14.008Z</time></trkpt><trkpt lat="45.4694313" lon="9.3173672"><ele>109.4</ele><time>2026-04-17T15:45:16.008Z</time></trkpt><trkpt lat="45.4695379" lon="9.3173698"><ele>109.2</ele><time>2026-04-17T15:45:18.008Z</time></trkpt><trkpt lat="45.4696455" lon="9.3173785"><ele>109.0</ele><time>2026-04-17T15:45:20.008Z</time></trkpt><trkpt lat="45.4697526" lon="9.3173766"><ele>109.6</ele><time>2026-04-17T15:45:22.008Z</time></trkpt><trkpt lat="45.4698487" lon="9.3173765"><ele>110.2</ele><time>2026-04-17T15:45:24.009Z</time></trkpt><trkpt lat="45.4699519" lon="9.3173633"><ele>110.79999999999998</ele><time>2026-04-17T15:45:26.008Z</time></trkpt><trkpt lat="45.4700603" lon="9.3173655"><ele>111.39999999999999</ele><time>2026-04-17T15:45:28.008Z</time></trkpt><trkpt lat="45.4701556" lon="9.3173536"><ele>112.0</ele><time>2026-04-17T15:45:30.008Z</time></trkpt><trkpt lat="45.4702639" lon="9.3173435"><ele>112.0</ele><time>2026-04-17T15:45:32.008Z</time></trkpt><trkpt lat="45.4703725" lon="9.3173325"><ele>111.99999999999999</ele><time>2026-04-17T15:45:34.008Z</time></trkpt><trkpt lat="45.4704846" lon="9.3173304"><ele>111.99999999999999</ele><time>2026-04-17T15:45:36.008Z</time></trkpt><trkpt lat="45.4705904" lon="9.3173203"><ele>112.0</ele><time>2026-04-17T15:45:38.008Z</time></trkpt><trkpt lat="45.4706977" lon="9.3173224"><ele>112.0</ele><time>2026-04-17T15:45:40.008Z</time></trkpt><trkpt lat="45.4707935" lon="9.3173741"><ele>112.0</ele><time>2026-04-17T15:45:42.008Z</time></trkpt><trkpt lat="45.4708569" lon="9.3174866"><ele>111.99999999999999</ele><time>2026-04-17T15:45:44.008Z</time></trkpt><trkpt lat="45.4709273" lon="9.3175885"><ele>111.99999999999999</ele><time>2026-04-17T15:45:46.008Z</time></trkpt><trkpt lat="45.4710036" lon="9.3176786"><ele>112.0</ele><time>2026-04-17T15:45:48.008Z</time></trkpt><trkpt lat="45.4710929" lon="9.3177603"><ele>112.0</ele><time>2026-04-17T15:45:50.008Z</time></trkpt><trkpt lat="45.4711792" lon="9.3178498"><ele>112.0</ele><time>2026-04-17T15:45:52.008Z</time></trkpt><trkpt lat="45.4712712" lon="9.3179327"><ele>111.99999999999999</ele><time>2026-04-17T15:45:54.008Z</time></trkpt><trkpt lat="45.4713606" lon="9.3180131"><ele>111.99999999999999</ele><time>2026-04-17T15:45:56.008Z</time></trkpt><trkpt lat="45.4714519" lon="9.3180948"><ele>112.0</ele><time>2026-04-17T15:45:58.008Z</time></trkpt><trkpt lat="45.4715418" lon="9.3181718"><ele>112.0</ele><time>2026-04-17T15:46:00.008Z</time></trkpt><trkpt lat="45.4716303" lon="9.3182506"><ele>111.39999999999999</ele><time>2026-04-17T15:46:02.008Z</time></trkpt><trkpt lat="45.4717188" lon="9.3183237"><ele>110.79999999999998</ele><time>2026-04-17T15:46:04.008Z</time></trkpt><trkpt lat="45.4718076" lon="9.3184008"><ele>110.2</ele><time>2026-04-17T15:46:06.008Z</time></trkpt><trkpt lat="45.4718939" lon="9.318477"><ele>109.6</ele><time>2026-04-17T15:46:08.008Z</time></trkpt><trkpt lat="45.4719856" lon="9.318542"><ele>109.0</ele><time>2026-04-17T15:46:10.008Z</time></trkpt><trkpt lat="45.4720801" lon="9.3185951"><ele>109.4</ele><time>2026-04-17T15:46:12.008Z</time></trkpt><trkpt lat="45.4721757" lon="9.3186401"><ele>109.80000000000001</ele><time>2026-04-17T15:46:14.008Z</time></trkpt><trkpt lat="45.4722782" lon="9.3186639"><ele>110.19999999999999</ele><time>2026-04-17T15:46:16.008Z</time></trkpt><trkpt lat="45.4723833" lon="9.3186676"><ele>110.6</ele><time>2026-04-17T15:46:18.008Z</time></trkpt><trkpt lat="45.4724863" lon="9.3186577"><ele>111.0</ele><time>2026-04-17T15:46:20.008Z</time></trkpt><trkpt lat="45.4725875" lon="9.3186327"><ele>111.0</ele><time>2026-04-17T15:46:22.008Z</time></trkpt><trkpt lat="45.4726855" lon="9.31859"><ele>111.0</ele><time>2026-04-17T15:46:24.008Z</time></trkpt><trkpt lat="45.4727834" lon="9.3185426"><ele>111.0</ele><time>2026-04-17T15:46:26.008Z</time></trkpt><trkpt lat="45.472881" lon="9.3185008"><ele>111.0</ele><time>2026-04-17T15:46:28.008Z</time></trkpt><trkpt lat="45.472979" lon="9.3184814"><ele>111.0</ele><time>2026-04-17T15:46:30.008Z</time></trkpt><trkpt lat="45.4730694" lon="9.3185007"><ele>111.0</ele><time>2026-04-17T15:46:32.008Z</time></trkpt><trkpt lat="45.4731487" lon="9.3185646"><ele>111.0</ele><time>2026-04-17T15:46:34.008Z</time></trkpt><trkpt lat="45.4732232" lon="9.318635"><ele>111.0</ele><time>2026-04-17T15:46:36.008Z</time></trkpt><trkpt lat="45.4733021" lon="9.3187091"><ele>111.0</ele><time>2026-04-17T15:46:38.008Z</time></trkpt><trkpt lat="45.4733783" lon="9.3187919"><ele>111.0</ele><time>2026-04-17T15:46:40.008Z</time></trkpt><trkpt lat="45.4734533" lon="9.318874"><ele>111.0</ele><time>2026-04-17T15:46:42.008Z</time></trkpt><trkpt lat="45.473534" lon="9.3189183"><ele>111.0</ele><time>2026-04-17T15:46:44.008Z</time></trkpt><trkpt lat="45.4736173" lon="9.3189015"><ele>111.0</ele><time>2026-04-17T15:46:46.008Z</time></trkpt><trkpt lat="45.473711" lon="9.3189022"><ele>111.0</ele><time>2026-04-17T15:46:48.008Z</time></trkpt><trkpt lat="45.473802" lon="9.3189024"><ele>111.0</ele><time>2026-04-17T15:46:50.008Z</time></trkpt><trkpt lat="45.473893" lon="9.3188919"><ele>111.0</ele><time>2026-04-17T15:46:52.009Z</time></trkpt><trkpt lat="45.4739475" lon="9.3189646"><ele>111.33333333333333</ele><time>2026-04-17T15:46:54.008Z</time></trkpt><trkpt lat="45.4739597" lon="9.3190737"><ele>111.66666666666666</ele><time>2026-04-17T15:46:56.008Z</time></trkpt><trkpt lat="45.4739689" lon="9.3191991"><ele>112.0</ele><time>2026-04-17T15:46:58.008Z</time></trkpt><trkpt lat="45.4739724" lon="9.3193283"><ele>112.33333333333333</ele><time>2026-04-17T15:47:00.008Z</time></trkpt><trkpt lat="45.4739683" lon="9.3194547"><ele>112.66666666666666</ele><time>2026-04-17T15:47:02.008Z</time></trkpt><trkpt lat="45.4739033" lon="9.3195373"><ele>113.0</ele><time>2026-04-17T15:47:04.008Z</time></trkpt><trkpt lat="45.4738206" lon="9.3195767"><ele>112.60000000000001</ele><time>2026-04-17T15:47:06.008Z</time></trkpt><trkpt lat="45.4737322" lon="9.3195927"><ele>112.20000000000002</ele><time>2026-04-17T15:47:08.008Z</time></trkpt><trkpt lat="45.4736381" lon="9.3196031"><ele>111.8</ele><time>2026-04-17T15:47:10.008Z</time></trkpt><trkpt lat="45.4735416" lon="9.3196204"><ele>111.4</ele><time>2026-04-17T15:47:12.008Z</time></trkpt><trkpt lat="45.473435" lon="9.3196414"><ele>111.0</ele><time>2026-04-17T15:47:14.008Z</time></trkpt><trkpt lat="45.4733267" lon="9.3196598"><ele>111.0</ele><time>2026-04-17T15:47:16.008Z</time></trkpt><trkpt lat="45.4732291" lon="9.3196917"><ele>111.0</ele><time>2026-04-17T15:47:18.008Z</time></trkpt><trkpt lat="45.473121" lon="9.319721"><ele>111.0</ele><time>2026-04-17T15:47:20.008Z</time></trkpt><trkpt lat="45.4730146" lon="9.3197386"><ele>111.0</ele><time>2026-04-17T15:47:22.008Z</time></trkpt><trkpt lat="45.4729065" lon="9.3197598"><ele>111.0</ele><time>2026-04-17T15:47:24.008Z</time></trkpt><trkpt lat="45.4727976" lon="9.3197726"><ele>111.4</ele><time>2026-04-17T15:47:26.008Z</time></trkpt><trkpt lat="45.4726871" lon="9.319791"><ele>111.8</ele><time>2026-04-17T15:47:28.008Z</time></trkpt><trkpt lat="45.4725831" lon="9.3198229"><ele>112.20000000000002</ele><time>2026-04-17T15:47:30.008Z</time></trkpt><trkpt lat="45.4724771" lon="9.3198478"><ele>112.60000000000001</ele><time>2026-04-17T15:47:32.008Z</time></trkpt><trkpt lat="45.472376" lon="9.3198616"><ele>113.0</ele><time>2026-04-17T15:47:34.008Z</time></trkpt><trkpt lat="45.4722673" lon="9.3198793"><ele>113.0</ele><time>2026-04-17T15:47:36.008Z</time></trkpt><trkpt lat="45.472158" lon="9.3198989"><ele>113.00000000000001</ele><time>2026-04-17T15:47:38.008Z</time></trkpt><trkpt lat="45.4720531" lon="9.319911"><ele>113.00000000000001</ele><time>2026-04-17T15:47:40.008Z</time></trkpt><trkpt lat="45.4719445" lon="9.3199312"><ele>113.0</ele><time>2026-04-17T15:47:42.008Z</time></trkpt><trkpt lat="45.4718397" lon="9.319956"><ele>113.0</ele><time>2026-04-17T15:47:44.008Z</time></trkpt><trkpt lat="45.4717379" lon="9.319982"><ele>112.60000000000001</ele><time>2026-04-17T15:47:46.008Z</time></trkpt><trkpt lat="45.4716343" lon="9.3200103"><ele>112.20000000000002</ele><time>2026-04-17T15:47:48.008Z</time></trkpt><trkpt lat="45.4715288" lon="9.3200309"><ele>111.8</ele><time>2026-04-17T15:47:50.008Z</time></trkpt><trkpt lat="45.471424" lon="9.3200529"><ele>111.4</ele><time>2026-04-17T15:47:52.008Z</time></trkpt><trkpt lat="45.4713155" lon="9.3200797"><ele>111.0</ele><time>2026-04-17T15:47:54.008Z</time></trkpt><trkpt lat="45.4712085" lon="9.3201032"><ele>111.0</ele><time>2026-04-17T15:47:56.008Z</time></trkpt><trkpt lat="45.4711054" lon="9.3201249"><ele>111.0</ele><time>2026-04-17T15:47:58.008Z</time></trkpt><trkpt lat="45.4710031" lon="9.3201475"><ele>111.0</ele><time>2026-04-17T15:48:00.008Z</time></trkpt><trkpt lat="45.4708997" lon="9.3201676"><ele>111.0</ele><time>2026-04-17T15:48:02.008Z</time></trkpt><trkpt lat="45.4707952" lon="9.3201917"><ele>111.0</ele><time>2026-04-17T15:48:04.008Z</time></trkpt><trkpt lat="45.4706909" lon="9.3202146"><ele>111.0</ele><time>2026-04-17T15:48:06.008Z</time></trkpt><trkpt lat="45.4705863" lon="9.3202295"><ele>111.0</ele><time>2026-04-17T15:48:08.008Z</time></trkpt><trkpt lat="45.4704822" lon="9.3202513"><ele>111.0</ele><time>2026-04-17T15:48:10.008Z</time></trkpt><trkpt lat="45.4703761" lon="9.3202755"><ele>111.0</ele><time>2026-04-17T15:48:12.008Z</time></trkpt><trkpt lat="45.4702685" lon="9.3202901"><ele>111.0</ele><time>2026-04-17T15:48:14.008Z</time></trkpt><trkpt lat="45.4701717" lon="9.3202906"><ele>111.0</ele><time>2026-04-17T15:48:16.008Z</time></trkpt><trkpt lat="45.4700697" lon="9.3203134"><ele>111.0</ele><time>2026-04-17T15:48:18.008Z</time></trkpt><trkpt lat="45.4699596" lon="9.3203036"><ele>111.0</ele><time>2026-04-17T15:48:20.008Z</time></trkpt><trkpt lat="45.469861" lon="9.320337"><ele>111.0</ele><time>2026-04-17T15:48:22.008Z</time></trkpt><trkpt lat="45.4697726" lon="9.3204313"><ele>111.0</ele><time>2026-04-17T15:48:24.008Z</time></trkpt><trkpt lat="45.4697232" lon="9.3205549"><ele>111.0</ele><time>2026-04-17T15:48:26.008Z</time></trkpt><trkpt lat="45.4697291" lon="9.3206983"><ele>111.0</ele><time>2026-04-17T15:48:28.008Z</time></trkpt><trkpt lat="45.4697625" lon="9.320835"><ele>111.0</ele><time>2026-04-17T15:48:30.008Z</time></trkpt><trkpt lat="45.4698383" lon="9.3209187"><ele>111.0</ele><time>2026-04-17T15:48:32.008Z</time></trkpt><trkpt lat="45.4699229" lon="9.3209728"><ele>111.0</ele><time>2026-04-17T15:48:34.008Z</time></trkpt><trkpt lat="45.470015" lon="9.3210031"><ele>111.0</ele><time>2026-04-17T15:48:36.008Z</time></trkpt><trkpt lat="45.470115" lon="9.3210263"><ele>111.0</ele><time>2026-04-17T15:48:38.008Z</time></trkpt><trkpt lat="45.4702039" lon="9.3210755"><ele>111.0</ele><time>2026-04-17T15:48:40.008Z</time></trkpt><trkpt lat="45.4703038" lon="9.3211272"><ele>111.0</ele><time>2026-04-17T15:48:42.009Z</time></trkpt><trkpt lat="45.4703756" lon="9.3212143"><ele>111.0</ele><time>2026-04-17T15:48:44.008Z</time></trkpt><trkpt lat="45.4704392" lon="9.3213301"><ele>110.8</ele><time>2026-04-17T15:48:46.008Z</time></trkpt><trkpt lat="45.4705207" lon="9.3214235"><ele>110.6</ele><time>2026-04-17T15:48:48.008Z</time></trkpt><trkpt lat="45.4706217" lon="9.321474"><ele>110.4</ele><time>2026-04-17T15:48:50.008Z</time></trkpt><trkpt lat="45.4707244" lon="9.3215167"><ele>110.2</ele><time>2026-04-17T15:48:52.008Z</time></trkpt><trkpt lat="45.4708174" lon="9.3215757"><ele>110.0</ele><time>2026-04-17T15:48:54.008Z</time></trkpt><trkpt lat="45.4708882" lon="9.3216741"><ele>110.0</ele><time>2026-04-17T15:48:56.008Z</time></trkpt><trkpt lat="45.4709377" lon="9.3217978"><ele>110.0</ele><time>2026-04-17T15:48:58.008Z</time></trkpt><trkpt lat="45.4710066" lon="9.3219055"><ele>110.0</ele><time>2026-04-17T15:49:00.008Z</time></trkpt><trkpt lat="45.4710853" lon="9.3219925"><ele>110.0</ele><time>2026-04-17T15:49:02.008Z</time></trkpt><trkpt lat="45.4711768" lon="9.3220373"><ele>110.0</ele><time>2026-04-17T15:49:04.008Z</time></trkpt><trkpt lat="45.4712624" lon="9.3219894"><ele>110.4</ele><time>2026-04-17T15:49:06.008Z</time></trkpt><trkpt lat="45.4713385" lon="9.3219125"><ele>110.8</ele><time>2026-04-17T15:49:08.008Z</time></trkpt><trkpt lat="45.4714112" lon="9.32184"><ele>111.19999999999999</ele><time>2026-04-17T15:49:10.008Z</time></trkpt><trkpt lat="45.4714828" lon="9.321762"><ele>111.6</ele><time>2026-04-17T15:49:12.008Z</time></trkpt><trkpt lat="45.4715627" lon="9.3217248"><ele>112.0</ele><time>2026-04-17T15:49:14.008Z</time></trkpt><trkpt lat="45.4716604" lon="9.3217256"><ele>112.0</ele><time>2026-04-17T15:49:16.008Z</time></trkpt><trkpt lat="45.4717602" lon="9.32173"><ele>111.99999999999999</ele><time>2026-04-17T15:49:18.009Z</time></trkpt><trkpt lat="45.4718588" lon="9.3217265"><ele>111.99999999999999</ele><time>2026-04-17T15:49:20.008Z</time></trkpt><trkpt lat="45.4719565" lon="9.321723"><ele>112.0</ele><time>2026-04-17T15:49:22.008Z</time></trkpt><trkpt lat="45.4720619" lon="9.3217352"><ele>112.0</ele><time>2026-04-17T15:49:24.008Z</time></trkpt><trkpt lat="45.4721632" lon="9.3217177"><ele>111.8</ele><time>2026-04-17T15:49:26.008Z</time></trkpt><trkpt lat="45.472257" lon="9.3216531"><ele>111.6</ele><time>2026-04-17T15:49:28.008Z</time></trkpt><trkpt lat="45.4723323" lon="9.3215648"><ele>111.39999999999999</ele><time>2026-04-17T15:49:30.008Z</time></trkpt><trkpt lat="45.4724001" lon="9.3214628"><ele>111.19999999999999</ele><time>2026-04-17T15:49:32.008Z</time></trkpt><trkpt lat="45.4724808" lon="9.3213788"><ele>111.0</ele><time>2026-04-17T15:49:34.008Z</time></trkpt><trkpt lat="45.4725733" lon="9.3213454"><ele>111.0</ele><time>2026-04-17T15:49:36.008Z</time></trkpt><trkpt lat="45.4726682" lon="9.3213533"><ele>111.0</ele><time>2026-04-17T15:49:38.008Z</time></trkpt><trkpt lat="45.4727609" lon="9.3213983"><ele>111.0</ele><time>2026-04-17T15:49:40.008Z</time></trkpt><trkpt lat="45.472836" lon="9.3214702"><ele>111.0</ele><time>2026-04-17T15:49:42.008Z</time></trkpt><trkpt lat="45.4729156" lon="9.3215453"><ele>111.0</ele><time>2026-04-17T15:49:44.008Z</time></trkpt><trkpt lat="45.4730057" lon="9.3216212"><ele>110.6</ele><time>2026-04-17T15:49:46.008Z</time></trkpt><trkpt lat="45.4730931" lon="9.321686"><ele>110.19999999999999</ele><time>2026-04-17T15:49:48.008Z</time></trkpt><trkpt lat="45.473178" lon="9.3217498"><ele>109.80000000000001</ele><time>2026-04-17T15:49:50.008Z</time></trkpt><trkpt lat="45.4732388" lon="9.3218548"><ele>109.4</ele><time>2026-04-17T15:49:52.008Z</time></trkpt><trkpt lat="45.4732878" lon="9.3219808"><ele>109.0</ele><time>2026-04-17T15:49:54.008Z</time></trkpt><trkpt lat="45.4733306" lon="9.3221081"><ele>109.0</ele><time>2026-04-17T15:49:56.008Z</time></trkpt><trkpt lat="45.4733863" lon="9.3222306"><ele>109.0</ele><time>2026-04-17T15:49:58.008Z</time></trkpt><trkpt lat="45.4734531" lon="9.3223352"><ele>109.0</ele><time>2026-04-17T15:50:00.008Z</time></trkpt><trkpt lat="45.4735305" lon="9.3224202"><ele>109.0</ele><time>2026-04-17T15:50:02.008Z</time></trkpt><trkpt lat="45.4736178" lon="9.3224736"><ele>109.0</ele><time>2026-04-17T15:50:04.008Z</time></trkpt><trkpt lat="45.4737117" lon="9.3225203"><ele>109.4</ele><time>2026-04-17T15:50:06.008Z</time></trkpt><trkpt lat="45.4738061" lon="9.3225636"><ele>109.80000000000001</ele><time>2026-04-17T15:50:08.008Z</time></trkpt><trkpt lat="45.4739" lon="9.3226061"><ele>110.19999999999999</ele><time>2026-04-17T15:50:10.008Z</time></trkpt><trkpt lat="45.4740019" lon="9.3226156"><ele>110.6</ele><time>2026-04-17T15:50:12.008Z</time></trkpt><trkpt lat="45.4740998" lon="9.3225789"><ele>111.0</ele><time>2026-04-17T15:50:14.008Z</time></trkpt><trkpt lat="45.4741296" lon="9.3224519"><ele>111.0</ele><time>2026-04-17T15:50:16.008Z</time></trkpt><trkpt lat="45.474191" lon="9.322337"><ele>111.0</ele><time>2026-04-17T15:50:18.008Z</time></trkpt><trkpt lat="45.4742771" lon="9.3222668"><ele>111.0</ele><time>2026-04-17T15:50:20.008Z</time></trkpt><trkpt lat="45.474368" lon="9.3222492"><ele>111.0</ele><time>2026-04-17T15:50:22.008Z</time></trkpt><trkpt lat="45.4744689" lon="9.3222514"><ele>111.0</ele><time>2026-04-17T15:50:24.008Z</time></trkpt><trkpt lat="45.474565" lon="9.3222381"><ele>111.19999999999999</ele><time>2026-04-17T15:50:26.008Z</time></trkpt><trkpt lat="45.4746525" lon="9.3221757"><ele>111.39999999999999</ele><time>2026-04-17T15:50:28.008Z</time></trkpt><trkpt lat="45.4747146" lon="9.3220697"><ele>111.6</ele><time>2026-04-17T15:50:30.008Z</time></trkpt><trkpt lat="45.4747608" lon="9.3219441"><ele>111.8</ele><time>2026-04-17T15:50:32.008Z</time></trkpt><trkpt lat="45.4748027" lon="9.3218131"><ele>112.0</ele><time>2026-04-17T15:50:34.008Z</time></trkpt><trkpt lat="45.4748423" lon="9.3216837"><ele>112.0</ele><time>2026-04-17T15:50:36.008Z</time></trkpt><trkpt lat="45.4748794" lon="9.3215518"><ele>111.99999999999999</ele><time>2026-04-17T15:50:38.008Z</time></trkpt><trkpt lat="45.4749146" lon="9.3214221"><ele>111.99999999999999</ele><time>2026-04-17T15:50:40.008Z</time></trkpt><trkpt lat="45.4749398" lon="9.3212899"><ele>112.0</ele><time>2026-04-17T15:50:42.008Z</time></trkpt><trkpt lat="45.4749512" lon="9.3211574"><ele>112.0</ele><time>2026-04-17T15:50:44.008Z</time></trkpt><trkpt lat="45.4749647" lon="9.3210224"><ele>111.83333333333334</ele><time>2026-04-17T15:50:46.008Z</time></trkpt><trkpt lat="45.4749958" lon="9.3209077"><ele>111.66666666666667</ele><time>2026-04-17T15:50:48.008Z</time></trkpt><trkpt lat="45.4750595" lon="9.3208537"><ele>111.5</ele><time>2026-04-17T15:50:50.008Z</time></trkpt><trkpt lat="45.4751128" lon="9.3208059"><ele>111.33333333333334</ele><time>2026-04-17T15:50:52.008Z</time></trkpt><trkpt lat="45.4751747" lon="9.3207573"><ele>111.16666666666667</ele><time>2026-04-17T15:50:54.008Z</time></trkpt><trkpt lat="45.4752401" lon="9.3206934"><ele>111.0</ele><time>2026-04-17T15:50:56.008Z</time></trkpt><trkpt lat="45.4753113" lon="9.3206253"><ele>111.19999999999999</ele><time>2026-04-17T15:50:58.008Z</time></trkpt><trkpt lat="45.4753853" lon="9.3205485"><ele>111.39999999999999</ele><time>2026-04-17T15:51:00.008Z</time></trkpt><trkpt lat="45.4754614" lon="9.3204802"><ele>111.6</ele><time>2026-04-17T15:51:02.008Z</time></trkpt><trkpt lat="45.4755456" lon="9.3204131"><ele>111.8</ele><time>2026-04-17T15:51:04.008Z</time></trkpt><trkpt lat="45.4756302" lon="9.3203495"><ele>112.0</ele><time>2026-04-17T15:51:06.008Z</time></trkpt><trkpt lat="45.4757143" lon="9.3202955"><ele>110.8</ele><time>2026-04-17T15:51:08.008Z</time></trkpt><trkpt lat="45.4757996" lon="9.3202553"><ele>109.6</ele><time>2026-04-17T15:51:10.008Z</time></trkpt><trkpt lat="45.4758881" lon="9.3202206"><ele>108.39999999999999</ele><time>2026-04-17T15:51:12.008Z</time></trkpt><trkpt lat="45.4759826" lon="9.3201922"><ele>107.19999999999999</ele><time>2026-04-17T15:51:14.008Z</time></trkpt><trkpt lat="45.4760711" lon="9.3201555"><ele>106.0</ele><time>2026-04-17T15:51:16.008Z</time></trkpt><trkpt lat="45.4761591" lon="9.3201131"><ele>106.0</ele><time>2026-04-17T15:51:18.008Z</time></trkpt><trkpt lat="45.4762499" lon="9.3200714"><ele>106.0</ele><time>2026-04-17T15:51:20.008Z</time></trkpt><trkpt lat="45.4763347" lon="9.3200201"><ele>106.0</ele><time>2026-04-17T15:51:22.008Z</time></trkpt><trkpt lat="45.4764252" lon="9.3199749"><ele>106.0</ele><time>2026-04-17T15:51:24.008Z</time></trkpt><trkpt lat="45.476521" lon="9.3199347"><ele>106.0</ele><time>2026-04-17T15:51:26.009Z</time></trkpt><trkpt lat="45.4766198" lon="9.3199123"><ele>107.19999999999999</ele><time>2026-04-17T15:51:28.009Z</time></trkpt><trkpt lat="45.4767186" lon="9.31988"><ele>108.39999999999999</ele><time>2026-04-17T15:51:30.008Z</time></trkpt><trkpt lat="45.4768221" lon="9.3198713"><ele>109.6</ele><time>2026-04-17T15:51:32.008Z</time></trkpt><trkpt lat="45.4769216" lon="9.3198866"><ele>110.8</ele><time>2026-04-17T15:51:34.008Z</time></trkpt><trkpt lat="45.4770105" lon="9.3199297"><ele>112.0</ele><time>2026-04-17T15:51:36.008Z</time></trkpt><trkpt lat="45.4771013" lon="9.3199907"><ele>112.0</ele><time>2026-04-17T15:51:38.008Z</time></trkpt><trkpt lat="45.4771983" lon="9.320065"><ele>111.99999999999999</ele><time>2026-04-17T15:51:40.008Z</time></trkpt><trkpt lat="45.4772861" lon="9.3201406"><ele>111.99999999999999</ele><time>2026-04-17T15:51:42.008Z</time></trkpt><trkpt lat="45.4773796" lon="9.3202144"><ele>112.0</ele><time>2026-04-17T15:51:44.009Z</time></trkpt><trkpt lat="45.4774664" lon="9.3202947"><ele>112.0</ele><time>2026-04-17T15:51:46.008Z</time></trkpt><trkpt lat="45.4775484" lon="9.3203758"><ele>112.0</ele><time>2026-04-17T15:51:48.008Z</time></trkpt><trkpt lat="45.4776209" lon="9.3204737"><ele>111.99999999999999</ele><time>2026-04-17T15:51:50.008Z</time></trkpt><trkpt lat="45.4776784" lon="9.320594"><ele>111.99999999999999</ele><time>2026-04-17T15:51:52.008Z</time></trkpt><trkpt lat="45.4777253" lon="9.3207281"><ele>112.0</ele><time>2026-04-17T15:51:54.008Z</time></trkpt><trkpt lat="45.4777776" lon="9.3208531"><ele>112.0</ele><time>2026-04-17T15:51:56.008Z</time></trkpt><trkpt lat="45.4778476" lon="9.320965"><ele>112.39999999999999</ele><time>2026-04-17T15:51:58.008Z</time></trkpt><trkpt lat="45.477927" lon="9.3210613"><ele>112.79999999999998</ele><time>2026-04-17T15:52:00.008Z</time></trkpt><trkpt lat="45.4780011" lon="9.3211639"><ele>113.2</ele><time>2026-04-17T15:52:02.008Z</time></trkpt><trkpt lat="45.47806" lon="9.3212775"><ele>113.6</ele><time>2026-04-17T15:52:04.008Z</time></trkpt><trkpt lat="45.478129" lon="9.3213849"><ele>114.0</ele><time>2026-04-17T15:52:06.008Z</time></trkpt><trkpt lat="45.4782062" lon="9.3214816"><ele>114.6</ele><time>2026-04-17T15:52:08.008Z</time></trkpt><trkpt lat="45.478288" lon="9.3215492"><ele>115.2</ele><time>2026-04-17T15:52:10.008Z</time></trkpt><trkpt lat="45.478379" lon="9.3215837"><ele>115.79999999999998</ele><time>2026-04-17T15:52:12.008Z</time></trkpt><trkpt lat="45.47847" lon="9.3216094"><ele>116.39999999999999</ele><time>2026-04-17T15:52:14.008Z</time></trkpt><trkpt lat="45.4785592" lon="9.3216472"><ele>117.0</ele><time>2026-04-17T15:52:16.008Z</time></trkpt><trkpt lat="45.4786422" lon="9.3217088"><ele>117.0</ele><time>2026-04-17T15:52:18.009Z</time></trkpt><trkpt lat="45.4787146" lon="9.3217698"><ele>117.0</ele><time>2026-04-17T15:52:20.008Z</time></trkpt><trkpt lat="45.4787534" lon="9.3216812"><ele>117.0</ele><time>2026-04-17T15:52:23.008Z</time></trkpt><trkpt lat="45.4787429" lon="9.3215464"><ele>117.0</ele><time>2026-04-17T15:52:26.008Z</time></trkpt><trkpt lat="45.4787237" lon="9.3214402"><ele>117.0</ele><time>2026-04-17T15:52:28.008Z</time></trkpt><trkpt lat="45.4786825" lon="9.321346"><ele>117.0</ele><time>2026-04-17T15:52:30.008Z</time></trkpt><trkpt lat="45.4786108" lon="9.3212672"><ele>116.6</ele><time>2026-04-17T15:52:32.008Z</time></trkpt><trkpt lat="45.4785441" lon="9.3211779"><ele>116.19999999999999</ele><time>2026-04-17T15:52:34.008Z</time></trkpt><trkpt lat="45.4784678" lon="9.3211154"><ele>115.8</ele><time>2026-04-17T15:52:36.008Z</time></trkpt><trkpt lat="45.4783816" lon="9.3210704"><ele>115.4</ele><time>2026-04-17T15:52:38.008Z</time></trkpt><trkpt lat="45.478297" lon="9.321017"><ele>115.0</ele><time>2026-04-17T15:52:40.008Z</time></trkpt><trkpt lat="45.4782264" lon="9.3209262"><ele>115.0</ele><time>2026-04-17T15:52:42.008Z</time></trkpt><trkpt lat="45.4781993" lon="9.3208006"><ele>115.0</ele><time>2026-04-17T15:52:44.008Z</time></trkpt><trkpt lat="45.4781892" lon="9.320666"><ele>115.0</ele><time>2026-04-17T15:52:46.008Z</time></trkpt><trkpt lat="45.4781726" lon="9.3205293"><ele>115.0</ele><time>2026-04-17T15:52:48.008Z</time></trkpt><trkpt lat="45.4781552" lon="9.3204056"><ele>115.0</ele><time>2026-04-17T15:52:50.008Z</time></trkpt><trkpt lat="45.4781425" lon="9.3202681"><ele>114.8</ele><time>2026-04-17T15:52:52.008Z</time></trkpt><trkpt lat="45.4781344" lon="9.3201291"><ele>114.6</ele><time>2026-04-17T15:52:54.008Z</time></trkpt><trkpt lat="45.4781171" lon="9.3199947"><ele>114.4</ele><time>2026-04-17T15:52:56.008Z</time></trkpt><trkpt lat="45.4781087" lon="9.3198595"><ele>114.2</ele><time>2026-04-17T15:52:58.008Z</time></trkpt><trkpt lat="45.4781242" lon="9.3197325"><ele>114.0</ele><time>2026-04-17T15:53:00.008Z</time></trkpt><trkpt lat="45.4781346" lon="9.3196007"><ele>114.0</ele><time>2026-04-17T15:53:02.008Z</time></trkpt><trkpt lat="45.4781267" lon="9.319465"><ele>114.0</ele><time>2026-04-17T15:53:04.008Z</time></trkpt><trkpt lat="45.4781135" lon="9.3193462"><ele>114.0</ele><time>2026-04-17T15:53:06.008Z</time></trkpt><trkpt lat="45.4780849" lon="9.3192339"><ele>114.0</ele><time>2026-04-17T15:53:08.008Z</time></trkpt><trkpt lat="45.4780236" lon="9.3191337"><ele>114.0</ele><time>2026-04-17T15:53:10.008Z</time></trkpt><trkpt lat="45.4779606" lon="9.3190281"><ele>114.0</ele><time>2026-04-17T15:53:12.008Z</time></trkpt><trkpt lat="45.477897" lon="9.3189102"><ele>114.0</ele><time>2026-04-17T15:53:14.008Z</time></trkpt><trkpt lat="45.4778896" lon="9.3187687"><ele>114.0</ele><time>2026-04-17T15:53:16.008Z</time></trkpt><trkpt lat="45.4779058" lon="9.3186259"><ele>114.0</ele><time>2026-04-17T15:53:18.008Z</time></trkpt><trkpt lat="45.4779291" lon="9.3184867"><ele>114.0</ele><time>2026-04-17T15:53:20.008Z</time></trkpt><trkpt lat="45.4779454" lon="9.3183424"><ele>114.0</ele><time>2026-04-17T15:53:22.008Z</time></trkpt><trkpt lat="45.477976" lon="9.3182061"><ele>114.0</ele><time>2026-04-17T15:53:24.008Z</time></trkpt><trkpt lat="45.4779929" lon="9.3180647"><ele>114.0</ele><time>2026-04-17T15:53:26.008Z</time></trkpt><trkpt lat="45.4780174" lon="9.3179309"><ele>114.0</ele><time>2026-04-17T15:53:28.008Z</time></trkpt><trkpt lat="45.4780379" lon="9.3177995"><ele>114.0</ele><time>2026-04-17T15:53:30.008Z</time></trkpt><trkpt lat="45.4780494" lon="9.3176904"><ele>113.71428571428571</ele><time>2026-04-17T15:53:32.008Z</time></trkpt><trkpt lat="45.4780622" lon="9.3176023"><ele>113.42857142857142</ele><time>2026-04-17T15:53:34.008Z</time></trkpt><trkpt lat="45.4781147" lon="9.3175425"><ele>113.14285714285714</ele><time>2026-04-17T15:53:37.008Z</time></trkpt><trkpt lat="45.4781719" lon="9.3176446"><ele>112.85714285714286</ele><time>2026-04-17T15:53:40.008Z</time></trkpt><trkpt lat="45.4781863" lon="9.3177473"><ele>112.57142857142857</ele><time>2026-04-17T15:53:42.008Z</time></trkpt><trkpt lat="45.4781926" lon="9.3178502"><ele>112.28571428571428</ele><time>2026-04-17T15:53:44.008Z</time></trkpt><trkpt lat="45.4781974" lon="9.3179432"><ele>112.0</ele><time>2026-04-17T15:53:46.009Z</time></trkpt><trkpt lat="45.478203" lon="9.3180387"><ele>112.28571428571428</ele><time>2026-04-17T15:53:48.008Z</time></trkpt><trkpt lat="45.4782078" lon="9.3181368"><ele>112.57142857142857</ele><time>2026-04-17T15:53:50.008Z</time></trkpt><trkpt lat="45.478213" lon="9.3182387"><ele>112.85714285714286</ele><time>2026-04-17T15:53:52.008Z</time></trkpt><trkpt lat="45.4782169" lon="9.3183386"><ele>113.14285714285714</ele><time>2026-04-17T15:53:54.008Z</time></trkpt><trkpt lat="45.4782208" lon="9.3184349"><ele>113.42857142857142</ele><time>2026-04-17T15:53:56.008Z</time></trkpt><trkpt lat="45.4782213" lon="9.3185294"><ele>113.71428571428571</ele><time>2026-04-17T15:53:58.008Z</time></trkpt><trkpt lat="45.4782194" lon="9.31862"><ele>114.0</ele><time>2026-04-17T15:54:00.008Z</time></trkpt><trkpt lat="45.4782189" lon="9.3187534"><ele>114.0</ele><time>2026-04-17T15:54:03.008Z</time></trkpt><trkpt lat="45.4782282" lon="9.3188447"><ele>113.99999999999999</ele><time>2026-04-17T15:54:05.008Z</time></trkpt><trkpt lat="45.4782478" lon="9.3189326"><ele>114.0</ele><time>2026-04-17T15:54:07.008Z</time></trkpt><trkpt lat="45.4782701" lon="9.3190167"><ele>114.0</ele><time>2026-04-17T15:54:09.008Z</time></trkpt><trkpt lat="45.4783019" lon="9.3190953"><ele>113.99999999999999</ele><time>2026-04-17T15:54:11.008Z</time></trkpt><trkpt lat="45.4783277" lon="9.3191785"><ele>114.0</ele><time>2026-04-17T15:54:13.008Z</time></trkpt><trkpt lat="45.4783668" lon="9.3192602"><ele>114.0</ele><time>2026-04-17T15:54:15.008Z</time></trkpt><trkpt lat="45.4784538" lon="9.319265"><ele>114.0</ele><time>2026-04-17T15:54:18.008Z</time></trkpt><trkpt lat="45.4785152" lon="9.3192405"><ele>113.99999999999999</ele><time>2026-04-17T15:54:20.008Z</time></trkpt><trkpt lat="45.478586" lon="9.3192251"><ele>114.0</ele><time>2026-04-17T15:54:22.008Z</time></trkpt><trkpt lat="45.4786617" lon="9.3192169"><ele>114.0</ele><time>2026-04-17T15:54:24.008Z</time></trkpt><trkpt lat="45.4787336" lon="9.3192072"><ele>113.99999999999999</ele><time>2026-04-17T15:54:26.008Z</time></trkpt><trkpt lat="45.4788078" lon="9.3191862"><ele>114.0</ele><time>2026-04-17T15:54:28.008Z</time></trkpt><trkpt lat="45.478878" lon="9.3191714"><ele>114.0</ele><time>2026-04-17T15:54:30.008Z</time></trkpt><trkpt lat="45.4789467" lon="9.3191583"><ele>114.4</ele><time>2026-04-17T15:54:32.008Z</time></trkpt><trkpt lat="45.4790335" lon="9.3191461"><ele>114.80000000000001</ele><time>2026-04-17T15:54:34.008Z</time></trkpt><trkpt lat="45.4791345" lon="9.3191394"><ele>115.19999999999999</ele><time>2026-04-17T15:54:36.008Z</time></trkpt><trkpt lat="45.4792379" lon="9.3191363"><ele>115.6</ele><time>2026-04-17T15:54:38.008Z</time></trkpt><trkpt lat="45.4793291" lon="9.3191471"><ele>116.0</ele><time>2026-04-17T15:54:40.008Z</time></trkpt><trkpt lat="45.4794325" lon="9.3191449"><ele>116.0</ele><time>2026-04-17T15:54:42.008Z</time></trkpt><trkpt lat="45.4795513" lon="9.3191528"><ele>116.0</ele><time>2026-04-17T15:54:44.008Z</time></trkpt><trkpt lat="45.4796141" lon="9.3191594"><ele>116.0</ele><time>2026-04-17T15:54:45.008Z</time></trkpt><trkpt lat="45.4797326" lon="9.3191688"><ele>116.0</ele><time>2026-04-17T15:54:47.008Z</time></trkpt><trkpt lat="45.4798288" lon="9.3191814"><ele>116.0</ele><time>2026-04-17T15:54:49.008Z</time></trkpt><trkpt lat="45.4799047" lon="9.3191836"><ele>115.6</ele><time>2026-04-17T15:54:51.008Z</time></trkpt><trkpt lat="45.4799545" lon="9.3192738"><ele>115.19999999999999</ele><time>2026-04-17T15:54:54.008Z</time></trkpt><trkpt lat="45.479947" lon="9.3193758"><ele>114.80000000000001</ele><time>2026-04-17T15:54:56.008Z</time></trkpt><trkpt lat="45.4799426" lon="9.3195075"><ele>114.4</ele><time>2026-04-17T15:54:58.008Z</time></trkpt><trkpt lat="45.4799396" lon="9.3196575"><ele>114.0</ele><time>2026-04-17T15:55:00.008Z</time></trkpt><trkpt lat="45.4799373" lon="9.3198069"><ele>114.0</ele><time>2026-04-17T15:55:02.008Z</time></trkpt><trkpt lat="45.479928" lon="9.3199443"><ele>114.0</ele><time>2026-04-17T15:55:04.008Z</time></trkpt><trkpt lat="45.4799202" lon="9.3200816"><ele>114.0</ele><time>2026-04-17T15:55:06.008Z</time></trkpt><trkpt lat="45.4799156" lon="9.3202207"><ele>114.0</ele><time>2026-04-17T15:55:08.008Z</time></trkpt><trkpt lat="45.4799086" lon="9.32036"><ele>114.0</ele><time>2026-04-17T15:55:10.008Z</time></trkpt><trkpt lat="45.4799036" lon="9.3205072"><ele>114.0</ele><time>2026-04-17T15:55:12.008Z</time></trkpt><trkpt lat="45.4798991" lon="9.3206528"><ele>114.0</ele><time>2026-04-17T15:55:14.008Z</time></trkpt><trkpt lat="45.4799137" lon="9.320761"><ele>114.0</ele><time>2026-04-17T15:55:16.008Z</time></trkpt><trkpt lat="45.4799799" lon="9.3208194"><ele>114.0</ele><time>2026-04-17T15:55:18.008Z</time></trkpt><trkpt lat="45.4800642" lon="9.3208316"><ele>114.0</ele><time>2026-04-17T15:55:20.008Z</time></trkpt><trkpt lat="45.4801603" lon="9.3208411"><ele>114.0</ele><time>2026-04-17T15:55:22.008Z</time></trkpt><trkpt lat="45.4802609" lon="9.3208532"><ele>114.0</ele><time>2026-04-17T15:55:24.008Z</time></trkpt><trkpt lat="45.4803607" lon="9.3208647"><ele>114.0</ele><time>2026-04-17T15:55:26.008Z</time></trkpt><trkpt lat="45.4804551" lon="9.3208743"><ele>114.0</ele><time>2026-04-17T15:55:28.008Z</time></trkpt><trkpt lat="45.4805529" lon="9.3208895"><ele>114.0</ele><time>2026-04-17T15:55:30.008Z</time></trkpt><trkpt lat="45.4806539" lon="9.3209068"><ele>114.0</ele><time>2026-04-17T15:55:32.008Z</time></trkpt><trkpt lat="45.4807532" lon="9.3209557"><ele>114.2</ele><time>2026-04-17T15:55:34.008Z</time></trkpt><trkpt lat="45.4808466" lon="9.321019"><ele>114.4</ele><time>2026-04-17T15:55:36.008Z</time></trkpt><trkpt lat="45.4809258" lon="9.3210813"><ele>114.6</ele><time>2026-04-17T15:55:38.008Z</time></trkpt><trkpt lat="45.4810055" lon="9.3211337"><ele>114.8</ele><time>2026-04-17T15:55:40.008Z</time></trkpt><trkpt lat="45.4810887" lon="9.3211932"><ele>115.0</ele><time>2026-04-17T15:55:42.008Z</time></trkpt><trkpt lat="45.481178" lon="9.3212519"><ele>115.00000000000001</ele><time>2026-04-17T15:55:44.008Z</time></trkpt><trkpt lat="45.4812628" lon="9.3213034"><ele>115.0</ele><time>2026-04-17T15:55:46.008Z</time></trkpt><trkpt lat="45.4813464" lon="9.3213586"><ele>115.0</ele><time>2026-04-17T15:55:48.008Z</time></trkpt><trkpt lat="45.4814283" lon="9.3214227"><ele>115.0</ele><time>2026-04-17T15:55:50.008Z</time></trkpt><trkpt lat="45.4814851" lon="9.3215026"><ele>115.00000000000001</ele><time>2026-04-17T15:55:52.008Z</time></trkpt><trkpt lat="45.4814859" lon="9.3216173"><ele>115.0</ele><time>2026-04-17T15:55:55.008Z</time></trkpt><trkpt lat="45.4815241" lon="9.3217023"><ele>115.16666666666667</ele><time>2026-04-17T15:55:58.008Z</time></trkpt><trkpt lat="45.4815197" lon="9.3218074"><ele>115.33333333333334</ele><time>2026-04-17T15:56:00.008Z</time></trkpt><trkpt lat="45.4815179" lon="9.3219262"><ele>115.5</ele><time>2026-04-17T15:56:02.008Z</time></trkpt><trkpt lat="45.4815225" lon="9.3220603"><ele>115.66666666666666</ele><time>2026-04-17T15:56:04.008Z</time></trkpt><trkpt lat="45.481523" lon="9.3221961"><ele>115.83333333333333</ele><time>2026-04-17T15:56:06.008Z</time></trkpt><trkpt lat="45.481451" lon="9.3222746"><ele>116.0</ele><time>2026-04-17T15:56:08.008Z</time></trkpt><trkpt lat="45.4813525" lon="9.3222859"><ele>115.6</ele><time>2026-04-17T15:56:10.008Z</time></trkpt><trkpt lat="45.481245" lon="9.3223025"><ele>115.19999999999999</ele><time>2026-04-17T15:56:12.008Z</time></trkpt><trkpt lat="45.4811332" lon="9.3223102"><ele>114.80000000000001</ele><time>2026-04-17T15:56:14.008Z</time></trkpt><trkpt lat="45.48102" lon="9.3223251"><ele>114.4</ele><time>2026-04-17T15:56:16.008Z</time></trkpt><trkpt lat="45.4809123" lon="9.322342"><ele>114.0</ele><time>2026-04-17T15:56:18.008Z</time></trkpt><trkpt lat="45.4808014" lon="9.3223515"><ele>114.0</ele><time>2026-04-17T15:56:20.008Z</time></trkpt><trkpt lat="45.4806918" lon="9.3223513"><ele>114.0</ele><time>2026-04-17T15:56:22.008Z</time></trkpt><trkpt lat="45.4805818" lon="9.3223589"><ele>114.0</ele><time>2026-04-17T15:56:24.008Z</time></trkpt><trkpt lat="45.4804797" lon="9.3223615"><ele>114.0</ele><time>2026-04-17T15:56:26.008Z</time></trkpt><trkpt lat="45.4804276" lon="9.3224387"><ele>114.0</ele><time>2026-04-17T15:56:29.008Z</time></trkpt></trkseg></trk></gpx>